
Distance (Route):
Temperature : -49.5°C
Humidity : 1.1%
Pressure : 27.6hPa| Receiver | Frames | First received | Last received |
|---|---|---|---|
| SQ9EZE-13 | 302 | 2026-09-03 11:22:47 | 2026-09-03 13:14:16 |
| SP9KGR-15 | 199 | 2026-09-03 11:58:59 | 2026-09-03 13:13:12 |
| HA6NAB-11 | 173 | 2026-09-03 11:35:42 | 2026-09-03 13:13:45 |
| SP9SOS | 130 | 2026-09-03 11:46:42 | 2026-09-03 13:14:06 |
| SQ9EZE-14 | 92 | 2026-09-03 11:23:19 | 2026-09-03 13:14:02 |
| GYPAP8-17 | 90 | 2026-09-03 11:20:14 | 2026-09-03 13:14:06 |
| OM5KV | 57 | 2026-09-03 11:26:29 | 2026-09-03 11:31:55 |
| OE5DRO-10 | 26 | 2026-09-03 12:33:01 | 2026-09-03 13:01:59 |
| LZ4TU-5 | 12 | 2026-09-03 12:38:26 | 2026-09-03 13:13:28 |
| OE3JTB-15 | 6 | 2026-09-03 11:28:29 | 2026-09-03 11:38:54 |
| Receiver | Date | Latitude | Longitude | Direction | Speed | Altitude | Climb | Temperature | Humidity | Pressure | Voltage | Killtimer | Uptime | BKT | XDATA |
|---|---|---|---|---|---|---|---|---|---|---|---|---|---|---|---|
| SQ9EZE-13 | 2026-09-03 13:14:16 | -12.03347 | -77.03690 | 0° | 0km/h | 1698m | 0.0m/s | -49.5°C | 1.1% | 27.6hPa | 2.7V | 00:00:00 | 00:00:00 | 00:00:00 | |
| SP9SOS | 2026-09-03 13:14:06 | -12.03347 | -77.03690 | 0° | 0km/h | 1698m | 0.0m/s | -48.2°C | 1.1% | 25.4hPa | 2.7V | 00:00:00 | 00:00:00 | 00:00:00 | |
| GYPAP8-17 | 2026-09-03 13:14:06 | -12.03347 | -77.03690 | 0° | 0km/h | 1698m | 0.0m/s | -48.2°C | 1.1% | 25.4hPa | 2.7V | 00:00:00 | 00:00:00 | 00:00:00 | |
| SQ9EZE-14 | 2026-09-03 13:14:02 | -12.03347 | -77.03690 | 0° | 0km/h | 1698m | 0.0m/s | -47.0°C | 1.0% | 24.4hPa | 2.7V | 00:00:00 | 00:00:00 | 00:00:00 | |
| SQ9EZE-13 | 2026-09-03 13:13:57 | -12.03347 | -77.03690 | 0° | 0km/h | 1698m | 0.0m/s | -47.0°C | 1.0% | 23.4hPa | 2.7V | 00:00:00 | 00:00:00 | 00:00:00 | |
| SQ9EZE-14 | 2026-09-03 13:13:46 | -12.03347 | -77.03690 | 0° | 0km/h | 1698m | 0.0m/s | -46.0°C | 0.9% | 20.9hPa | 2.7V | 00:00:00 | 00:00:00 | 00:00:00 | |
| HA6NAB-11 | 2026-09-03 13:13:45 | -12.03454 | -77.03764 | 35° | 504km/h | 1710m | -11.4m/s | -45.9°C | 0.9% | 20.7hPa | 2.7V | 00:00:00 | 00:00:00 | 00:00:00 | |
| SP9SOS | 2026-09-03 13:13:41 | -12.03881 | -77.04054 | 35° | 504km/h | 1755m | -11.4m/s | -44.9°C | 0.9% | 19.8hPa | 2.7V | 00:00:00 | 00:00:00 | 00:00:00 | |
| HA6NAB-11 | 2026-09-03 13:13:40 | -12.03994 | -77.04131 | 35° | 504km/h | 1768m | -11.4m/s | -44.7°C | 0.9% | 19.6hPa | 2.7V | 00:00:00 | 00:00:00 | 00:00:00 | |
| SQ9EZE-13 | 2026-09-03 13:13:37 | -13.93776 | -78.73395 | 0° | 0km/h | 1231m | 0.0m/s | -44.4°C | 0.9% | 19.0hPa | 2.7V | 00:00:00 | 00:00:00 | 00:00:00 | |
| HA6NAB-11 | 2026-09-03 13:13:35 | -12.04902 | -77.05252 | 263° | 204km/h | 959m | -3.7m/s | -44.2°C | 0.9% | 18.4hPa | 2.7V | 00:00:00 | 00:00:00 | 00:00:00 | |
| HA6NAB-11 | 2026-09-03 13:13:29 | -13.93776 | -78.73395 | 0° | 0km/h | 1231m | 0.0m/s | -43.5°C | 0.8% | 17.5hPa | 2.7V | 00:00:00 | 00:00:00 | 00:00:00 | |
| LZ4TU-5 | 2026-09-03 13:13:28 | -22.32482 | -79.59290 | 0° | 0km/h | 3064m | 0.0m/s | 0°C | 0% | 0hPa | 2.7V | 00:00:00 | 00:00:00 | 00:00:00 | |
| HA6NAB-11 | 2026-09-03 13:13:24 | -13.93776 | -78.73395 | 0° | 0km/h | 1231m | 0.0m/s | -42.9°C | 0.8% | 16.6hPa | 2.7V | 00:00:00 | 00:00:00 | 00:00:00 | |
| LZ4TU-5 | 2026-09-03 13:13:23 | -22.32482 | -79.59290 | 0° | 0km/h | 3064m | 0.0m/s | 0°C | 0% | 0hPa | 2.7V | 00:00:00 | 00:00:00 | 00:00:00 | |
| SQ9EZE-13 | 2026-09-03 13:13:20 | -13.93776 | -78.73395 | 0° | 0km/h | 1231m | 0.0m/s | -42.9°C | 0.8% | 15.9hPa | 2.7V | 00:00:00 | 00:00:00 | 00:00:00 | |
| SP9SOS | 2026-09-03 13:13:15 | -13.93776 | -78.73395 | 0° | 0km/h | 1231m | 0.0m/s | -41.9°C | 0.8% | 15.0hPa | 2.7V | 00:00:00 | 00:00:00 | 00:00:00 | |
| SP9KGR-15 | 2026-09-03 13:13:12 | -13.30812 | -80.09686 | 0° | 0km/h | 1124m | 0.0m/s | 0°C | 0% | 0hPa | 2.7V | 00:00:00 | 00:00:00 | 00:00:00 | |
| HA6NAB-11 | 2026-09-03 13:13:12 | -13.93776 | -78.73395 | 0° | 0km/h | 1231m | 0.0m/s | -41.2°C | 0.8% | 14.4hPa | 2.7V | 00:00:00 | 00:00:00 | 00:00:00 | |
| HA6NAB-11 | 2026-09-03 13:13:06 | -13.93776 | -78.73395 | 0° | 0km/h | 1231m | 0.0m/s | -38.9°C | 0.6% | 13.4hPa | 2.7V | 00:00:00 | 00:00:00 | 00:00:00 | |
| SQ9EZE-13 | 2026-09-03 13:13:04 | -13.93776 | -78.73395 | 0° | 0km/h | 1231m | 0.0m/s | -38.5°C | 0.6% | 13.2hPa | 2.7V | 00:00:00 | 00:00:00 | 00:00:00 | |
| HA6NAB-11 | 2026-09-03 13:13:00 | -13.93776 | -78.73395 | 0° | 0km/h | 1231m | 0.0m/s | -38.3°C | 0.6% | 12.4hPa | 2.7V | 00:00:00 | 00:00:00 | 00:00:00 | |
| GYPAP8-17 | 2026-09-03 13:13:00 | -16.52020 | -77.50119 | 0° | 0km/h | 1716m | 0.0m/s | -38.3°C | 0.6% | 12.4hPa | 2.7V | 00:00:00 | 00:00:00 | 00:00:00 | |
| HA6NAB-11 | 2026-09-03 13:12:54 | -13.93776 | -78.73395 | 0° | 0km/h | 1231m | 0.0m/s | -38.6°C | 0.6% | 11.7hPa | 2.7V | 00:00:00 | 00:00:00 | 00:00:00 | |
| SP9SOS | 2026-09-03 13:12:50 | -13.93776 | -78.73395 | 0° | 0km/h | 1231m | 0.0m/s | -38.8°C | 0.7% | 11.0hPa | 2.7V | 00:00:00 | 00:00:00 | 00:00:00 | |
| HA6NAB-11 | 2026-09-03 13:12:49 | -13.93776 | -78.73395 | 0° | 0km/h | 1231m | 0.0m/s | -38.7°C | 0.7% | 10.9hPa | 2.7V | 00:00:00 | 00:00:00 | 00:00:00 | |
| SQ9EZE-13 | 2026-09-03 13:12:47 | -13.93776 | -78.73395 | 0° | 0km/h | 1231m | 0.0m/s | -38.2°C | 0.7% | 10.7hPa | 2.7V | 00:00:00 | 00:00:00 | 00:00:00 | |
| HA6NAB-11 | 2026-09-03 13:12:44 | -13.93776 | -78.73395 | 0° | 0km/h | 1231m | 0.0m/s | -37.3°C | 0.6% | 10.3hPa | 2.7V | 00:00:00 | 00:00:00 | 00:00:00 | |
| SP9KGR-15 | 2026-09-03 13:12:41 | -13.30812 | -80.09686 | 0° | 0km/h | 1124m | 0.0m/s | 0°C | 0% | 0hPa | 2.7V | 00:00:00 | 00:00:00 | 00:00:00 | |
| HA6NAB-11 | 2026-09-03 13:12:37 | -13.93776 | -78.73395 | 0° | 0km/h | 1231m | 0.0m/s | -35.9°C | 0.6% | 9.4hPa | 2.7V | 00:00:00 | 00:00:00 | 00:00:00 | |
| HA6NAB-11 | 2026-09-03 13:12:32 | -13.93776 | -78.73395 | 0° | 0km/h | 1231m | 0.0m/s | -34.1°C | 0.5% | 8.7hPa | 2.7V | 00:00:00 | 00:00:00 | 00:00:00 | |
| SQ9EZE-13 | 2026-09-03 13:12:31 | -13.93776 | -78.73395 | 0° | 0km/h | 1231m | 0.0m/s | -33.8°C | 0.5% | 8.5hPa | 2.7V | 00:00:00 | 00:00:00 | 00:00:00 | |
| HA6NAB-11 | 2026-09-03 13:12:27 | 35.29544 | -45.00000 | 0° | 0km/h | 30824m | 0.0m/s | -32.7°C | 0.5% | 8.1hPa | 2.7V | 00:00:00 | 00:00:00 | 00:00:00 | |
| SP9KGR-15 | 2026-09-03 13:12:26 | -13.13296 | -80.52914 | 0° | 0km/h | 1095m | 0.0m/s | 0°C | 0% | 0hPa | 2.7V | 00:00:00 | 00:00:00 | 00:00:00 | |
| SP9SOS | 2026-09-03 13:12:25 | -12.81795 | -80.56979 | 0° | 0km/h | 1044m | 0.0m/s | -31.6°C | 0.4% | 7.9hPa | 2.7V | 00:00:00 | 00:00:00 | 00:00:00 | |
| SQ9EZE-13 | 2026-09-03 13:12:15 | -19.54881 | -78.36116 | 0° | 0km/h | 2377m | 0.0m/s | -30.8°C | 0.4% | 6.8hPa | 2.7V | 00:00:00 | 00:00:00 | 00:00:00 | |
| GYPAP8-17 | 2026-09-03 13:12:13 | -16.52020 | -77.50119 | 0° | 0km/h | 1716m | 0.0m/s | -31.0°C | 0.4% | 6.6hPa | 2.7V | 00:00:00 | 00:00:00 | 00:00:00 | |
| LZ4TU-5 | 2026-09-03 13:12:00 | -22.32482 | -79.59290 | 0° | 0km/h | 3064m | 0.0m/s | 0°C | 0% | 0hPa | 2.7V | 00:00:00 | 00:00:00 | 00:00:00 | |
| SP9SOS | 2026-09-03 13:11:59 | -16.28947 | -76.14332 | 0° | 0km/h | 1669m | 0.0m/s | -27.3°C | 0.3% | 5.2hPa | 2.7V | 00:00:00 | 00:00:00 | 00:00:00 | |
| SQ9EZE-13 | 2026-09-03 13:11:53 | -19.54881 | -78.36116 | 0° | 0km/h | 2377m | 0.0m/s | -27.0°C | 0.3% | 4.8hPa | 2.7V | 00:00:00 | 00:00:00 | 00:00:00 | |
| SP9SOS | 2026-09-03 13:11:33 | -15.58895 | -77.52527 | 0° | 0km/h | 1532m | 0.0m/s | -28.5°C | 0.3% | 4.2hPa | 2.7V | 00:00:00 | 00:00:00 | 00:00:00 | |
| GYPAP8-17 | 2026-09-03 13:11:24 | -22.35907 | -79.58443 | 0° | 0km/h | 3072m | 0.0m/s | -28.9°C | 0.4% | 4.2hPa | 2.7V | 00:00:00 | 00:00:00 | 00:00:00 | |
| SP9SOS | 2026-09-03 13:11:08 | -24.32469 | -76.71834 | 0° | 0km/h | 3603m | 0.0m/s | -29.3°C | 0.4% | 4.3hPa | 2.7V | 00:00:00 | 00:00:00 | 00:00:00 | |
| SQ9EZE-13 | 2026-09-03 13:11:01 | -22.35907 | -79.58443 | 0° | 0km/h | 3072m | 0.0m/s | -29.3°C | 0.4% | 4.3hPa | 2.7V | 00:00:00 | 00:00:00 | 00:00:00 | |
| LZ4TU-5 | 2026-09-03 13:10:43 | -22.28269 | -79.33649 | 0° | 0km/h | 3053m | 0.0m/s | 0°C | 0% | 0hPa | 2.7V | 00:00:00 | 00:00:00 | 00:00:00 | |
| SP9SOS | 2026-09-03 13:10:42 | -22.28269 | -79.33649 | 0° | 0km/h | 3053m | 0.0m/s | -29.0°C | 0.4% | 4.4hPa | 2.7V | 00:00:00 | 00:00:00 | 00:00:00 | |
| LZ4TU-5 | 2026-09-03 13:10:37 | -25.26875 | -80.34552 | 0° | 0km/h | 3870m | 0.0m/s | 0°C | 0% | 0hPa | 2.7V | 00:00:00 | 00:00:00 | 00:00:00 | |
| GYPAP8-17 | 2026-09-03 13:10:35 | -35.04295 | -76.48479 | 0° | 0km/h | 7011m | 0.0m/s | -28.7°C | 0.4% | 4.4hPa | 2.7V | 00:00:00 | 00:00:00 | 00:00:00 | |
| SQ9EZE-13 | 2026-09-03 13:10:27 | -12.04066 | -77.05952 | 0° | 0km/h | 983m | 0.0m/s | -28.7°C | 0.4% | 4.4hPa | 2.7V | 00:00:00 | 00:00:00 | 00:00:00 | |
| SP9SOS | 2026-09-03 13:10:17 | -12.04066 | -77.05952 | 0° | 0km/h | 983m | 0.0m/s | -28.8°C | 0.4% | 4.4hPa | 2.7V | 00:00:00 | 00:00:00 | 00:00:00 | |
| HA6NAB-11 | 2026-09-03 13:10:15 | 35.29544 | -45.00000 | 0° | 0km/h | 30824m | 0.0m/s | -29.0°C | 0.4% | 4.4hPa | 2.7V | 00:00:00 | 00:00:00 | 00:00:00 | |
| SQ9EZE-13 | 2026-09-03 13:10:12 | -12.04066 | -77.05952 | 0° | 0km/h | 983m | 0.0m/s | -29.1°C | 0.4% | 4.5hPa | 2.7V | 00:00:00 | 00:00:00 | 00:00:00 | |
| HA6NAB-11 | 2026-09-03 13:10:08 | 35.29544 | -45.00000 | 0° | 0km/h | 30824m | 0.0m/s | -29.0°C | 0.3% | 4.5hPa | 2.7V | 00:00:00 | 00:00:00 | 00:00:00 | |
| SP9SOS | 2026-09-03 13:09:51 | -35.04295 | -76.48479 | 0° | 0km/h | 7011m | 0.0m/s | -29.0°C | 0.4% | 4.5hPa | 2.7V | 00:00:00 | 00:00:00 | 00:00:00 | |
| SQ9EZE-13 | 2026-09-03 13:09:48 | -35.04295 | -76.48479 | 0° | 0km/h | 7011m | 0.0m/s | -29.0°C | 0.4% | 4.5hPa | 2.7V | 00:00:00 | 00:00:00 | 00:00:00 | |
| GYPAP8-17 | 2026-09-03 13:09:46 | -35.04295 | -76.48479 | 0° | 0km/h | 7011m | 0.0m/s | -29.0°C | 0.4% | 4.5hPa | 2.7V | 00:00:00 | 00:00:00 | 00:00:00 | |
| SQ9EZE-14 | 2026-09-03 13:09:45 | -35.04295 | -76.48479 | 0° | 0km/h | 7011m | 0.0m/s | -29.0°C | 0.4% | 4.5hPa | 2.7V | 00:00:00 | 00:00:00 | 00:00:00 | |
| SQ9EZE-13 | 2026-09-03 13:09:33 | -25.77220 | -74.91991 | 0° | 0km/h | 4015m | 0.0m/s | -29.1°C | 0.4% | 4.6hPa | 2.7V | 00:00:00 | 00:00:00 | 00:00:00 | |
| SQ9EZE-14 | 2026-09-03 13:09:30 | -25.77220 | -74.91991 | 0° | 0km/h | 4015m | 0.0m/s | -28.9°C | 0.4% | 4.6hPa | 2.7V | 00:00:00 | 00:00:00 | 00:00:00 | |
| SP9SOS | 2026-09-03 13:09:26 | -25.77220 | -74.91991 | 0° | 0km/h | 4015m | 0.0m/s | -28.7°C | 0.4% | 4.6hPa | 2.7V | 00:00:00 | 00:00:00 | 00:00:00 | |
| SQ9EZE-13 | 2026-09-03 13:09:17 | -25.26875 | -80.34552 | 0° | 0km/h | 3870m | 0.0m/s | -28.4°C | 0.4% | 4.6hPa | 2.7V | 00:00:00 | 00:00:00 | 00:00:00 | |
| LZ4TU-5 | 2026-09-03 13:09:15 | -25.26875 | -80.34552 | 0° | 0km/h | 3870m | 0.0m/s | 0°C | 0% | 0hPa | 2.7V | 00:00:00 | 00:00:00 | 00:00:00 | |
| GYPAP8-17 | 2026-09-03 13:09:02 | -19.27023 | -81.46912 | 0° | 0km/h | 2312m | 0.0m/s | -28.6°C | 0.4% | 4.6hPa | 2.7V | 00:00:00 | 00:00:00 | 00:00:00 | |
| SP9SOS | 2026-09-03 13:09:01 | 35.29544 | -45.00000 | 0° | 0km/h | 30824m | 0.0m/s | -28.6°C | 0.3% | 4.7hPa | 2.7V | 00:00:00 | 00:00:00 | 00:00:00 | |
| HA6NAB-11 | 2026-09-03 13:08:59 | 35.29544 | -45.00000 | 0° | 0km/h | 30824m | 0.0m/s | -28.5°C | 0.3% | 4.7hPa | 2.7V | 00:00:00 | 00:00:00 | 00:00:00 | |
| HA6NAB-11 | 2026-09-03 13:08:41 | -23.59942 | -82.83243 | 0° | 0km/h | 3403m | 0.0m/s | -28.9°C | 0.4% | 4.7hPa | 2.7V | 00:00:00 | 00:00:00 | 00:00:00 | |
| SQ9EZE-13 | 2026-09-03 13:08:40 | -23.59942 | -82.83243 | 0° | 0km/h | 3403m | 0.0m/s | -28.8°C | 0.3% | 4.7hPa | 2.7V | 00:00:00 | 00:00:00 | 00:00:00 | |
| HA6NAB-11 | 2026-09-03 13:08:35 | 35.29544 | -135.00000 | 0° | 0km/h | 30824m | 0.0m/s | -29.0°C | 0.4% | 4.8hPa | 2.7V | 00:00:00 | 00:00:00 | 00:00:00 | |
| HA6NAB-11 | 2026-09-03 13:08:30 | -19.27023 | -81.46912 | 0° | 0km/h | 2312m | 0.0m/s | -29.1°C | 0.4% | 4.8hPa | 2.7V | 00:00:00 | 00:00:00 | 00:00:00 | |
| SQ9EZE-13 | 2026-09-03 13:08:22 | -19.27023 | -81.46912 | 0° | 0km/h | 2312m | 0.0m/s | -29.4°C | 0.4% | 4.8hPa | 2.7V | 00:00:00 | 00:00:00 | 00:00:00 | |
| GYPAP8-17 | 2026-09-03 13:08:17 | -19.27023 | -81.46912 | 0° | 0km/h | 2312m | 0.0m/s | -29.2°C | 0.4% | 4.8hPa | 2.7V | 00:00:00 | 00:00:00 | 00:00:00 | |
| SP9SOS | 2026-09-03 13:08:10 | 35.29544 | -45.00000 | 0° | 0km/h | 30824m | 0.0m/s | -29.3°C | 0.4% | 4.8hPa | 2.7V | 00:00:00 | 00:00:00 | 00:00:00 | |
| LZ4TU-5 | 2026-09-03 13:07:57 | 35.29544 | 135.00000 | 0° | 0km/h | 30824m | 0.0m/s | 0°C | 0% | 0hPa | 2.7V | 00:00:00 | 00:00:00 | 00:00:00 | |
| SQ9EZE-13 | 2026-09-03 13:07:56 | 35.29544 | 135.00000 | 0° | 0km/h | 30824m | 0.0m/s | -29.5°C | 0.4% | 4.9hPa | 2.7V | 00:00:00 | 00:00:00 | 00:00:00 | |
| LZ4TU-5 | 2026-09-03 13:07:53 | -12.03721 | -77.04063 | 167° | 199km/h | 987m | -0.1m/s | 0°C | 0% | 0hPa | 2.7V | 00:00:00 | 00:00:00 | 00:00:00 | |
| SP9SOS | 2026-09-03 13:07:44 | -13.65389 | -86.90880 | 0° | 0km/h | 1182m | 0.0m/s | -29.8°C | 0.4% | 4.9hPa | 2.7V | 00:00:00 | 00:00:00 | 00:00:00 | |
| GYPAP8-17 | 2026-09-03 13:03:42 | -12.03734 | -77.06377 | 309° | 299km/h | 1013m | 4.3m/s | -34.2°C | 0.5% | 6.0hPa | 2.7V | 00:00:00 | 00:00:00 | 00:00:00 | |
| SP9SOS | 2026-09-03 13:03:30 | -12.04299 | -77.05801 | 337° | 199km/h | 985m | -0.1m/s | -34.4°C | 0.5% | 6.0hPa | 2.7V | 00:00:00 | 00:00:00 | 00:00:00 | |
| SQ9EZE-13 | 2026-09-03 13:03:30 | -12.04299 | -77.05801 | 337° | 199km/h | 985m | -0.1m/s | -34.4°C | 0.5% | 6.0hPa | 2.7V | 00:00:00 | 00:00:00 | 00:00:00 | |
| SQ9EZE-13 | 2026-09-03 13:03:13 | -12.04820 | -77.05146 | 283° | 199km/h | 989m | -0.0m/s | -34.8°C | 0.5% | 6.1hPa | 2.7V | 00:00:00 | 00:00:00 | 00:00:00 | |
| SP9SOS | 2026-09-03 13:03:04 | -12.04799 | -77.04688 | 254° | 199km/h | 990m | -0.1m/s | -34.7°C | 0.5% | 6.1hPa | 2.7V | 00:00:00 | 00:00:00 | 00:00:00 | |
| SQ9EZE-13 | 2026-09-03 13:02:57 | -12.04636 | -77.04367 | 231° | 199km/h | 988m | 0.6m/s | -34.4°C | 0.5% | 6.1hPa | 2.7V | 00:00:00 | 00:00:00 | 00:00:00 | |
| SQ9EZE-14 | 2026-09-03 13:02:53 | -12.04490 | -77.04227 | 216° | 197km/h | 989m | 0.6m/s | -34.4°C | 0.5% | 6.2hPa | 2.7V | 00:00:00 | 00:00:00 | 00:00:00 | |
| SQ9EZE-13 | 2026-09-03 13:02:41 | -12.03922 | -77.04039 | 180° | 199km/h | 988m | 0.1m/s | -34.4°C | 0.5% | 6.2hPa | 2.7V | 00:00:00 | 00:00:00 | 00:00:00 | |
| SP9SOS | 2026-09-03 13:02:38 | -12.03771 | -77.04053 | 171° | 199km/h | 988m | -0.0m/s | -34.2°C | 0.5% | 6.2hPa | 2.7V | 00:00:00 | 00:00:00 | 00:00:00 | |
| SQ9EZE-14 | 2026-09-03 13:02:37 | -12.03721 | -77.04063 | 167° | 199km/h | 987m | -0.1m/s | -34.3°C | 0.5% | 6.2hPa | 2.7V | 00:00:00 | 00:00:00 | 00:00:00 | |
| LZ4TU-5 | 2026-09-03 13:02:36 | -12.03672 | -77.04076 | 164° | 199km/h | 987m | -0.0m/s | 0°C | 0% | 0hPa | 2.7V | 00:00:00 | 00:00:00 | 00:00:00 | |
| GYPAP8-17 | 2026-09-03 13:02:35 | -12.03623 | -77.04092 | 161° | 199km/h | 988m | 0.3m/s | -34.3°C | 0.5% | 6.2hPa | 2.7V | 00:00:00 | 00:00:00 | 00:00:00 | |
| LZ4TU-5 | 2026-09-03 13:02:32 | -12.03483 | -77.04156 | 151° | 199km/h | 989m | 0.3m/s | 0°C | 0% | 0hPa | 2.7V | 00:00:00 | 00:00:00 | 00:00:00 | |
| SQ9EZE-13 | 2026-09-03 13:02:25 | -12.03222 | -77.04395 | 129° | 199km/h | 990m | 0.0m/s | -34.2°C | 0.5% | 6.3hPa | 2.7V | 00:00:00 | 00:00:00 | 00:00:00 | |
| SP9SOS | 2026-09-03 13:02:13 | -12.03032 | -77.04968 | 90° | 199km/h | 990m | -0.0m/s | -34.5°C | 0.5% | 6.3hPa | 2.7V | 00:00:00 | 00:00:00 | 00:00:00 | |
| SQ9EZE-13 | 2026-09-03 13:02:10 | -12.03046 | -77.05121 | 81° | 199km/h | 990m | 0.1m/s | -34.6°C | 0.5% | 6.3hPa | 2.7V | 00:00:00 | 00:00:00 | 00:00:00 | |
| OE5DRO-10 | 2026-09-03 13:01:59 | -12.03303 | -77.05613 | 45° | 199km/h | 989m | -0.0m/s | -34.9°C | 2.0% | 6.4hPa | 2.7V | 00:00:00 | 00:00:00 | 00:00:00 | |
| HA6NAB-11 | 2026-09-03 13:01:56 | -12.03420 | -77.05711 | 36° | 199km/h | 989m | 0.1m/s | -35.0°C | 0.5% | 6.4hPa | 2.7V | 00:00:00 | 00:00:00 | 00:00:00 | |
| SQ9EZE-13 | 2026-09-03 13:01:50 | -12.03694 | -77.05842 | 17° | 199km/h | 989m | -0.1m/s | -35.0°C | 0.5% | 6.5hPa | 2.7V | 00:00:00 | 00:00:00 | 00:00:00 | |
| HA6NAB-11 | 2026-09-03 13:01:50 | -12.03694 | -77.05842 | 17° | 199km/h | 989m | -0.1m/s | -35.0°C | 0.5% | 6.5hPa | 2.7V | 00:00:00 | 00:00:00 | 00:00:00 | |
| SP9SOS | 2026-09-03 13:01:48 | -12.03842 | -77.05871 | 7° | 199km/h | 989m | -0.0m/s | -35.0°C | 0.5% | 6.5hPa | 2.7V | 00:00:00 | 00:00:00 | 00:00:00 | |
| HA6NAB-11 | 2026-09-03 13:01:44 | -12.03994 | -77.05874 | 357° | 199km/h | 989m | -0.0m/s | -35.1°C | 0.5% | 6.5hPa | 2.7V | 00:00:00 | 00:00:00 | 00:00:00 | |
| HA6NAB-11 | 2026-09-03 13:01:38 | -12.04288 | -77.05803 | 338° | 199km/h | 989m | -0.1m/s | -34.7°C | 0.5% | 6.5hPa | 2.7V | 00:00:00 | 00:00:00 | 00:00:00 | |
| SQ9EZE-13 | 2026-09-03 13:01:34 | -12.04464 | -77.05702 | 325° | 199km/h | 989m | 0.1m/s | -34.7°C | 0.5% | 6.5hPa | 2.7V | 00:00:00 | 00:00:00 | 00:00:00 | |
| HA6NAB-11 | 2026-09-03 13:01:32 | -12.04543 | -77.05637 | 319° | 199km/h | 989m | -0.0m/s | -34.5°C | 0.5% | 6.5hPa | 2.7V | 00:00:00 | 00:00:00 | 00:00:00 | |
| HA6NAB-11 | 2026-09-03 13:01:27 | -12.04704 | -77.05440 | 303° | 199km/h | 989m | -0.0m/s | -34.3°C | 0.5% | 6.6hPa | 2.7V | 00:00:00 | 00:00:00 | 00:00:00 | |
| SP9SOS | 2026-09-03 13:01:22 | -12.04806 | -77.05206 | 287° | 199km/h | 989m | -0.0m/s | -34.2°C | 0.5% | 6.6hPa | 2.7V | 00:00:00 | 00:00:00 | 00:00:00 | |
| HA6NAB-11 | 2026-09-03 13:01:22 | -12.04806 | -77.05206 | 287° | 199km/h | 989m | -0.0m/s | -34.2°C | 0.5% | 6.6hPa | 2.7V | 00:00:00 | 00:00:00 | 00:00:00 | |
| OE5DRO-10 | 2026-09-03 13:01:21 | -12.04818 | -77.05156 | 283° | 199km/h | 989m | -0.1m/s | -34.2°C | 2.0% | 6.5hPa | 2.7V | 00:00:00 | 00:00:00 | 00:00:00 | |
| SQ9EZE-13 | 2026-09-03 13:01:18 | -12.04838 | -77.05003 | 274° | 199km/h | 989m | -0.0m/s | -34.4°C | 0.5% | 6.6hPa | 2.7V | 00:00:00 | 00:00:00 | 00:00:00 | |
| HA6NAB-11 | 2026-09-03 13:01:15 | -12.04827 | -77.04799 | 261° | 199km/h | 988m | -0.3m/s | -34.5°C | 0.5% | 6.6hPa | 2.7V | 00:00:00 | 00:00:00 | 00:00:00 | |
| HA6NAB-11 | 2026-09-03 13:01:09 | -12.04748 | -77.04556 | 245° | 199km/h | 989m | 0.0m/s | -34.6°C | 0.5% | 6.7hPa | 2.7V | 00:00:00 | 00:00:00 | 00:00:00 | |
| HA6NAB-11 | 2026-09-03 13:01:04 | -12.04607 | -77.04342 | 229° | 199km/h | 990m | -0.0m/s | -34.7°C | 0.5% | 6.7hPa | 2.7V | 00:00:00 | 00:00:00 | 00:00:00 | |
| OE5DRO-10 | 2026-09-03 13:01:02 | -12.04535 | -77.04271 | 222° | 199km/h | 990m | 0.0m/s | -34.7°C | 2.0% | 6.6hPa | 2.7V | 00:00:00 | 00:00:00 | 00:00:00 | |
| SQ9EZE-13 | 2026-09-03 13:01:01 | -12.04496 | -77.04237 | 219° | 199km/h | 990m | 0.1m/s | -34.8°C | 0.5% | 6.7hPa | 2.7V | 00:00:00 | 00:00:00 | 00:00:00 | |
| HA6NAB-11 | 2026-09-03 13:00:58 | -12.04370 | -77.04153 | 210° | 199km/h | 991m | 0.1m/s | -34.9°C | 0.5% | 6.7hPa | 2.7V | 00:00:00 | 00:00:00 | 00:00:00 | |
| SP9SOS | 2026-09-03 13:00:57 | -12.04325 | -77.04129 | 206° | 199km/h | 991m | -0.0m/s | -35.0°C | 0.5% | 6.7hPa | 2.7V | 00:00:00 | 00:00:00 | 00:00:00 | |
| HA6NAB-11 | 2026-09-03 13:00:52 | -12.04084 | -77.04052 | 190° | 199km/h | 992m | 0.2m/s | -34.9°C | 0.5% | 6.7hPa | 2.7V | 00:00:00 | 00:00:00 | 00:00:00 | |
| SQ9EZE-13 | 2026-09-03 13:00:44 | -12.03683 | -77.04075 | 165° | 199km/h | 989m | -0.0m/s | -34.9°C | 0.5% | 6.8hPa | 2.7V | 00:00:00 | 00:00:00 | 00:00:00 | |
| OE5DRO-10 | 2026-09-03 13:00:43 | -12.03635 | -77.04092 | 161° | 199km/h | 990m | 0.1m/s | -34.9°C | 2.1% | 6.7hPa | 2.7V | 00:00:00 | 00:00:00 | 00:00:00 | |
| HA6NAB-11 | 2026-09-03 13:00:42 | -12.03588 | -77.04111 | 158° | 199km/h | 990m | 0.1m/s | -34.9°C | 0.6% | 6.8hPa | 2.7V | 00:00:00 | 00:00:00 | 00:00:00 | |
| HA6NAB-11 | 2026-09-03 13:00:37 | -12.03371 | -77.04241 | 142° | 199km/h | 989m | -0.0m/s | -34.7°C | 0.6% | 6.8hPa | 2.7V | 00:00:00 | 00:00:00 | 00:00:00 | |
| SP9SOS | 2026-09-03 13:00:32 | -12.03170 | -77.04470 | 123° | 199km/h | 989m | -0.0m/s | -34.7°C | 0.5% | 6.9hPa | 2.7V | 00:00:00 | 00:00:00 | 00:00:00 | |
| HA6NAB-11 | 2026-09-03 13:00:32 | -12.03170 | -77.04470 | 123° | 199km/h | 989m | -0.0m/s | -34.7°C | 0.5% | 6.9hPa | 2.7V | 00:00:00 | 00:00:00 | 00:00:00 | |
| SQ9EZE-14 | 2026-09-03 13:00:31 | -12.03170 | -77.04470 | 123° | 199km/h | 989m | -0.0m/s | -34.7°C | 0.5% | 6.9hPa | 2.7V | 00:00:00 | 00:00:00 | 00:00:00 | |
| OE5DRO-10 | 2026-09-03 13:00:24 | -12.03045 | -77.04804 | 100° | 199km/h | 990m | -0.1m/s | -34.5°C | 2.0% | 6.9hPa | 2.7V | 00:00:00 | 00:00:00 | 00:00:00 | |
| SQ9EZE-14 | 2026-09-03 13:00:17 | -12.03067 | -77.05212 | 75° | 199km/h | 990m | -0.2m/s | -34.3°C | 0.5% | 7.0hPa | 2.7V | 00:00:00 | 00:00:00 | 00:00:00 | |
| SQ9EZE-13 | 2026-09-03 13:00:12 | -12.03144 | -77.05401 | 62° | 199km/h | 992m | 0.3m/s | -34.4°C | 0.5% | 7.0hPa | 2.7V | 00:00:00 | 00:00:00 | 00:00:00 | |
| SP9SOS | 2026-09-03 13:00:05 | -12.03371 | -77.05675 | 40° | 199km/h | 988m | -0.1m/s | -34.6°C | 0.5% | 7.0hPa | 2.7V | 00:00:00 | 00:00:00 | 00:00:00 | |
| OE5DRO-10 | 2026-09-03 13:00:04 | -12.03412 | -77.05705 | 36° | 199km/h | 988m | -0.7m/s | -34.6°C | 2.1% | 7.0hPa | 2.7V | 00:00:00 | 00:00:00 | 00:00:00 | |
| SP9KGR-15 | 2026-09-03 13:00:01 | -12.03542 | -77.05784 | 27° | 199km/h | 989m | -0.2m/s | -34.8°C | 0.5% | 7.1hPa | 2.7V | 00:00:00 | 00:00:00 | 00:00:00 | |
| OE5DRO-10 | 2026-09-03 12:59:57 | -12.03732 | -77.05852 | 14° | 199km/h | 990m | 0.1m/s | -34.5°C | 2.0% | 7.0hPa | 2.7V | 00:00:00 | 00:00:00 | 00:00:00 | |
| SQ9EZE-13 | 2026-09-03 12:59:56 | -12.03782 | -77.05862 | 11° | 199km/h | 990m | -0.0m/s | -34.5°C | 0.5% | 7.1hPa | 2.7V | 00:00:00 | 00:00:00 | 00:00:00 | |
| SP9KGR-15 | 2026-09-03 12:59:43 | -12.04414 | -77.05737 | 329° | 199km/h | 989m | 0.0m/s | -34.5°C | 0.5% | 7.2hPa | 2.7V | 00:00:00 | 00:00:00 | 00:00:00 | |
| SP9SOS | 2026-09-03 12:59:39 | -12.04573 | -77.05610 | 316° | 199km/h | 990m | 0.1m/s | -34.3°C | 0.5% | 7.2hPa | 2.7V | 00:00:00 | 00:00:00 | 00:00:00 | |
| SQ9EZE-13 | 2026-09-03 12:59:39 | -12.04573 | -77.05610 | 316° | 199km/h | 990m | 0.1m/s | -34.3°C | 0.5% | 7.2hPa | 2.7V | 00:00:00 | 00:00:00 | 00:00:00 | |
| OE5DRO-10 | 2026-09-03 12:59:38 | -12.04608 | -77.05573 | 312° | 199km/h | 990m | -0.5m/s | -34.2°C | 2.0% | 7.2hPa | 2.7V | 00:00:00 | 00:00:00 | 00:00:00 | |
| OE5DRO-10 | 2026-09-03 12:59:34 | -12.04725 | -77.05406 | 300° | 199km/h | 990m | 0.0m/s | -34.3°C | 2.0% | 7.2hPa | 2.7V | 00:00:00 | 00:00:00 | 00:00:00 | |
| SP9KGR-15 | 2026-09-03 12:59:26 | -12.04838 | -77.05013 | 275° | 199km/h | 990m | -0.0m/s | -34.4°C | 0.5% | 7.3hPa | 2.7V | 00:00:00 | 00:00:00 | 00:00:00 | |
| SQ9EZE-13 | 2026-09-03 12:59:23 | -12.04834 | -77.04859 | 265° | 199km/h | 991m | 0.1m/s | -34.3°C | 0.5% | 7.3hPa | 2.7V | 00:00:00 | 00:00:00 | 00:00:00 | |
| OE5DRO-10 | 2026-09-03 12:59:14 | -12.04676 | -77.04431 | 236° | 199km/h | 992m | 0.0m/s | -34.3°C | 2.0% | 7.3hPa | 2.7V | 00:00:00 | 00:00:00 | 08:30:00 | |
| SP9SOS | 2026-09-03 12:59:14 | -12.04676 | -77.04430 | 236° | 199km/h | 992m | 0.0m/s | -34.4°C | 0.5% | 7.3hPa | 2.7V | 00:00:00 | 00:00:00 | 00:00:00 | |
| SP9KGR-15 | 2026-09-03 12:59:08 | -12.04464 | -77.04212 | 217° | 199km/h | 992m | 0.0m/s | -34.3°C | 0.5% | 7.4hPa | 2.7V | 00:00:00 | 00:00:00 | 00:00:00 | |
| SQ9EZE-13 | 2026-09-03 12:59:07 | -12.04422 | -77.04183 | 214° | 199km/h | 992m | 0.1m/s | -34.2°C | 0.5% | 7.4hPa | 2.7V | 00:00:00 | 00:00:00 | 00:00:00 | |
| OE5DRO-10 | 2026-09-03 12:58:55 | -12.03842 | -77.04044 | 175° | 199km/h | 991m | -0.0m/s | -34.2°C | 1.9% | 7.4hPa | 2.7V | 00:00:00 | 00:00:00 | 00:00:00 | |
| SQ9EZE-13 | 2026-09-03 12:58:52 | -12.03693 | -77.04073 | 165° | 199km/h | 991m | -0.2m/s | -34.3°C | 0.5% | 7.5hPa | 2.7V | 00:00:00 | 00:00:00 | 00:00:00 | |
| SP9KGR-15 | 2026-09-03 12:58:52 | -12.03693 | -77.04073 | 165° | 199km/h | 991m | -0.2m/s | -34.3°C | 0.5% | 7.5hPa | 2.7V | 00:00:00 | 00:00:00 | 00:00:00 | |
| SP9SOS | 2026-09-03 12:58:49 | -12.03550 | -77.04127 | 156° | 199km/h | 991m | 0.0m/s | -34.3°C | 0.5% | 7.5hPa | 2.7V | 00:00:00 | 00:00:00 | 00:00:00 | |
| GYPAP8-17 | 2026-09-03 12:58:43 | -12.03302 | -77.04301 | 137° | 199km/h | 990m | 0.0m/s | -34.5°C | 0.5% | 7.6hPa | 2.7V | 00:00:00 | 00:00:00 | 00:00:00 | |
| SP9KGR-15 | 2026-09-03 12:58:37 | -12.03124 | -77.04550 | 118° | 197km/h | 988m | -0.2m/s | -34.3°C | 0.5% | 7.6hPa | 2.7V | 00:00:00 | 00:00:00 | 00:00:00 | |
| SQ9EZE-13 | 2026-09-03 12:58:37 | -12.03124 | -77.04550 | 118° | 197km/h | 988m | -0.2m/s | -34.3°C | 0.5% | 7.6hPa | 2.7V | 00:00:00 | 00:00:00 | 00:00:00 | |
| OE5DRO-10 | 2026-09-03 12:58:36 | -12.03103 | -77.04597 | 114° | 199km/h | 988m | 0.0m/s | -34.2°C | 1.9% | 7.5hPa | 2.7V | 00:00:00 | 00:00:00 | 00:00:00 | |
| SP9SOS | 2026-09-03 12:58:24 | -12.03064 | -77.05201 | 76° | 199km/h | 990m | -0.2m/s | -35.1°C | 0.5% | 7.7hPa | 2.7V | 00:00:00 | 00:00:00 | 00:00:00 | |
| HA6NAB-11 | 2026-09-03 12:58:23 | -12.03079 | -77.05251 | 72° | 199km/h | 990m | 0.1m/s | -35.1°C | 0.5% | 7.7hPa | 2.7V | 00:00:00 | 00:00:00 | 00:00:00 | |
| SQ9EZE-13 | 2026-09-03 12:58:21 | -12.03117 | -77.05346 | 66° | 199km/h | 990m | -0.0m/s | -35.2°C | 0.5% | 7.7hPa | 2.7V | 00:00:00 | 00:00:00 | 00:00:00 | |
| SP9KGR-15 | 2026-09-03 12:58:21 | -12.03117 | -77.05346 | 66° | 199km/h | 990m | -0.0m/s | -35.2°C | 0.5% | 7.7hPa | 2.7V | 00:00:00 | 00:00:00 | 00:00:00 | |
| HA6NAB-11 | 2026-09-03 12:58:16 | -12.03254 | -77.05560 | 50° | 199km/h | 990m | -0.2m/s | -35.7°C | 0.6% | 7.7hPa | 2.7V | 00:00:00 | 00:00:00 | 00:00:00 | |
| HA6NAB-11 | 2026-09-03 12:58:10 | -12.03488 | -77.05755 | 31° | 199km/h | 990m | -0.0m/s | -35.4°C | 0.6% | 7.8hPa | 2.7V | 00:00:00 | 00:00:00 | 00:00:00 | |
| SQ9EZE-14 | 2026-09-03 12:58:10 | -12.03488 | -77.05755 | 31° | 199km/h | 990m | -0.0m/s | -35.4°C | 0.6% | 7.8hPa | 2.7V | 00:00:00 | 00:00:00 | 00:00:00 | |
| HA6NAB-11 | 2026-09-03 12:58:05 | -12.03723 | -77.05849 | 15° | 199km/h | 990m | -0.1m/s | -35.4°C | 0.6% | 7.8hPa | 2.7V | 00:00:00 | 00:00:00 | 00:00:00 | |
| SQ9EZE-13 | 2026-09-03 12:58:05 | -12.03723 | -77.05849 | 15° | 199km/h | 990m | -0.1m/s | -35.4°C | 0.6% | 7.8hPa | 2.7V | 00:00:00 | 00:00:00 | 00:00:00 | |
| HA6NAB-11 | 2026-09-03 12:57:59 | -12.04025 | -77.05871 | 355° | 199km/h | 990m | 0.1m/s | -35.3°C | 0.6% | 7.8hPa | 2.7V | 00:00:00 | 00:00:00 | 00:00:00 | |
| SP9SOS | 2026-09-03 12:57:59 | -12.04025 | -77.05871 | 355° | 199km/h | 990m | 0.1m/s | -35.3°C | 0.6% | 7.8hPa | 2.7V | 00:00:00 | 00:00:00 | 00:00:00 | |
| SQ9EZE-14 | 2026-09-03 12:57:55 | -12.04222 | -77.05828 | 343° | 199km/h | 990m | 0.1m/s | -35.3°C | 0.6% | 7.9hPa | 2.7V | 00:00:00 | 00:00:00 | 00:00:00 | |
| SP9SOS | 2026-09-03 12:57:33 | -12.04840 | -77.04972 | 272° | 199km/h | 991m | 0.1m/s | -34.9°C | 0.5% | 8.0hPa | 2.7V | 00:00:00 | 00:00:00 | 00:00:00 | |
| SQ9EZE-13 | 2026-09-03 12:57:29 | -12.04821 | -77.04768 | 259° | 199km/h | 990m | -0.1m/s | -35.0°C | 0.5% | 8.0hPa | 2.7V | 00:00:00 | 00:00:00 | 00:00:00 | |
| SQ9EZE-13 | 2026-09-03 12:57:13 | -12.04342 | -77.04134 | 204° | 186km/h | 995m | 4.9m/s | -35.0°C | 0.5% | 8.1hPa | 2.7V | 00:00:00 | 00:00:00 | 00:00:00 | |
| SP9SOS | 2026-09-03 12:57:07 | -12.04054 | -77.04047 | 188° | 199km/h | 990m | 0.1m/s | -35.2°C | 0.5% | 8.2hPa | 2.7V | 00:00:00 | 00:00:00 | 00:00:00 | |
| SQ9EZE-13 | 2026-09-03 12:56:55 | -12.03470 | -77.04169 | 150° | 199km/h | 992m | -0.3m/s | -35.2°C | 0.5% | 8.2hPa | 2.7V | 00:00:00 | 00:00:00 | 00:00:00 | |
| SP9SOS | 2026-09-03 12:56:41 | -12.03060 | -77.04733 | 105° | 199km/h | 991m | -0.0m/s | -35.3°C | 0.5% | 8.3hPa | 2.7V | 00:00:00 | 00:00:00 | 00:00:00 | |
| SQ9EZE-13 | 2026-09-03 12:56:33 | -12.03051 | -77.05141 | 79° | 199km/h | 991m | 0.2m/s | -35.1°C | 0.5% | 8.4hPa | 2.7V | 00:00:00 | 00:00:00 | 00:00:00 | |
| GYPAP8-17 | 2026-09-03 12:56:31 | -12.03077 | -77.05240 | 73° | 199km/h | 991m | 0.0m/s | -35.1°C | 0.5% | 8.4hPa | 2.7V | 00:00:00 | 00:00:00 | 00:00:00 | |
| HA6NAB-11 | 2026-09-03 12:56:20 | -12.03396 | -77.05693 | 38° | 199km/h | 990m | 0.0m/s | -35.6°C | 0.5% | 8.5hPa | 2.7V | 00:00:00 | 00:00:00 | 00:00:00 | |
| SP9SOS | 2026-09-03 12:56:16 | -12.03571 | -77.05796 | 25° | 199km/h | 993m | 0.3m/s | -35.8°C | 0.5% | 8.5hPa | 2.7V | 00:00:00 | 00:00:00 | 00:00:00 | |
| HA6NAB-11 | 2026-09-03 12:56:15 | -12.03617 | -77.05816 | 22° | 199km/h | 993m | 0.1m/s | -36.0°C | 0.6% | 8.5hPa | 2.7V | 00:00:00 | 00:00:00 | 00:00:00 | |
| SQ9EZE-13 | 2026-09-03 12:56:12 | -12.03763 | -77.05858 | 12° | 199km/h | 992m | -0.1m/s | -36.2°C | 0.6% | 8.5hPa | 2.7V | 00:00:00 | 00:00:00 | 00:00:00 | |
| HA6NAB-11 | 2026-09-03 12:56:10 | -12.03863 | -77.05872 | 6° | 199km/h | 993m | -0.0m/s | -36.3°C | 0.6% | 8.5hPa | 2.7V | 00:00:00 | 00:00:00 | 00:00:00 | |
| HA6NAB-11 | 2026-09-03 12:56:03 | -12.04213 | -77.05831 | 343° | 199km/h | 993m | -0.0m/s | -36.5°C | 0.6% | 8.6hPa | 2.7V | 00:00:00 | 00:00:00 | 00:00:00 | |
| HA6NAB-11 | 2026-09-03 12:55:57 | -12.04481 | -77.05690 | 324° | 199km/h | 993m | 0.0m/s | -36.5°C | 0.6% | 8.6hPa | 2.7V | 00:00:00 | 00:00:00 | 00:00:00 | |
| SQ9EZE-13 | 2026-09-03 12:55:56 | -12.04521 | -77.05658 | 321° | 199km/h | 993m | 0.1m/s | -36.5°C | 0.6% | 8.6hPa | 2.7V | 00:00:00 | 00:00:00 | 00:00:00 | |
| HA6NAB-11 | 2026-09-03 12:55:51 | -12.04688 | -77.05466 | 305° | 199km/h | 993m | 0.1m/s | -36.3°C | 0.6% | 8.7hPa | 2.7V | 00:00:00 | 00:00:00 | 00:00:00 | |
| SP9SOS | 2026-09-03 12:55:51 | -12.04688 | -77.05466 | 305° | 199km/h | 993m | 0.1m/s | -36.3°C | 0.6% | 8.7hPa | 2.7V | 00:00:00 | 00:00:00 | 00:00:00 | |
| SQ9EZE-14 | 2026-09-03 12:55:44 | -12.04823 | -77.05135 | 282° | 201km/h | 994m | -0.4m/s | -36.3°C | 0.6% | 8.7hPa | 2.7V | 00:00:00 | 00:00:00 | 00:00:00 | |
| SQ9EZE-13 | 2026-09-03 12:55:40 | -12.04840 | -77.04930 | 269° | 199km/h | 996m | 0.1m/s | -36.4°C | 0.6% | 8.8hPa | 2.7V | 00:00:00 | 00:00:00 | 00:00:00 | |
| SQ9EZE-14 | 2026-09-03 12:55:29 | -12.04660 | -77.04404 | 234° | 199km/h | 993m | -0.6m/s | -36.6°C | 0.6% | 8.8hPa | 2.7V | 00:00:00 | 00:00:00 | 00:00:00 | |
| SP9SOS | 2026-09-03 12:55:26 | -12.04559 | -77.04289 | 224° | 199km/h | 993m | -0.4m/s | -36.7°C | 0.6% | 8.9hPa | 2.7V | 00:00:00 | 00:00:00 | 00:00:00 | |
| SQ9EZE-13 | 2026-09-03 12:55:24 | -12.04482 | -77.04223 | 218° | 199km/h | 994m | -0.1m/s | -36.8°C | 0.6% | 8.9hPa | 2.7V | 00:00:00 | 00:00:00 | 00:00:00 | |
| SQ9EZE-14 | 2026-09-03 12:55:13 | -12.03963 | -77.04040 | 183° | 199km/h | 991m | 0.0m/s | -36.9°C | 0.6% | 9.0hPa | 2.7V | 00:00:00 | 00:00:00 | 00:00:00 | |
| SQ9EZE-13 | 2026-09-03 12:55:05 | -12.03569 | -77.04118 | 157° | 199km/h | 993m | 0.1m/s | -36.8°C | 0.6% | 9.0hPa | 2.7V | 00:00:00 | 00:00:00 | 00:00:00 | |
| SP9SOS | 2026-09-03 12:55:00 | -12.03355 | -77.04254 | 141° | 199km/h | 992m | 0.1m/s | -36.9°C | 0.6% | 9.1hPa | 2.7V | 00:00:00 | 00:00:00 | 00:00:00 | |
| SQ9EZE-13 | 2026-09-03 12:54:48 | -12.03050 | -77.04774 | 103° | 199km/h | 992m | 0.3m/s | -37.2°C | 0.6% | 9.2hPa | 2.7V | 00:00:00 | 00:00:00 | 00:00:00 | |
| HA6NAB-11 | 2026-09-03 12:54:43 | -12.03034 | -77.05029 | 86° | 199km/h | 992m | -0.0m/s | -37.3°C | 0.6% | 9.2hPa | 2.7V | 00:00:00 | 00:00:00 | 00:00:00 | |
| HA6NAB-11 | 2026-09-03 12:54:37 | -12.03108 | -77.05327 | 66° | 201km/h | 991m | 0.0m/s | -37.3°C | 0.6% | 9.3hPa | 2.7V | 00:00:00 | 00:00:00 | 00:00:00 | |
| SP9SOS | 2026-09-03 12:54:35 | -12.03154 | -77.05419 | 61° | 199km/h | 991m | -0.0m/s | -37.4°C | 0.6% | 9.3hPa | 2.7V | 00:00:00 | 00:00:00 | 00:00:00 | |
| HA6NAB-11 | 2026-09-03 12:54:33 | -12.03241 | -77.05545 | 51° | 199km/h | 991m | 0.0m/s | -37.7°C | 0.6% | 9.3hPa | 2.7V | 00:00:00 | 00:00:00 | 00:00:00 | |
| HA6NAB-11 | 2026-09-03 12:54:26 | -12.03471 | -77.05745 | 32° | 199km/h | 991m | 0.0m/s | -37.8°C | 0.6% | 9.3hPa | 2.7V | 00:00:00 | 00:00:00 | 00:00:00 | |
| OE5DRO-10 | 2026-09-03 12:54:22 | -12.03654 | -77.05830 | 19° | 199km/h | 991m | 0.0m/s | -37.9°C | 2.2% | 9.3hPa | 2.7V | 00:00:00 | 00:00:00 | 00:00:00 | |
| HA6NAB-11 | 2026-09-03 12:54:21 | -12.03703 | -77.05844 | 16° | 199km/h | 991m | 0.2m/s | -38.0°C | 0.6% | 9.4hPa | 2.6V | 00:00:00 | 00:00:00 | 00:00:00 | |
| SQ9EZE-13 | 2026-09-03 12:54:16 | -12.03953 | -77.05875 | 360° | 199km/h | 991m | 0.1m/s | -38.0°C | 0.6% | 9.4hPa | 2.6V | 00:00:00 | 00:00:00 | 00:00:00 | |
| HA6NAB-11 | 2026-09-03 12:54:15 | -12.04004 | -77.05872 | 357° | 199km/h | 991m | -0.1m/s | -38.0°C | 0.6% | 9.4hPa | 2.6V | 00:00:00 | 00:00:00 | 00:00:00 | |
| SP9SOS | 2026-09-03 12:54:10 | -12.04250 | -77.05817 | 341° | 199km/h | 991m | 0.0m/s | -38.4°C | 0.6% | 9.5hPa | 2.6V | 00:00:00 | 00:00:00 | 00:00:00 | |
| HA6NAB-11 | 2026-09-03 12:54:10 | -12.04250 | -77.05817 | 341° | 199km/h | 991m | 0.0m/s | -38.4°C | 0.6% | 9.5hPa | 2.6V | 00:00:00 | 00:00:00 | 00:00:00 | |
| HA6NAB-11 | 2026-09-03 12:54:04 | -12.04512 | -77.05664 | 321° | 199km/h | 990m | 0.0m/s | -38.2°C | 0.6% | 9.5hPa | 2.6V | 00:00:00 | 00:00:00 | 00:00:00 | |
| OE5DRO-10 | 2026-09-03 12:54:03 | -12.04550 | -77.05630 | 318° | 199km/h | 990m | -0.5m/s | -38.3°C | 2.3% | 9.5hPa | 2.6V | 00:00:00 | 00:00:00 | 00:00:00 | |
| GYPAP8-17 | 2026-09-03 12:54:01 | -12.04620 | -77.05556 | 312° | 199km/h | 991m | -0.0m/s | -38.5°C | 0.6% | 9.5hPa | 2.6V | 00:00:00 | 00:00:00 | 00:00:00 | |
| SQ9EZE-13 | 2026-09-03 12:54:00 | -12.04652 | -77.05516 | 309° | 199km/h | 990m | -0.0m/s | -38.5°C | 0.6% | 9.5hPa | 2.6V | 00:00:00 | 00:00:00 | 00:00:00 | |
| HA6NAB-11 | 2026-09-03 12:53:58 | -12.04709 | -77.05431 | 302° | 199km/h | 991m | -0.0m/s | -38.4°C | 0.6% | 9.5hPa | 2.6V | 00:00:00 | 00:00:00 | 00:00:00 | |
| OE5DRO-10 | 2026-09-03 12:53:55 | -12.04776 | -77.05293 | 292° | 199km/h | 991m | -0.0m/s | -38.5°C | 2.3% | 9.5hPa | 2.6V | 00:00:00 | 00:00:00 | 00:00:00 | |
| HA6NAB-11 | 2026-09-03 12:53:52 | -12.04820 | -77.05145 | 283° | 199km/h | 991m | 0.0m/s | -38.6°C | 0.6% | 9.6hPa | 2.6V | 00:00:00 | 00:00:00 | 00:00:00 | |
| HA6NAB-11 | 2026-09-03 12:53:46 | -12.04832 | -77.04838 | 264° | 199km/h | 991m | -0.0m/s | -38.8°C | 0.6% | 9.7hPa | 2.6V | 00:00:00 | 00:00:00 | 00:00:00 | |
| SQ9EZE-13 | 2026-09-03 12:53:45 | -12.04824 | -77.04787 | 260° | 199km/h | 991m | 0.0m/s | -38.8°C | 0.6% | 9.7hPa | 2.6V | 00:00:00 | 00:00:00 | 00:00:00 | |
| SP9SOS | 2026-09-03 12:53:44 | -12.04813 | -77.04737 | 257° | 199km/h | 992m | 0.0m/s | -38.7°C | 0.6% | 9.7hPa | 2.6V | 00:00:00 | 00:00:00 | 00:00:00 | |
| SP9KGR-15 | 2026-09-03 12:53:38 | -12.04693 | -77.04456 | 238° | 199km/h | 992m | -0.1m/s | -38.9°C | 0.6% | 9.7hPa | 2.6V | 00:00:00 | 00:00:00 | 00:00:00 | |
| OE5DRO-10 | 2026-09-03 12:53:36 | -12.04633 | -77.04372 | 231° | 199km/h | 992m | -0.1m/s | -38.8°C | 2.4% | 9.7hPa | 2.6V | 00:00:00 | 00:00:00 | 00:00:00 | |
| SQ9EZE-13 | 2026-09-03 12:53:28 | -12.04315 | -77.04124 | 206° | 199km/h | 992m | 0.0m/s | -39.1°C | 0.7% | 9.8hPa | 2.7V | 00:00:00 | 00:00:00 | 00:00:00 | |
| SP9KGR-15 | 2026-09-03 12:53:21 | -12.03973 | -77.04040 | 183° | 199km/h | 991m | -0.1m/s | -39.1°C | 0.7% | 9.9hPa | 2.7V | 00:00:00 | 00:00:00 | 00:00:00 | |
| SP9SOS | 2026-09-03 12:53:19 | -12.03872 | -77.04041 | 177° | 199km/h | 991m | 0.1m/s | -39.2°C | 0.6% | 9.9hPa | 2.7V | 00:00:00 | 00:00:00 | 00:00:00 | |
| OE5DRO-10 | 2026-09-03 12:53:17 | -12.03772 | -77.04054 | 170° | 199km/h | 991m | -0.0m/s | -39.1°C | 2.4% | 9.9hPa | 2.7V | 00:00:00 | 00:00:00 | 00:00:00 | |
| SQ9EZE-13 | 2026-09-03 12:53:12 | -12.03532 | -77.04135 | 154° | 199km/h | 991m | -0.0m/s | -39.2°C | 0.6% | 10.0hPa | 2.7V | 00:00:00 | 00:00:00 | 00:00:00 | |
| SP9KGR-15 | 2026-09-03 12:53:06 | -12.03288 | -77.04316 | 135° | 199km/h | 990m | 0.1m/s | -39.4°C | 0.7% | 10.0hPa | 2.7V | 00:00:00 | 00:00:00 | 00:00:00 | |
| SQ9EZE-14 | 2026-09-03 12:53:05 | -12.03254 | -77.04354 | 132° | 199km/h | 991m | 0.1m/s | -39.4°C | 0.6% | 10.0hPa | 2.7V | 00:00:00 | 00:00:00 | 00:00:00 | |
| SQ9EZE-13 | 2026-09-03 12:52:56 | -12.03052 | -77.04763 | 103° | 199km/h | 989m | -0.0m/s | -39.5°C | 0.6% | 10.1hPa | 2.7V | 00:00:00 | 00:00:00 | 00:00:00 | |
| OE5DRO-10 | 2026-09-03 12:52:55 | -12.03043 | -77.04813 | 100° | 199km/h | 990m | 0.1m/s | -39.5°C | 2.4% | 10.0hPa | 2.7V | 00:00:00 | 00:00:00 | 00:00:00 | |
| SP9SOS | 2026-09-03 12:52:54 | -12.03036 | -77.04864 | 97° | 199km/h | 990m | 0.0m/s | -39.5°C | 0.7% | 10.1hPa | 2.7V | 00:00:00 | 00:00:00 | 00:00:00 | |
| SP9KGR-15 | 2026-09-03 12:52:50 | -12.03039 | -77.05069 | 84° | 199km/h | 990m | 0.0m/s | -39.7°C | 0.7% | 10.1hPa | 2.7V | 00:00:00 | 00:00:00 | 00:00:00 | |
| SQ9EZE-14 | 2026-09-03 12:52:49 | -12.03046 | -77.05119 | 81° | 199km/h | 990m | 0.1m/s | -39.7°C | 0.7% | 10.1hPa | 2.7V | 00:00:00 | 00:00:00 | 00:00:00 | |
| GYPAP8-17 | 2026-09-03 12:52:49 | -12.03046 | -77.05119 | 81° | 199km/h | 990m | 0.1m/s | -39.7°C | 0.7% | 10.1hPa | 2.7V | 00:00:00 | 00:00:00 | 00:00:00 | |
| OE5DRO-10 | 2026-09-03 12:52:36 | -12.03379 | -77.05679 | 39° | 208km/h | 991m | -0.8m/s | -40.2°C | 2.5% | 10.2hPa | 2.7V | 00:00:00 | 00:00:00 | 08:30:00 | |
| SP9KGR-15 | 2026-09-03 12:52:34 | -12.03462 | -77.05736 | 33° | 199km/h | 992m | -0.1m/s | -40.3°C | 0.7% | 10.3hPa | 0V | 00:00:00 | 00:00:00 | 00:00:00 | |
| SQ9EZE-13 | 2026-09-03 12:52:31 | -12.03597 | -77.05805 | 23° | 199km/h | 996m | 0.1m/s | -40.2°C | 0.7% | 10.3hPa | 0V | 00:00:00 | 00:00:00 | 00:00:00 | |
| SP9SOS | 2026-09-03 12:52:29 | -12.03695 | -77.05840 | 17° | 199km/h | 1003m | 0.0m/s | -40.2°C | 0.7% | 10.3hPa | 0V | 00:00:00 | 00:00:00 | 00:00:00 | |
| OE5DRO-10 | 2026-09-03 12:52:20 | -12.04252 | -77.05819 | 335° | 197km/h | 990m | 3.8m/s | 0°C | 0% | 0hPa | 0V | 00:00:00 | 00:00:00 | 00:00:00 | |
| SP9KGR-15 | 2026-09-03 12:52:19 | -12.04298 | -77.05798 | 337° | 199km/h | 989m | 0.1m/s | -40.3°C | 0.7% | 10.4hPa | 0V | 00:00:00 | 00:00:00 | 00:00:00 | |
| SQ9EZE-13 | 2026-09-03 12:52:13 | -12.04517 | -77.05668 | 321° | 199km/h | 999m | -0.0m/s | -40.3°C | 0.7% | 10.4hPa | 0V | 00:00:00 | 00:00:00 | 00:00:00 | |
| SP9SOS | 2026-09-03 12:52:03 | -12.04808 | -77.05243 | 285° | 192km/h | 991m | 0.7m/s | -40.4°C | 0.7% | 10.5hPa | 0V | 00:00:00 | 00:00:00 | 00:00:00 | |
| OE5DRO-10 | 2026-09-03 12:52:01 | -12.04839 | -77.05095 | 279° | 195km/h | 992m | -1.8m/s | 0°C | 0% | 0hPa | 0V | 00:00:00 | 00:00:00 | 00:00:00 | |
| OE5DRO-10 | 2026-09-03 12:51:58 | -12.04842 | -77.04942 | 269° | 199km/h | 992m | -1.5m/s | 0°C | 0% | 0hPa | 0V | 00:00:00 | 00:00:00 | 00:00:00 | |
| SP9KGR-15 | 2026-09-03 12:51:55 | -12.04834 | -77.04841 | 261° | 201km/h | 992m | 1.2m/s | -40.3°C | 0.7% | 10.6hPa | 0V | 00:00:00 | 00:00:00 | 00:00:00 | |
| SQ9EZE-13 | 2026-09-03 12:51:52 | -12.04800 | -77.04690 | 254° | 199km/h | 990m | 0.1m/s | -40.4°C | 0.7% | 10.6hPa | 0V | 00:00:00 | 00:00:00 | 00:00:00 | |
| SP9KGR-15 | 2026-09-03 12:51:39 | -12.04403 | -77.04172 | 212° | 199km/h | 989m | -0.4m/s | -39.8°C | 0.7% | 10.7hPa | 0V | 00:00:00 | 00:00:00 | 00:00:00 | |
| SP9SOS | 2026-09-03 12:51:37 | -12.04314 | -77.04124 | 206° | 199km/h | 991m | -0.4m/s | -39.7°C | 0.7% | 10.7hPa | 0V | 00:00:00 | 00:00:00 | 00:00:00 | |
| HA6NAB-11 | 2026-09-03 12:51:35 | -12.04220 | -77.04087 | 197° | 201km/h | 992m | 0.1m/s | -39.6°C | 0.7% | 10.8hPa | 0V | 00:00:00 | 00:00:00 | 00:00:00 | |
| GYPAP8-17 | 2026-09-03 12:51:33 | -12.04122 | -77.04061 | 193° | 199km/h | 992m | -0.0m/s | -39.6°C | 0.7% | 10.8hPa | 0V | 00:00:00 | 00:00:00 | 00:00:00 | |
| HA6NAB-11 | 2026-09-03 12:51:30 | -12.03971 | -77.04041 | 183° | 199km/h | 992m | 0.0m/s | -39.5°C | 0.7% | 10.8hPa | 0V | 00:00:00 | 00:00:00 | 00:00:00 | |
| HA6NAB-11 | 2026-09-03 12:51:25 | -12.03721 | -77.04066 | 167° | 199km/h | 993m | -0.1m/s | -39.5°C | 0.7% | 10.9hPa | 0V | 00:00:00 | 00:00:00 | 00:00:00 | |
| SP9KGR-15 | 2026-09-03 12:51:23 | -12.03625 | -77.04095 | 161° | 199km/h | 994m | 0.1m/s | -39.5°C | 0.7% | 10.9hPa | 0V | 00:00:00 | 00:00:00 | 00:00:00 | |
| HA6NAB-11 | 2026-09-03 12:51:20 | -12.03496 | -77.04153 | 151° | 199km/h | 1007m | 0.1m/s | -39.6°C | 0.7% | 11.0hPa | 0V | 00:00:00 | 00:00:00 | 00:00:00 | |
| SQ9EZE-13 | 2026-09-03 12:51:20 | -12.03462 | -77.04172 | 148° | 197km/h | 1027m | -0.8m/s | -39.5°C | 0.7% | 11.0hPa | 0V | 00:00:00 | 00:00:00 | 00:00:00 | |
| HA6NAB-11 | 2026-09-03 12:51:15 | -12.03690 | -77.05277 | 306° | 197km/h | 1174m | 19.7m/s | -39.3°C | 0.7% | 11.0hPa | 0V | 00:00:00 | 00:00:00 | 00:00:00 | |
| SP9SOS | 2026-09-03 12:51:12 | -12.03957 | -77.05446 | 86° | 155km/h | 1351m | 48.2m/s | -39.3°C | 0.7% | 11.0hPa | 0V | 00:00:00 | 00:00:00 | 00:00:00 | |
| HA6NAB-11 | 2026-09-03 12:51:09 | -12.03905 | -77.05956 | 340° | 208km/h | 990m | 0.1m/s | -39.4°C | 0.7% | 11.0hPa | 0V | 00:00:00 | 00:00:00 | 00:00:00 | |
| SP9KGR-15 | 2026-09-03 12:51:08 | -12.03955 | -77.05936 | 340° | 208km/h | 990m | 0.1m/s | -39.5°C | 0.7% | 11.0hPa | 0V | 00:00:00 | 00:00:00 | 00:00:00 | |
| SP9KGR-15 | 2026-09-03 12:50:52 | -12.04652 | -77.05517 | 308° | 199km/h | 990m | 0.0m/s | -39.5°C | 0.7% | 11.2hPa | 0V | 00:00:00 | 00:00:00 | 00:00:00 | |
| SQ9EZE-14 | 2026-09-03 12:50:46 | -12.04793 | -77.05246 | 289° | 199km/h | 990m | -0.0m/s | -39.4°C | 0.7% | 11.3hPa | 0V | 00:00:00 | 00:00:00 | 00:00:00 | |
| SP9SOS | 2026-09-03 12:50:46 | -12.04793 | -77.05246 | 289° | 199km/h | 990m | -0.0m/s | -39.4°C | 0.7% | 11.3hPa | 0V | 00:00:00 | 00:00:00 | 00:00:00 | |
| SQ9EZE-14 | 2026-09-03 12:50:30 | -12.04692 | -77.04456 | 238° | 199km/h | 988m | -0.0m/s | -39.4°C | 0.7% | 11.4hPa | 0V | 00:00:00 | 00:00:00 | 00:00:00 | |
| SP9SOS | 2026-09-03 12:50:21 | -12.04361 | -77.04141 | 209° | 199km/h | 992m | -0.1m/s | -39.2°C | 0.7% | 11.5hPa | 0V | 00:00:00 | 00:00:00 | 00:00:00 | |
| SP9KGR-15 | 2026-09-03 12:50:21 | -12.04361 | -77.04141 | 209° | 199km/h | 992m | -0.1m/s | -39.2°C | 0.7% | 11.5hPa | 0V | 00:00:00 | 00:00:00 | 00:00:00 | |
| GYPAP8-17 | 2026-09-03 12:50:21 | -12.04361 | -77.04141 | 209° | 199km/h | 992m | -0.1m/s | -39.2°C | 0.7% | 11.5hPa | 0V | 00:00:00 | 00:00:00 | 00:00:00 | |
| SP9KGR-15 | 2026-09-03 12:50:05 | -12.03578 | -77.04114 | 158° | 199km/h | 990m | -0.2m/s | -39.3°C | 0.7% | 11.7hPa | 0V | 00:00:00 | 00:00:00 | 00:00:00 | |
| HA6NAB-11 | 2026-09-03 12:50:04 | -12.03532 | -77.04136 | 154° | 199km/h | 990m | -0.2m/s | -39.3°C | 0.7% | 11.7hPa | 0V | 00:00:00 | 00:00:00 | 00:00:00 | |
| HA6NAB-11 | 2026-09-03 12:49:58 | -12.03288 | -77.04317 | 135° | 199km/h | 990m | -0.1m/s | -39.1°C | 0.6% | 11.8hPa | 0V | 00:00:00 | 00:00:00 | 00:00:00 | |
| SP9SOS | 2026-09-03 12:49:55 | -12.03191 | -77.04436 | 126° | 199km/h | 990m | -0.1m/s | -39.0°C | 0.6% | 11.8hPa | 0V | 00:00:00 | 00:00:00 | 00:00:00 | |
| HA6NAB-11 | 2026-09-03 12:49:52 | -12.03116 | -77.04570 | 116° | 199km/h | 990m | -0.1m/s | -39.0°C | 0.7% | 11.8hPa | 0V | 00:00:00 | 00:00:00 | 00:00:00 | |
| SP9KGR-15 | 2026-09-03 12:49:49 | -12.03064 | -77.04714 | 106° | 199km/h | 991m | -0.1m/s | -38.8°C | 0.6% | 11.9hPa | 0V | 00:00:00 | 00:00:00 | 00:00:00 | |
| HA6NAB-11 | 2026-09-03 12:49:46 | -12.03036 | -77.04866 | 97° | 199km/h | 989m | -0.0m/s | -38.5°C | 0.6% | 11.9hPa | 0V | 00:00:00 | 00:00:00 | 00:00:00 | |
| HA6NAB-11 | 2026-09-03 12:49:40 | -12.03056 | -77.05173 | 78° | 199km/h | 989m | -0.1m/s | -38.4°C | 0.6% | 12.0hPa | 0V | 00:00:00 | 00:00:00 | 00:00:00 | |
| HA6NAB-11 | 2026-09-03 12:49:34 | -12.03175 | -77.05456 | 58° | 199km/h | 990m | -0.1m/s | -39.0°C | 0.6% | 12.0hPa | 0V | 00:00:00 | 00:00:00 | 00:00:00 | |
| SQ9EZE-13 | 2026-09-03 12:49:34 | -12.03175 | -77.05456 | 58° | 199km/h | 990m | -0.1m/s | -39.0°C | 0.6% | 12.0hPa | 0V | 00:00:00 | 00:00:00 | 00:00:00 | |
| SP9KGR-15 | 2026-09-03 12:49:33 | -12.03204 | -77.05499 | 55° | 199km/h | 990m | 0.1m/s | -39.1°C | 0.6% | 12.1hPa | 0V | 00:00:00 | 00:00:00 | 00:00:00 | |
| SP9SOS | 2026-09-03 12:49:30 | -12.03303 | -77.05616 | 45° | 199km/h | 991m | 0.0m/s | -39.3°C | 0.6% | 12.1hPa | 0V | 00:00:00 | 00:00:00 | 00:00:00 | |
| SQ9EZE-13 | 2026-09-03 12:49:18 | -12.03842 | -77.05871 | 7° | 199km/h | 990m | 0.1m/s | -39.7°C | 0.7% | 12.2hPa | 0V | 00:00:00 | 00:00:00 | 00:00:00 | |
| SP9KGR-15 | 2026-09-03 12:49:18 | -12.03842 | -77.05871 | 7° | 199km/h | 990m | 0.1m/s | -39.7°C | 0.7% | 12.2hPa | 0V | 00:00:00 | 00:00:00 | 00:00:00 | |
| SP9SOS | 2026-09-03 12:49:05 | -12.04464 | -77.05703 | 325° | 199km/h | 990m | -0.2m/s | -40.1°C | 0.7% | 12.3hPa | 0V | 00:00:00 | 00:00:00 | 00:00:00 | |
| SP9KGR-15 | 2026-09-03 12:49:01 | -12.04613 | -77.05564 | 312° | 199km/h | 989m | 0.0m/s | -40.0°C | 0.7% | 12.4hPa | 0V | 00:00:00 | 00:00:00 | 00:00:00 | |
| SQ9EZE-13 | 2026-09-03 12:48:53 | -12.04806 | -77.05206 | 287° | 199km/h | 990m | 0.0m/s | -40.0°C | 0.7% | 12.5hPa | 0V | 00:00:00 | 00:00:00 | 00:00:00 | |
| SP9KGR-15 | 2026-09-03 12:48:45 | -12.04826 | -77.04798 | 261° | 199km/h | 990m | 0.0m/s | -40.3°C | 0.7% | 12.6hPa | 0V | 00:00:00 | 00:00:00 | 00:00:00 | |
| SP9SOS | 2026-09-03 12:48:39 | -12.04724 | -77.04509 | 241° | 199km/h | 989m | -2.1m/s | -40.9°C | 0.7% | 12.6hPa | 0V | 00:00:00 | 00:00:00 | 00:00:00 | |
| SQ9EZE-13 | 2026-09-03 12:48:38 | -12.04670 | -77.04422 | 235° | 199km/h | 990m | -0.0m/s | -41.0°C | 0.7% | 12.6hPa | 0V | 00:00:00 | 00:00:00 | 00:00:00 | |
| SP9KGR-15 | 2026-09-03 12:48:29 | -12.04369 | -77.04152 | 210° | 199km/h | 991m | 0.1m/s | -41.6°C | 0.7% | 12.7hPa | 0V | 00:00:00 | 00:00:00 | 00:00:00 | |
| SQ9EZE-13 | 2026-09-03 12:48:20 | -12.03933 | -77.04039 | 181° | 199km/h | 991m | -0.1m/s | -41.8°C | 0.7% | 12.8hPa | 0V | 00:00:00 | 00:00:00 | 00:00:00 | |
| SQ9EZE-14 | 2026-09-03 12:48:17 | -12.03782 | -77.04053 | 171° | 197km/h | 991m | 1.5m/s | -41.9°C | 0.7% | 12.8hPa | 0V | 00:00:00 | 00:00:00 | 00:00:00 | |
| SP9KGR-15 | 2026-09-03 12:48:14 | -12.03635 | -77.04092 | 162° | 199km/h | 990m | -0.1m/s | -41.9°C | 0.7% | 12.9hPa | 0V | 00:00:00 | 00:00:00 | 00:00:00 | |
| SP9SOS | 2026-09-03 12:48:14 | -12.03635 | -77.04092 | 162° | 199km/h | 990m | -0.1m/s | -41.9°C | 0.7% | 12.9hPa | 0V | 00:00:00 | 00:00:00 | 00:00:00 | |
| SQ9EZE-13 | 2026-09-03 12:48:04 | -12.03228 | -77.04386 | 130° | 199km/h | 990m | 0.1m/s | -42.3°C | 0.8% | 13.0hPa | 0V | 00:00:00 | 00:00:00 | 00:00:00 | |
| SQ9EZE-14 | 2026-09-03 12:48:01 | -12.03143 | -77.04514 | 120° | 199km/h | 988m | 0.2m/s | -42.4°C | 0.8% | 13.0hPa | 0V | 00:00:00 | 00:00:00 | 00:00:00 | |
| SP9KGR-15 | 2026-09-03 12:47:58 | -12.03082 | -77.04655 | 110° | 199km/h | 988m | -0.0m/s | -42.7°C | 0.8% | 13.0hPa | 0V | 00:00:00 | 00:00:00 | 00:00:00 | |
| HA6NAB-11 | 2026-09-03 12:47:54 | -12.03037 | -77.04855 | 97° | 199km/h | 988m | -0.1m/s | -42.8°C | 0.8% | 13.1hPa | 0V | 00:00:00 | 00:00:00 | 00:00:00 | |
| HA6NAB-11 | 2026-09-03 12:47:49 | -12.03044 | -77.05112 | 81° | 199km/h | 990m | 0.0m/s | -43.0°C | 0.8% | 13.1hPa | 0V | 00:00:00 | 00:00:00 | 00:00:00 | |
| SP9SOS | 2026-09-03 12:47:48 | -12.03054 | -77.05163 | 78° | 199km/h | 990m | -0.0m/s | -43.0°C | 0.8% | 13.2hPa | 0V | 00:00:00 | 00:00:00 | 00:00:00 | |
| SQ9EZE-13 | 2026-09-03 12:47:45 | -12.03100 | -77.05309 | 69° | 199km/h | 990m | -0.0m/s | -43.1°C | 0.8% | 13.2hPa | 0V | 00:00:00 | 00:00:00 | 00:00:00 | |
| GYPAP8-17 | 2026-09-03 12:47:44 | -12.03121 | -77.05356 | 65° | 199km/h | 990m | 0.0m/s | -43.2°C | 0.8% | 13.2hPa | 0V | 00:00:00 | 00:00:00 | 00:00:00 | |
| HA6NAB-11 | 2026-09-03 12:47:44 | -12.03121 | -77.05356 | 65° | 199km/h | 990m | 0.0m/s | -43.2°C | 0.8% | 13.2hPa | 0V | 00:00:00 | 00:00:00 | 00:00:00 | |
| SP9KGR-15 | 2026-09-03 12:47:42 | -12.03170 | -77.05445 | 58° | 199km/h | 991m | 0.7m/s | -43.3°C | 0.8% | 13.2hPa | 0V | 00:00:00 | 00:00:00 | 00:00:00 | |
| HA6NAB-11 | 2026-09-03 12:47:38 | -12.03296 | -77.05606 | 46° | 199km/h | 990m | -0.0m/s | -43.5°C | 0.8% | 13.3hPa | 0V | 00:00:00 | 00:00:00 | 00:00:00 | |
| HA6NAB-11 | 2026-09-03 12:47:31 | -12.03588 | -77.05805 | 24° | 199km/h | 990m | -0.0m/s | -43.7°C | 0.8% | 13.4hPa | 0V | 00:00:00 | 00:00:00 | 00:00:00 | |
| SQ9EZE-13 | 2026-09-03 12:47:29 | -12.03684 | -77.05839 | 17° | 199km/h | 989m | 0.0m/s | -43.8°C | 0.8% | 13.4hPa | 0V | 00:00:00 | 00:00:00 | 00:00:00 | |
| SP9KGR-15 | 2026-09-03 12:47:27 | -12.03782 | -77.05862 | 11° | 199km/h | 989m | -0.0m/s | -43.8°C | 0.8% | 13.4hPa | 0V | 00:00:00 | 00:00:00 | 00:00:00 | |
| HA6NAB-11 | 2026-09-03 12:47:26 | -12.03832 | -77.05869 | 8° | 199km/h | 989m | 0.0m/s | -43.9°C | 0.8% | 13.4hPa | 0V | 00:00:00 | 00:00:00 | 00:00:00 | |
| SP9SOS | 2026-09-03 12:47:22 | -12.04035 | -77.05870 | 355° | 199km/h | 990m | -0.1m/s | -44.1°C | 0.8% | 13.5hPa | 0V | 00:00:00 | 00:00:00 | 00:00:00 | |
| HA6NAB-11 | 2026-09-03 12:47:19 | -12.04182 | -77.05841 | 343° | 199km/h | 990m | -3.1m/s | -44.2°C | 0.8% | 13.5hPa | 0V | 00:00:00 | 00:00:00 | 00:00:00 | |
| HA6NAB-11 | 2026-09-03 12:47:14 | -12.04414 | -77.05736 | 329° | 199km/h | 993m | 0.2m/s | -44.4°C | 0.8% | 13.5hPa | 0V | 00:00:00 | 00:00:00 | 00:00:00 | |
| SQ9EZE-13 | 2026-09-03 12:47:13 | -12.04456 | -77.05708 | 326° | 199km/h | 993m | 0.0m/s | -44.4°C | 0.8% | 13.5hPa | 0V | 00:00:00 | 00:00:00 | 00:00:00 | |
| SP9KGR-15 | 2026-09-03 12:47:12 | -12.04496 | -77.05677 | 323° | 199km/h | 993m | -0.1m/s | -44.4°C | 0.8% | 13.5hPa | 0V | 00:00:00 | 00:00:00 | 00:00:00 | |
| HA6NAB-11 | 2026-09-03 12:47:08 | -12.04640 | -77.05533 | 310° | 199km/h | 994m | -0.1m/s | -44.6°C | 0.8% | 13.6hPa | 0V | 00:00:00 | 00:00:00 | 00:00:00 | |
| SQ9EZE-13 | 2026-09-03 12:46:57 | -12.04837 | -77.05013 | 275° | 199km/h | 994m | -0.1m/s | -44.6°C | 0.8% | 13.7hPa | 0V | 00:00:00 | 00:00:00 | 00:00:00 | |
| SP9SOS | 2026-09-03 12:46:57 | -12.04837 | -77.05013 | 275° | 199km/h | 994m | -0.1m/s | -44.6°C | 0.8% | 13.7hPa | 0V | 00:00:00 | 00:00:00 | 00:00:00 | |
| SP9KGR-15 | 2026-09-03 12:46:56 | -12.04838 | -77.04961 | 271° | 199km/h | 994m | -0.1m/s | -44.6°C | 0.8% | 13.7hPa | 0V | 00:00:00 | 00:00:00 | 00:00:00 | |
| SP9KGR-15 | 2026-09-03 12:46:41 | -12.04541 | -77.04276 | 223° | 199km/h | 995m | 0.0m/s | -44.6°C | 0.9% | 13.9hPa | 0V | 00:00:00 | 00:00:00 | 00:00:00 | |
| SP9SOS | 2026-09-03 12:46:32 | -12.04143 | -77.04063 | 194° | 199km/h | 992m | 0.0m/s | -44.5°C | 0.8% | 14.0hPa | 0V | 00:00:00 | 00:00:00 | 00:00:00 | |
| GYPAP8-17 | 2026-09-03 12:46:29 | -12.03993 | -77.04040 | 185° | 199km/h | 992m | -0.0m/s | -44.6°C | 0.9% | 14.0hPa | 0V | 00:00:00 | 00:00:00 | 00:00:00 | |
| SP9KGR-15 | 2026-09-03 12:46:25 | -12.03791 | -77.04050 | 172° | 199km/h | 992m | 0.1m/s | -44.8°C | 0.8% | 14.1hPa | 0V | 00:00:00 | 00:00:00 | 00:00:00 | |
| SP9KGR-15 | 2026-09-03 12:46:10 | -12.03175 | -77.04460 | 124° | 199km/h | 992m | 0.1m/s | -45.3°C | 0.9% | 14.3hPa | 0V | 00:00:00 | 00:00:00 | 00:00:00 | |
| SQ9EZE-13 | 2026-09-03 12:46:10 | -12.03175 | -77.04460 | 124° | 199km/h | 992m | 0.1m/s | -45.3°C | 0.9% | 14.3hPa | 0V | 00:00:00 | 00:00:00 | 00:00:00 | |
| SP9SOS | 2026-09-03 12:46:06 | -12.03085 | -77.04644 | 111° | 199km/h | 995m | 0.0m/s | -45.1°C | 0.9% | 14.3hPa | 0V | 00:00:00 | 00:00:00 | 00:00:00 | |
| SQ9EZE-13 | 2026-09-03 12:45:54 | -12.03079 | -77.05251 | 72° | 199km/h | 994m | 0.1m/s | -45.1°C | 0.9% | 14.5hPa | 0V | 00:00:00 | 00:00:00 | 00:00:00 | |
| SP9KGR-15 | 2026-09-03 12:45:52 | -12.03116 | -77.05345 | 66° | 199km/h | 994m | 0.0m/s | -45.1°C | 0.9% | 14.5hPa | 0V | 00:00:00 | 00:00:00 | 00:00:00 | |
| SQ9EZE-14 | 2026-09-03 12:45:48 | -12.03222 | -77.05521 | 53° | 199km/h | 994m | -0.1m/s | -45.0°C | 0.9% | 14.5hPa | 0V | 00:00:00 | 00:00:00 | 00:00:00 | |
| SP9SOS | 2026-09-03 12:45:40 | -12.03533 | -77.05779 | 27° | 199km/h | 991m | 0.1m/s | -45.1°C | 0.9% | 14.6hPa | 0V | 00:00:00 | 00:00:00 | 00:00:00 | |
| SP9KGR-15 | 2026-09-03 12:45:37 | -12.03674 | -77.05836 | 18° | 199km/h | 990m | -0.0m/s | -44.9°C | 0.8% | 14.6hPa | 0V | 00:00:00 | 00:00:00 | 00:00:00 | |
| SQ9EZE-14 | 2026-09-03 12:45:33 | -12.03924 | -77.05881 | 360° | 199km/h | 988m | -1.5m/s | -45.0°C | 0.8% | 14.7hPa | 0V | 00:00:00 | 00:00:00 | 00:00:00 | |
| HA6NAB-11 | 2026-09-03 12:45:27 | -12.04173 | -77.05843 | 346° | 199km/h | 992m | 0.0m/s | -45.3°C | 0.9% | 14.8hPa | 0V | 00:00:00 | 00:00:00 | 00:00:00 | |
| SQ9EZE-13 | 2026-09-03 12:45:25 | -12.04269 | -77.05811 | 339° | 199km/h | 993m | 0.3m/s | -45.4°C | 0.9% | 14.8hPa | 0V | 00:00:00 | 00:00:00 | 00:00:00 | |
| HA6NAB-11 | 2026-09-03 12:45:22 | -12.04404 | -77.05741 | 330° | 199km/h | 992m | -0.0m/s | -45.4°C | 0.8% | 14.9hPa | 0V | 00:00:00 | 00:00:00 | 00:00:00 | |
| SP9KGR-15 | 2026-09-03 12:45:21 | -12.04447 | -77.05713 | 326° | 199km/h | 992m | -0.0m/s | -45.5°C | 0.9% | 14.9hPa | 0V | 00:00:00 | 00:00:00 | 00:00:00 | |
| HA6NAB-11 | 2026-09-03 12:45:16 | -12.04633 | -77.05540 | 311° | 199km/h | 992m | -0.1m/s | -45.4°C | 0.9% | 14.9hPa | 0V | 00:00:00 | 00:00:00 | 00:00:00 | |
| SP9SOS | 2026-09-03 12:45:14 | -12.04692 | -77.05456 | 304° | 199km/h | 992m | -0.1m/s | -45.6°C | 0.9% | 15.0hPa | 0V | 00:00:00 | 00:00:00 | 00:00:00 | |
| HA6NAB-11 | 2026-09-03 12:45:10 | -12.04783 | -77.05273 | 291° | 199km/h | 992m | -0.2m/s | -45.5°C | 0.9% | 15.0hPa | 0V | 00:00:00 | 00:00:00 | 00:00:00 | |
| SQ9EZE-13 | 2026-09-03 12:45:09 | -12.04799 | -77.05225 | 288° | 199km/h | 992m | 0.1m/s | -45.6°C | 0.9% | 15.0hPa | 0V | 00:00:00 | 00:00:00 | 00:00:00 | |
| HA6NAB-11 | 2026-09-03 12:45:05 | -12.04836 | -77.05023 | 275° | 199km/h | 993m | -0.1m/s | -45.5°C | 0.9% | 15.1hPa | 0V | 00:00:00 | 00:00:00 | 00:00:00 | |
| HA6NAB-11 | 2026-09-03 12:44:59 | -12.04807 | -77.04717 | 256° | 199km/h | 993m | 0.2m/s | -45.7°C | 0.9% | 15.2hPa | 0V | 00:00:00 | 00:00:00 | 00:00:00 | |
| HA6NAB-11 | 2026-09-03 12:44:54 | -12.04708 | -77.04482 | 240° | 199km/h | 994m | -0.1m/s | -45.4°C | 0.9% | 15.2hPa | 0V | 00:00:00 | 00:00:00 | 00:00:00 | |
| SQ9EZE-13 | 2026-09-03 12:44:53 | -12.04681 | -77.04439 | 237° | 199km/h | 994m | 0.0m/s | -45.4°C | 0.9% | 15.2hPa | 0V | 00:00:00 | 00:00:00 | 00:00:00 | |
| HA6NAB-11 | 2026-09-03 12:44:48 | -12.04511 | -77.04249 | 221° | 199km/h | 995m | -0.1m/s | -45.4°C | 0.9% | 15.3hPa | 0V | 00:00:00 | 00:00:00 | 00:00:00 | |
| SP9SOS | 2026-09-03 12:44:48 | -12.04511 | -77.04249 | 221° | 199km/h | 995m | -0.1m/s | -45.4°C | 0.9% | 15.3hPa | 0V | 00:00:00 | 00:00:00 | 00:00:00 | |
| SP9KGR-15 | 2026-09-03 12:44:43 | -12.04297 | -77.04113 | 205° | 199km/h | 995m | 0.1m/s | -45.6°C | 0.9% | 15.4hPa | 0V | 00:00:00 | 00:00:00 | 00:00:00 | |
| SQ9EZE-13 | 2026-09-03 12:44:37 | -12.04003 | -77.04041 | 185° | 199km/h | 992m | -0.0m/s | -45.3°C | 0.9% | 15.5hPa | 0V | 00:00:00 | 00:00:00 | 00:00:00 | |
| SP9KGR-15 | 2026-09-03 12:44:23 | -12.03347 | -77.04259 | 140° | 199km/h | 992m | -0.0m/s | -45.5°C | 0.9% | 15.6hPa | 0V | 00:00:00 | 00:00:00 | 00:00:00 | |
| SP9SOS | 2026-09-03 12:44:23 | -12.03347 | -77.04259 | 140° | 199km/h | 992m | -0.0m/s | -45.5°C | 0.9% | 15.6hPa | 0V | 00:00:00 | 00:00:00 | 00:00:00 | |
| SQ9EZE-13 | 2026-09-03 12:44:21 | -12.03273 | -77.04331 | 134° | 199km/h | 992m | 0.0m/s | -45.5°C | 0.9% | 15.7hPa | 0V | 00:00:00 | 00:00:00 | 00:00:00 | |
| SQ9EZE-13 | 2026-09-03 12:44:02 | -12.03075 | -77.05240 | 73° | 199km/h | 988m | 0.0m/s | -45.7°C | 0.9% | 15.9hPa | 0V | 00:00:00 | 00:00:00 | 00:00:00 | |
| SP9KGR-15 | 2026-09-03 12:44:01 | -12.03091 | -77.05289 | 70° | 199km/h | 988m | -0.0m/s | -45.6°C | 0.9% | 15.9hPa | 0V | 00:00:00 | 00:00:00 | 00:00:00 | |
| SP9SOS | 2026-09-03 12:43:58 | -12.03157 | -77.05428 | 60° | 199km/h | 987m | 0.2m/s | -45.6°C | 0.9% | 16.0hPa | 0V | 00:00:00 | 00:00:00 | 00:00:00 | |
| SQ9EZE-13 | 2026-09-03 12:43:46 | -12.03614 | -77.05816 | 21° | 199km/h | 993m | -0.1m/s | -45.7°C | 0.9% | 16.1hPa | 0V | 00:00:00 | 00:00:00 | 00:00:00 | |
| SP9KGR-15 | 2026-09-03 12:43:39 | -12.03962 | -77.05877 | 359° | 199km/h | 993m | -0.0m/s | -45.2°C | 0.9% | 16.2hPa | 0V | 00:00:00 | 00:00:00 | 00:00:00 | |
| HA6NAB-11 | 2026-09-03 12:43:38 | -12.04012 | -77.05874 | 356° | 199km/h | 993m | -0.1m/s | -45.2°C | 0.8% | 16.3hPa | 0V | 00:00:00 | 00:00:00 | 00:00:00 | |
| SP9SOS | 2026-09-03 12:43:32 | -12.04305 | -77.05795 | 337° | 199km/h | 994m | -0.0m/s | -45.5°C | 0.8% | 16.3hPa | 0V | 00:00:00 | 00:00:00 | 00:00:00 | |
| HA6NAB-11 | 2026-09-03 12:43:30 | -12.04395 | -77.05749 | 330° | 199km/h | 995m | 0.0m/s | -45.4°C | 0.9% | 16.4hPa | 0V | 00:00:00 | 00:00:00 | 00:00:00 | |
| SQ9EZE-13 | 2026-09-03 12:43:28 | -12.04479 | -77.05692 | 324° | 199km/h | 995m | 0.1m/s | -45.2°C | 0.9% | 16.4hPa | 0V | 00:00:00 | 00:00:00 | 00:00:00 | |
| SP9KGR-15 | 2026-09-03 12:43:24 | -12.04625 | -77.05549 | 311° | 199km/h | 995m | 0.0m/s | -45.4°C | 0.9% | 16.4hPa | 0V | 00:00:00 | 00:00:00 | 00:00:00 | |
| SQ9EZE-14 | 2026-09-03 12:43:16 | -12.04810 | -77.05186 | 285° | 199km/h | 996m | 0.0m/s | -45.4°C | 0.9% | 16.6hPa | 0V | 00:00:00 | 00:00:00 | 00:00:00 | |
| SQ9EZE-13 | 2026-09-03 12:43:12 | -12.04837 | -77.04984 | 272° | 199km/h | 997m | 1.5m/s | -45.5°C | 0.9% | 16.6hPa | 0V | 00:00:00 | 00:00:00 | 00:00:00 | |
| SP9KGR-15 | 2026-09-03 12:43:08 | -12.04820 | -77.04780 | 260° | 199km/h | 996m | 0.1m/s | -45.5°C | 0.9% | 16.7hPa | 0V | 00:00:00 | 00:00:00 | 00:00:00 | |
| SP9SOS | 2026-09-03 12:43:07 | -12.04809 | -77.04730 | 257° | 199km/h | 996m | -0.0m/s | -45.6°C | 0.9% | 16.7hPa | 0V | 00:00:00 | 00:00:00 | 00:00:00 | |
| GYPAP8-17 | 2026-09-03 12:43:03 | -12.04737 | -77.04539 | 244° | 199km/h | 996m | -0.0m/s | -45.6°C | 0.9% | 16.7hPa | 0V | 00:00:00 | 00:00:00 | 00:00:00 | |
| SQ9EZE-14 | 2026-09-03 12:43:01 | -12.04686 | -77.04450 | 237° | 199km/h | 996m | -0.1m/s | -45.6°C | 0.9% | 16.7hPa | 0V | 00:00:00 | 00:00:00 | 00:00:00 | |
| SQ9EZE-13 | 2026-09-03 12:42:56 | -12.04518 | -77.04259 | 221° | 199km/h | 995m | 0.0m/s | -45.7°C | 0.9% | 16.8hPa | 0V | 00:00:00 | 00:00:00 | 00:00:00 | |
| SP9SOS | 2026-09-03 12:42:42 | -12.03855 | -77.04047 | 176° | 201km/h | 989m | 0.4m/s | -46.2°C | 0.9% | 17.0hPa | 0V | 00:00:00 | 00:00:00 | 00:00:00 | |
| SP9KGR-15 | 2026-09-03 12:42:42 | -12.03855 | -77.04047 | 176° | 201km/h | 989m | 0.4m/s | -46.2°C | 0.9% | 17.0hPa | 0V | 00:00:00 | 00:00:00 | 00:00:00 | |
| SQ9EZE-13 | 2026-09-03 12:42:24 | -12.03130 | -77.04536 | 119° | 199km/h | 1003m | -1.9m/s | -46.2°C | 0.9% | 17.3hPa | 0V | 00:00:00 | 00:00:00 | 00:00:00 | |
| SP9KGR-15 | 2026-09-03 12:42:24 | -12.03130 | -77.04536 | 119° | 199km/h | 1003m | -1.9m/s | -46.2°C | 0.9% | 17.3hPa | 0V | 00:00:00 | 00:00:00 | 00:00:00 | |
| HA6NAB-11 | 2026-09-03 12:42:21 | -12.03073 | -77.04677 | 109° | 199km/h | 999m | -1.5m/s | -46.2°C | 0.9% | 17.3hPa | 0V | 00:00:00 | 00:00:00 | 00:00:00 | |
| HA6NAB-11 | 2026-09-03 12:42:10 | -12.03072 | -77.05230 | 74° | 199km/h | 992m | -0.9m/s | -46.2°C | 0.9% | 17.5hPa | 0V | 00:00:00 | 00:00:00 | 00:00:00 | |
| SQ9EZE-13 | 2026-09-03 12:42:09 | -12.03088 | -77.05279 | 70° | 203km/h | 992m | 1.6m/s | -46.2°C | 0.9% | 17.5hPa | 0V | 00:00:00 | 00:00:00 | 00:00:00 | |
| SP9KGR-15 | 2026-09-03 12:42:09 | -12.03088 | -77.05279 | 70° | 203km/h | 992m | 1.6m/s | -46.2°C | 0.9% | 17.5hPa | 0V | 00:00:00 | 00:00:00 | 00:00:00 | |
| HA6NAB-11 | 2026-09-03 12:42:05 | -12.03180 | -77.05462 | 58° | 199km/h | 990m | 0.2m/s | -46.2°C | 0.9% | 17.6hPa | 0V | 00:00:00 | 00:00:00 | 00:00:00 | |
| HA6NAB-11 | 2026-09-03 12:42:00 | -12.03347 | -77.05655 | 41° | 197km/h | 990m | -0.1m/s | -46.3°C | 0.9% | 17.6hPa | 0V | 00:00:00 | 00:00:00 | 00:00:00 | |
| HA6NAB-11 | 2026-09-03 12:41:55 | -12.03559 | -77.05793 | 26° | 199km/h | 990m | -0.1m/s | -46.2°C | 0.9% | 17.7hPa | 0V | 00:00:00 | 00:00:00 | 00:00:00 | |
| SQ9EZE-13 | 2026-09-03 12:41:53 | -12.03653 | -77.05830 | 19° | 199km/h | 989m | 0.0m/s | -46.3°C | 0.9% | 17.7hPa | 0V | 00:00:00 | 00:00:00 | 00:00:00 | |
| SP9KGR-15 | 2026-09-03 12:41:52 | -12.03702 | -77.05844 | 16° | 199km/h | 989m | 0.0m/s | -46.3°C | 0.9% | 17.8hPa | 0V | 00:00:00 | 00:00:00 | 00:00:00 | |
| SP9SOS | 2026-09-03 12:41:51 | -12.03751 | -77.05856 | 13° | 199km/h | 988m | -0.0m/s | -46.2°C | 0.9% | 17.8hPa | 0V | 00:00:00 | 00:00:00 | 00:00:00 | |
| HA6NAB-11 | 2026-09-03 12:41:50 | -12.03801 | -77.05865 | 9° | 199km/h | 988m | -1.7m/s | -46.3°C | 0.9% | 17.8hPa | 0V | 00:00:00 | 00:00:00 | 00:00:00 | |
| GYPAP8-17 | 2026-09-03 12:41:48 | -12.03902 | -77.05875 | 3° | 199km/h | 989m | 0.1m/s | -46.3°C | 0.9% | 17.8hPa | 0V | 00:00:00 | 00:00:00 | 00:00:00 | |
| HA6NAB-11 | 2026-09-03 12:41:44 | -12.04103 | -77.05859 | 350° | 199km/h | 989m | 0.0m/s | -46.3°C | 0.9% | 17.9hPa | 0V | 00:00:00 | 00:00:00 | 00:00:00 | |
| SP9SOS | 2026-09-03 12:41:25 | -12.04793 | -77.05245 | 289° | 199km/h | 992m | -0.5m/s | -46.5°C | 0.9% | 18.2hPa | 0V | 00:00:00 | 00:00:00 | 00:00:00 | |
| SP9KGR-15 | 2026-09-03 12:41:20 | -12.04839 | -77.04990 | 273° | 199km/h | 995m | -0.1m/s | -46.5°C | 0.9% | 18.3hPa | 0V | 00:00:00 | 00:00:00 | 00:00:00 | |
| SQ9EZE-13 | 2026-09-03 12:41:17 | -12.04832 | -77.04837 | 264° | 199km/h | 993m | 0.1m/s | -46.4°C | 0.9% | 18.3hPa | 0V | 00:00:00 | 00:00:00 | 00:00:00 | |
| SP9KGR-15 | 2026-09-03 12:41:04 | -12.04525 | -77.04263 | 222° | 199km/h | 991m | 0.1m/s | -46.3°C | 0.9% | 18.5hPa | 0V | 00:00:00 | 00:00:00 | 00:00:00 | |
| SQ9EZE-13 | 2026-09-03 12:41:02 | -12.04445 | -77.04201 | 215° | 199km/h | 992m | 0.1m/s | -46.3°C | 0.9% | 18.5hPa | 0V | 00:00:00 | 00:00:00 | 00:00:00 | |
| SP9SOS | 2026-09-03 12:41:00 | -12.04356 | -77.04150 | 209° | 199km/h | 993m | 0.1m/s | -46.3°C | 0.9% | 18.6hPa | 0V | 00:00:00 | 00:00:00 | 00:00:00 | |
| SQ9EZE-13 | 2026-09-03 12:39:44 | -14.47061 | -83.54602 | 0° | 0km/h | 1325m | 0.0m/s | -47.5°C | 0.9% | 19.8hPa | 0V | 00:00:00 | 00:00:00 | 00:00:00 | |
| SP9SOS | 2026-09-03 12:39:43 | -14.47061 | -83.54602 | 0° | 0km/h | 1325m | 0.0m/s | -47.4°C | 1.0% | 19.8hPa | 0V | 00:00:00 | 00:00:00 | 00:00:00 | |
| SP9KGR-15 | 2026-09-03 12:39:42 | -14.47061 | -83.54602 | 0° | 0km/h | 1325m | 0.0m/s | -47.5°C | 0.9% | 19.9hPa | 0V | 00:00:00 | 00:00:00 | 00:00:00 | |
| GYPAP8-17 | 2026-09-03 12:39:40 | -14.47061 | -83.54602 | 286° | 197km/h | 1325m | 5.5m/s | -47.6°C | 1.0% | 19.9hPa | 0V | 00:00:00 | 00:00:00 | 00:00:00 | |
| SP9KGR-15 | 2026-09-03 12:39:26 | 48.73444 | 21.01429 | 0° | 0km/h | 26650m | 0.0m/s | -47.7°C | 1.0% | 20.1hPa | 0V | 00:00:00 | 00:00:00 | 00:00:00 | |
| SQ9EZE-13 | 2026-09-03 12:39:24 | 48.73444 | 21.01429 | 0° | 0km/h | 26650m | 0.0m/s | -47.6°C | 0.9% | 20.1hPa | 0V | 00:00:00 | 00:00:00 | 00:00:00 | |
| SP9SOS | 2026-09-03 12:39:17 | 48.73444 | 21.01429 | 0° | 0km/h | 26650m | 0.0m/s | -47.5°C | 0.9% | 20.3hPa | 0V | 00:00:00 | 00:00:00 | 00:00:00 | |
| SP9KGR-15 | 2026-09-03 12:39:11 | 48.73444 | 21.01429 | 0° | 0km/h | 26650m | 0.0m/s | -47.4°C | 0.9% | 20.4hPa | 0V | 00:00:00 | 00:00:00 | 00:00:00 | |
| SQ9EZE-13 | 2026-09-03 12:39:00 | 48.73459 | 21.01418 | 335° | 7km/h | 26665m | 1.7m/s | -47.5°C | 1.0% | 20.6hPa | 0V | 00:00:00 | 00:00:00 | 00:00:00 | |
| SP9KGR-15 | 2026-09-03 12:38:55 | 48.73462 | 21.01415 | 0° | 0km/h | 26668m | 0.0m/s | -47.5°C | 1.0% | 20.7hPa | 0V | 00:00:00 | 00:00:00 | 00:00:00 | |
| SP9SOS | 2026-09-03 12:38:52 | 48.73456 | 21.01420 | 335° | 7km/h | 26662m | 1.7m/s | -47.5°C | 1.0% | 20.7hPa | 0V | 00:00:00 | 00:00:00 | 00:00:00 | |
| HA6NAB-11 | 2026-09-03 12:38:40 | 48.73438 | 21.01390 | 108° | 22km/h | 26634m | 2.5m/s | -47.5°C | 1.0% | 20.9hPa | 0V | 00:00:00 | 00:00:00 | 00:00:00 | |
| SP9KGR-15 | 2026-09-03 12:38:39 | 48.73440 | 21.01384 | 130° | 20km/h | 26631m | 1.7m/s | -47.4°C | 1.0% | 20.9hPa | 0V | 00:00:00 | 00:00:00 | 00:00:00 | |
| HA6NAB-11 | 2026-09-03 12:38:34 | 48.73447 | 21.01349 | 113° | 26km/h | 26612m | 5.6m/s | -47.5°C | 1.0% | 21.0hPa | 0V | 00:00:00 | 00:00:00 | 00:00:00 | |
| LZ4TU-5 | 2026-09-03 12:38:30 | 48.73460 | 21.01311 | 121° | 29km/h | 26593m | 5.8m/s | 0°C | 0% | 0hPa | 0V | 00:00:00 | 00:00:00 | 00:00:00 | |
| SQ9EZE-14 | 2026-09-03 12:38:29 | 48.73462 | 21.01303 | 117° | 20km/h | 26586m | 6.3m/s | -47.5°C | 1.0% | 21.1hPa | 0V | 00:00:00 | 00:00:00 | 00:00:00 | |
| HA6NAB-11 | 2026-09-03 12:38:28 | 48.73465 | 21.01296 | 120° | 20km/h | 26581m | 5.3m/s | -47.5°C | 1.0% | 21.1hPa | 0V | 00:00:00 | 00:00:00 | 00:00:00 | |
| LZ4TU-5 | 2026-09-03 12:38:26 | 48.73469 | 21.01282 | 118° | 22km/h | 26570m | 5.9m/s | 0°C | 0% | 0hPa | 0V | 00:00:00 | 00:00:00 | 00:00:00 | |
| SP9SOS | 2026-09-03 12:38:25 | 48.73472 | 21.01274 | 117° | 24km/h | 26564m | 5.3m/s | -47.6°C | 1.0% | 21.2hPa | 0V | 00:00:00 | 00:00:00 | 00:00:00 | |
| SQ9EZE-13 | 2026-09-03 12:38:24 | 48.73475 | 21.01266 | 117° | 26km/h | 26559m | 4.2m/s | -47.6°C | 1.0% | 21.2hPa | 0V | 00:00:00 | 00:00:00 | 00:00:00 | |
| SP9KGR-15 | 2026-09-03 12:38:23 | 48.73477 | 21.01257 | 115° | 24km/h | 26555m | 4.9m/s | -47.6°C | 1.0% | 21.2hPa | 0V | 00:00:00 | 00:00:00 | 00:00:00 | |
| HA6NAB-11 | 2026-09-03 12:38:22 | 48.73480 | 21.01249 | 113° | 22km/h | 26549m | 6.7m/s | -47.6°C | 1.0% | 21.2hPa | 0V | 00:00:00 | 00:00:00 | 00:00:00 | |
| HA6NAB-11 | 2026-09-03 12:38:16 | 48.73494 | 21.01199 | 118° | 33km/h | 26517m | 5.0m/s | -47.7°C | 1.0% | 21.3hPa | 0V | 00:00:00 | 00:00:00 | 00:00:00 | |
| SQ9EZE-14 | 2026-09-03 12:38:13 | 48.73504 | 21.01168 | 110° | 24km/h | 26502m | 5.3m/s | -47.7°C | 1.0% | 21.4hPa | 0V | 00:00:00 | 00:00:00 | 00:00:00 | |
| HA6NAB-11 | 2026-09-03 12:38:11 | 48.73507 | 21.01152 | 106° | 18km/h | 26492m | 4.9m/s | -47.8°C | 1.0% | 21.4hPa | 0V | 00:00:00 | 00:00:00 | 00:00:00 | |
| OE5DRO-10 | 2026-09-03 12:38:10 | 48.73509 | 21.01139 | 109° | 24km/h | 26481m | 4.9m/s | 0°C | 0% | 0hPa | 0V | 00:00:00 | 00:00:00 | 00:00:00 | |
| SP9KGR-15 | 2026-09-03 12:38:07 | 48.73512 | 21.01127 | 114° | 15km/h | 26472m | 4.7m/s | -47.8°C | 1.0% | 21.5hPa | 0V | 00:00:00 | 00:00:00 | 00:00:00 | |
| HA6NAB-11 | 2026-09-03 12:38:04 | 48.73516 | 21.01114 | 109° | 13km/h | 26456m | 4.2m/s | -47.9°C | 1.0% | 21.5hPa | 0V | 00:00:00 | 00:00:00 | 00:00:00 | |
| SP9SOS | 2026-09-03 12:38:00 | 48.73524 | 21.01084 | 112° | 27km/h | 26436m | 4.0m/s | -47.8°C | 1.0% | 21.6hPa | 0V | 00:00:00 | 00:00:00 | 00:00:00 | |
| SQ9EZE-13 | 2026-09-03 12:37:52 | 48.73529 | 21.01012 | 98° | 24km/h | 26394m | 4.9m/s | -47.8°C | 1.0% | 21.7hPa | 0V | 00:00:00 | 00:00:00 | 00:00:00 | |
| SP9KGR-15 | 2026-09-03 12:37:51 | 48.73529 | 21.01003 | 99° | 22km/h | 26388m | 6.0m/s | -47.8°C | 1.0% | 21.8hPa | 0V | 00:00:00 | 00:00:00 | 00:00:00 | |
| OE5DRO-10 | 2026-09-03 12:37:34 | 48.73530 | 21.00830 | 90° | 15km/h | 26295m | 4.5m/s | 0°C | 0% | 0hPa | 0V | 00:00:00 | 00:00:00 | 00:00:00 | |
| SQ9EZE-13 | 2026-09-03 12:37:29 | 48.73533 | 21.00784 | 98° | 31km/h | 26275m | 4.2m/s | -47.7°C | 1.0% | 22.1hPa | 0V | 00:00:00 | 00:00:00 | 00:00:00 | |
| GYPAP8-17 | 2026-09-03 12:37:25 | 48.73527 | 21.00745 | 58° | 27km/h | 26255m | 4.8m/s | -47.7°C | 0.9% | 22.2hPa | 0V | 00:00:00 | 00:00:00 | 00:00:00 | |
| SP9KGR-15 | 2026-09-03 12:37:18 | 48.73503 | 21.00683 | 68° | 22km/h | 26218m | 4.4m/s | -48.0°C | 1.0% | 22.3hPa | 0V | 00:00:00 | 00:00:00 | 00:00:00 | |
| SQ9EZE-13 | 2026-09-03 12:37:12 | 48.73493 | 21.00617 | 64° | 38km/h | 26188m | 6.1m/s | -48.5°C | 1.0% | 22.4hPa | 0V | 00:00:00 | 00:00:00 | 00:00:00 | |
| SP9SOS | 2026-09-03 12:37:09 | 48.73475 | 21.00583 | 43° | 37km/h | 26172m | 5.5m/s | -48.4°C | 1.0% | 22.5hPa | 0V | 00:00:00 | 00:00:00 | 00:00:00 | |
| SP9KGR-15 | 2026-09-03 12:37:03 | 48.73443 | 21.00544 | 36° | 20km/h | 26140m | 5.0m/s | -48.1°C | 1.0% | 22.6hPa | 0V | 00:00:00 | 00:00:00 | 00:00:00 | |
| SQ9EZE-13 | 2026-09-03 12:36:57 | 48.73422 | 21.00499 | 53° | 31km/h | 26109m | 5.8m/s | -48.2°C | 1.0% | 22.7hPa | 0V | 00:00:00 | 00:00:00 | 00:00:00 | |
| SP9KGR-15 | 2026-09-03 12:36:47 | 48.73381 | 21.00446 | 60° | 16km/h | 26056m | 4.8m/s | -48.0°C | 1.0% | 22.9hPa | 0V | 00:00:00 | 00:00:00 | 00:00:00 | |
| SP9SOS | 2026-09-03 12:36:43 | 48.73372 | 21.00419 | 57° | 22km/h | 26035m | 4.4m/s | -48.1°C | 1.0% | 23.0hPa | 0V | 00:00:00 | 00:00:00 | 00:00:00 | |
| SQ9EZE-13 | 2026-09-03 12:36:40 | 48.73358 | 21.00403 | 21° | 26km/h | 26019m | 4.7m/s | -48.2°C | 1.0% | 23.0hPa | 0V | 00:00:00 | 00:00:00 | 00:00:00 | |
| SP9KGR-15 | 2026-09-03 12:36:31 | 48.73334 | 21.00367 | 68° | 20km/h | 25973m | 4.5m/s | -48.0°C | 1.0% | 23.2hPa | 0V | 00:00:00 | 00:00:00 | 00:00:00 | |
| SQ9EZE-13 | 2026-09-03 12:36:23 | 48.73308 | 21.00314 | 22° | 13km/h | 25932m | 4.7m/s | -47.8°C | 1.0% | 23.3hPa | 0V | 00:00:00 | 00:00:00 | 00:00:00 | |
| GYPAP8-17 | 2026-09-03 12:36:21 | 48.73306 | 21.00311 | 100° | 4km/h | 25921m | 5.5m/s | -47.9°C | 1.0% | 23.4hPa | 0V | 00:00:00 | 00:00:00 | 00:00:00 | |
| SP9KGR-15 | 2026-09-03 12:36:16 | 48.73309 | 21.00294 | 94° | 16km/h | 25894m | 5.4m/s | -47.8°C | 1.0% | 23.4hPa | 0V | 00:00:00 | 00:00:00 | 00:00:00 | |
| SP9SOS | 2026-09-03 12:36:14 | 48.73308 | 21.00280 | 81° | 18km/h | 25883m | 4.2m/s | -47.7°C | 1.0% | 23.5hPa | 0V | 00:00:00 | 00:00:00 | 00:00:00 | |
| SQ9EZE-13 | 2026-09-03 12:36:07 | 48.73293 | 21.00280 | 264° | 7km/h | 25849m | 5.0m/s | -47.6°C | 1.0% | 23.6hPa | 0V | 00:00:00 | 00:00:00 | 00:00:00 | |
| SQ9EZE-14 | 2026-09-03 12:36:05 | 48.73294 | 21.00278 | 117° | 11km/h | 25840m | 4.7m/s | -47.5°C | 0.9% | 23.6hPa | 0V | 00:00:00 | 00:00:00 | 00:00:00 | |
| SQ9EZE-13 | 2026-09-03 12:35:51 | 48.73274 | 21.00210 | 81° | 9km/h | 25766m | 5.7m/s | -48.2°C | 1.0% | 23.9hPa | 0V | 00:00:00 | 00:00:00 | 00:00:00 | |
| SQ9EZE-14 | 2026-09-03 12:35:49 | 48.73273 | 21.00201 | 81° | 15km/h | 25756m | 5.1m/s | -48.3°C | 1.0% | 24.0hPa | 0V | 00:00:00 | 00:00:00 | 00:00:00 | |
| SP9SOS | 2026-09-03 12:35:48 | 48.73272 | 21.00195 | 70° | 16km/h | 25750m | 6.4m/s | -48.3°C | 1.0% | 24.0hPa | 0V | 00:00:00 | 00:00:00 | 00:00:00 | |
| SP9KGR-15 | 2026-09-03 12:35:45 | 48.73264 | 21.00175 | 58° | 22km/h | 25734m | 5.0m/s | -48.3°C | 1.0% | 24.0hPa | 0V | 00:00:00 | 00:00:00 | 00:00:00 | |
| SQ9EZE-13 | 2026-09-03 12:35:33 | 48.73249 | 21.00110 | 67° | 16km/h | 25668m | 5.9m/s | -48.5°C | 1.0% | 24.3hPa | 0V | 00:00:00 | 00:00:00 | 00:00:00 | |
| SP9KGR-15 | 2026-09-03 12:35:25 | 48.73230 | 21.00067 | 38° | 16km/h | 25625m | 6.6m/s | -48.6°C | 1.0% | 24.4hPa | 0V | 00:00:00 | 00:00:00 | 00:00:00 | |
| SP9SOS | 2026-09-03 12:35:23 | 48.73223 | 21.00060 | 36° | 16km/h | 25614m | 4.8m/s | -48.5°C | 1.0% | 24.5hPa | 0V | 00:00:00 | 00:00:00 | 00:00:00 | |
| GYPAP8-17 | 2026-09-03 12:35:18 | 48.73207 | 21.00035 | 43° | 24km/h | 25589m | 6.5m/s | -48.4°C | 1.0% | 24.6hPa | 0V | 00:00:00 | 00:00:00 | 00:00:00 | |
| HA6NAB-11 | 2026-09-03 12:35:15 | 48.73189 | 21.00007 | 59° | 26km/h | 25567m | 6.2m/s | -48.4°C | 1.0% | 24.6hPa | 0V | 00:00:00 | 00:00:00 | 00:00:00 | |
| HA6NAB-11 | 2026-09-03 12:35:09 | 48.73177 | 20.99969 | 51° | 16km/h | 25539m | 5.7m/s | -48.4°C | 1.0% | 24.8hPa | 0V | 00:00:00 | 00:00:00 | 00:00:00 | |
| SP9KGR-15 | 2026-09-03 12:35:05 | 48.73169 | 20.99953 | 62° | 13km/h | 25517m | 4.2m/s | -48.5°C | 1.0% | 24.8hPa | 0V | 00:00:00 | 00:00:00 | 00:00:00 | |
| SQ9EZE-13 | 2026-09-03 12:35:03 | 48.73164 | 20.99943 | 53° | 18km/h | 25506m | 7.0m/s | -48.6°C | 1.0% | 24.9hPa | 0V | 00:00:00 | 00:00:00 | 00:00:00 | |
| SP9SOS | 2026-09-03 12:34:58 | 48.73152 | 20.99903 | 68° | 18km/h | 25474m | 4.7m/s | -48.3°C | 1.0% | 25.0hPa | 0V | 00:00:00 | 00:00:00 | 00:00:00 | |
| HA6NAB-11 | 2026-09-03 12:34:52 | 48.73132 | 20.99879 | 26° | 18km/h | 25446m | 6.0m/s | -48.4°C | 1.0% | 25.1hPa | 0V | 00:00:00 | 00:00:00 | 00:00:00 | |
| SP9KGR-15 | 2026-09-03 12:34:49 | 48.73119 | 20.99870 | 27° | 20km/h | 25429m | 6.4m/s | -48.5°C | 1.0% | 25.2hPa | 0V | 00:00:00 | 00:00:00 | 00:00:00 | |
| SQ9EZE-13 | 2026-09-03 12:34:47 | 48.73112 | 20.99862 | 41° | 16km/h | 25418m | 4.5m/s | -48.6°C | 1.0% | 25.2hPa | 0V | 00:00:00 | 00:00:00 | 00:00:00 | |
| HA6NAB-11 | 2026-09-03 12:34:46 | 48.73109 | 20.99858 | 54° | 15km/h | 25413m | 6.1m/s | -48.5°C | 1.0% | 25.2hPa | 0V | 00:00:00 | 00:00:00 | 00:00:00 | |
| SP9KGR-15 | 2026-09-03 12:34:34 | 48.73076 | 20.99824 | 30° | 24km/h | 25350m | 5.8m/s | -48.7°C | 1.0% | 25.5hPa | 0V | 00:00:00 | 00:00:00 | 00:00:00 | |
| SQ9EZE-13 | 2026-09-03 12:34:31 | 48.73057 | 20.99807 | 31° | 31km/h | 25333m | 4.1m/s | -48.7°C | 1.0% | 25.5hPa | 0V | 00:00:00 | 00:00:00 | 00:00:00 | |
| SP9SOS | 2026-09-03 12:34:30 | 48.73051 | 20.99802 | 28° | 27km/h | 25329m | 5.4m/s | -48.8°C | 1.0% | 25.6hPa | 0V | 00:00:00 | 00:00:00 | 00:00:00 | |
| SP9KGR-15 | 2026-09-03 12:34:18 | 48.72989 | 20.99797 | 30° | 24km/h | 25265m | 6.0m/s | -48.7°C | 1.0% | 25.8hPa | 0V | 00:00:00 | 00:00:00 | 00:00:00 | |
| GYPAP8-17 | 2026-09-03 12:34:16 | 48.72978 | 20.99788 | 33° | 26km/h | 25255m | 4.2m/s | -48.8°C | 1.0% | 25.8hPa | 0V | 00:00:00 | 00:00:00 | 00:00:00 | |
| SQ9EZE-13 | 2026-09-03 12:34:15 | 48.72973 | 20.99783 | 32° | 22km/h | 25251m | 4.6m/s | -48.9°C | 1.0% | 25.9hPa | 0V | 00:00:00 | 00:00:00 | 00:00:00 | |
| SP9SOS | 2026-09-03 12:34:04 | 48.72933 | 20.99771 | 60° | 15km/h | 25194m | 4.6m/s | -48.9°C | 1.0% | 26.1hPa | 0V | 00:00:00 | 00:00:00 | 00:00:00 | |
| SP9KGR-15 | 2026-09-03 12:34:03 | 48.72931 | 20.99766 | 62° | 16km/h | 25189m | 4.8m/s | -49.0°C | 1.0% | 26.1hPa | 0V | 00:00:00 | 00:00:00 | 00:00:00 | |
| SQ9EZE-13 | 2026-09-03 12:34:00 | 48.72923 | 20.99750 | 45° | 16km/h | 25174m | 4.0m/s | -49.1°C | 1.0% | 26.2hPa | 0V | 00:00:00 | 00:00:00 | 00:00:00 | |
| SQ9EZE-14 | 2026-09-03 12:33:48 | 48.72907 | 20.99734 | 84° | 11km/h | 25111m | 6.2m/s | -49.3°C | 1.0% | 26.4hPa | 0V | 00:00:00 | 00:00:00 | 00:00:00 | |
| SP9KGR-15 | 2026-09-03 12:33:47 | 48.72907 | 20.99730 | 81° | 11km/h | 25105m | 5.2m/s | -49.4°C | 1.0% | 26.5hPa | 0V | 00:00:00 | 00:00:00 | 00:00:00 | |
| SQ9EZE-13 | 2026-09-03 12:33:44 | 48.72908 | 20.99718 | 130° | 9km/h | 25090m | 5.8m/s | -49.4°C | 1.0% | 26.5hPa | 0V | 00:00:00 | 00:00:00 | 00:00:00 | |
| SQ9EZE-14 | 2026-09-03 12:33:32 | 48.72926 | 20.99702 | 92° | 20km/h | 25027m | 4.8m/s | -49.7°C | 1.1% | 26.8hPa | 0V | 00:00:00 | 00:00:00 | 00:00:00 | |
| SP9KGR-15 | 2026-09-03 12:33:31 | 48.72926 | 20.99694 | 94° | 20km/h | 25022m | 4.4m/s | -49.8°C | 1.0% | 26.8hPa | 0V | 00:00:00 | 00:00:00 | 00:00:00 | |
| OE5DRO-10 | 2026-09-03 12:33:20 | 48.72936 | 20.99659 | 84° | 11km/h | 24962m | 5.6m/s | 0°C | 0% | 0hPa | 0V | 00:00:00 | 00:00:00 | 00:00:00 | |
| SQ9EZE-14 | 2026-09-03 12:33:16 | 48.72931 | 20.99646 | 55° | 16km/h | 24946m | 3.9m/s | -49.7°C | 1.0% | 27.1hPa | 0V | 00:00:00 | 00:00:00 | 00:00:00 | |
| GYPAP8-17 | 2026-09-03 12:33:12 | 48.72927 | 20.99632 | 76° | 7km/h | 24928m | 3.8m/s | -49.8°C | 1.0% | 27.2hPa | 0V | 00:00:00 | 00:00:00 | 00:00:00 | |
| OE5DRO-10 | 2026-09-03 12:33:01 | 48.72895 | 20.99609 | 31° | 15km/h | 24869m | 4.1m/s | 0°C | 0% | 0hPa | 0V | 00:00:00 | 00:00:00 | 00:00:00 | |
| SP9KGR-15 | 2026-09-03 12:33:00 | 48.72895 | 20.99609 | 31° | 16km/h | 24869m | 4.2m/s | -50.9°C | 1.1% | 27.4hPa | 0V | 00:00:00 | 00:00:00 | 00:00:00 | |
| SQ9EZE-14 | 2026-09-03 12:32:59 | 48.72891 | 20.99606 | 36° | 15km/h | 24864m | 5.7m/s | -51.1°C | 1.1% | 27.5hPa | 0V | 00:00:00 | 00:00:00 | 00:00:00 | |
| SQ9EZE-14 | 2026-09-03 12:32:44 | 48.72823 | 20.99604 | 334° | 22km/h | 24789m | 5.7m/s | -51.4°C | 1.1% | 27.8hPa | 0V | 00:00:00 | 00:00:00 | 00:00:00 | |
| SP9KGR-15 | 2026-09-03 12:32:30 | 48.72762 | 20.99657 | 316° | 24km/h | 24713m | 5.3m/s | -51.2°C | 1.1% | 28.1hPa | 0V | 00:00:00 | 00:00:00 | 00:00:00 | |
| SQ9EZE-14 | 2026-09-03 12:32:29 | 48.72762 | 20.99657 | 316° | 24km/h | 24713m | 5.3m/s | -51.2°C | 1.1% | 28.1hPa | 0V | 00:00:00 | 00:00:00 | 00:00:00 | |
| SQ9EZE-13 | 2026-09-03 12:32:21 | 48.72729 | 20.99694 | 304° | 13km/h | 24672m | 4.6m/s | -51.1°C | 1.1% | 28.3hPa | 0V | 00:00:00 | 00:00:00 | 00:00:00 | |
| SP9KGR-15 | 2026-09-03 12:32:13 | 48.72710 | 20.99741 | 304° | 20km/h | 24631m | 4.9m/s | -51.1°C | 1.1% | 28.5hPa | 0V | 00:00:00 | 00:00:00 | 00:00:00 | |
| SP9SOS | 2026-09-03 12:32:10 | 48.72701 | 20.99754 | 326° | 13km/h | 24615m | 4.8m/s | -51.2°C | 1.1% | 28.5hPa | 0V | 00:00:00 | 00:00:00 | 00:00:00 | |
| SQ9EZE-14 | 2026-09-03 12:31:58 | 48.72685 | 20.99822 | 285° | 18km/h | 24550m | 4.8m/s | -51.7°C | 1.2% | 28.8hPa | 0V | 00:00:00 | 00:00:00 | 00:00:00 | |
| SP9KGR-15 | 2026-09-03 12:31:57 | 48.72684 | 20.99828 | 280° | 15km/h | 24545m | 4.7m/s | -51.7°C | 1.2% | 28.9hPa | 0V | 00:00:00 | 00:00:00 | 00:00:00 | |
| SQ9EZE-13 | 2026-09-03 12:31:47 | 48.72695 | 20.99879 | 246° | 27km/h | 24494m | 5.0m/s | -51.6°C | 1.2% | 29.1hPa | 0V | 00:00:00 | 00:00:00 | 00:00:00 | |
| SP9KGR-15 | 2026-09-03 12:31:43 | 48.72709 | 20.99912 | 215° | 7km/h | 24470m | 5.2m/s | -51.5°C | 1.2% | 29.2hPa | 0V | 00:00:00 | 00:00:00 | 00:00:00 | |
| SQ9EZE-13 | 2026-09-03 12:31:32 | 48.72730 | 20.99957 | 233° | 27km/h | 24414m | 4.5m/s | -51.3°C | 1.1% | 29.4hPa | 0V | 00:00:00 | 00:00:00 | 00:00:00 | |
| SP9KGR-15 | 2026-09-03 12:31:26 | 48.72752 | 20.99977 | 174° | 15km/h | 24389m | 4.7m/s | -51.3°C | 1.2% | 29.5hPa | 0V | 00:00:00 | 00:00:00 | 00:00:00 | |
| SQ9EZE-13 | 2026-09-03 12:31:16 | 48.72787 | 20.99995 | 219° | 18km/h | 24337m | 5.1m/s | -51.3°C | 1.1% | 29.8hPa | 0V | 00:00:00 | 00:00:00 | 00:00:00 | |
| SP9KGR-15 | 2026-09-03 12:31:10 | 48.72819 | 21.00006 | 161° | 22km/h | 24304m | 5.6m/s | -51.1°C | 1.2% | 30.0hPa | 0V | 00:00:00 | 00:00:00 | 00:00:00 | |
| GYPAP8-17 | 2026-09-03 12:31:06 | 48.72839 | 20.99986 | 145° | 24km/h | 24281m | 4.9m/s | -51.0°C | 1.2% | 30.1hPa | 0V | 00:00:00 | 00:00:00 | 00:00:00 | |
| SQ9EZE-13 | 2026-09-03 12:31:00 | 48.72857 | 20.99980 | 199° | 16km/h | 24248m | 6.6m/s | -51.1°C | 1.1% | 30.2hPa | 0V | 00:00:00 | 00:00:00 | 00:00:00 | |
| SP9KGR-15 | 2026-09-03 12:30:55 | 48.72883 | 20.99972 | 137° | 26km/h | 24221m | 5.5m/s | -50.8°C | 1.2% | 30.3hPa | 0V | 00:00:00 | 00:00:00 | 00:00:00 | |
| SQ9EZE-13 | 2026-09-03 12:30:44 | 48.72913 | 20.99907 | 171° | 16km/h | 24160m | 4.5m/s | -50.6°C | 1.2% | 30.6hPa | 0V | 00:00:00 | 00:00:00 | 00:00:00 | |
| SP9KGR-15 | 2026-09-03 12:30:39 | 48.72931 | 20.99877 | 118° | 31km/h | 24132m | 6.7m/s | -50.5°C | 1.1% | 30.8hPa | 0V | 00:00:00 | 00:00:00 | 00:00:00 | |
| SQ9EZE-13 | 2026-09-03 12:30:25 | 48.72963 | 20.99780 | 106° | 31km/h | 24051m | 6.1m/s | -50.1°C | 1.1% | 31.2hPa | 0V | 00:00:00 | 00:00:00 | 00:00:00 | |
| SP9KGR-15 | 2026-09-03 12:30:24 | 48.72963 | 20.99780 | 106° | 31km/h | 24051m | 6.1m/s | -50.1°C | 1.1% | 31.2hPa | 0V | 00:00:00 | 00:00:00 | 00:00:00 | |
| SP9KGR-15 | 2026-09-03 12:30:09 | 48.72984 | 20.99701 | 90° | 24km/h | 23974m | 5.0m/s | -50.4°C | 1.1% | 31.5hPa | 0V | 00:00:00 | 00:00:00 | 00:00:00 | |
| SQ9EZE-13 | 2026-09-03 12:30:08 | 48.72984 | 20.99685 | 98° | 16km/h | 23964m | 4.6m/s | -50.4°C | 1.1% | 31.6hPa | 0V | 00:00:00 | 00:00:00 | 00:00:00 | |
| SP9KGR-15 | 2026-09-03 12:29:53 | 48.72979 | 20.99633 | 80° | 9km/h | 23892m | 5.4m/s | -50.7°C | 1.1% | 31.9hPa | 0V | 00:00:00 | 00:00:00 | 00:00:00 | |
| SQ9EZE-13 | 2026-09-03 12:29:52 | 48.72979 | 20.99630 | 79° | 9km/h | 23887m | 4.7m/s | -50.7°C | 1.1% | 31.9hPa | 0V | 00:00:00 | 00:00:00 | 00:00:00 | |
| SQ9EZE-14 | 2026-09-03 12:29:38 | 48.72960 | 20.99601 | 69° | 15km/h | 23814m | 4.4m/s | -50.9°C | 1.1% | 32.3hPa | 0V | 00:00:00 | 00:00:00 | 00:00:00 | |
| SP9KGR-15 | 2026-09-03 12:29:37 | 48.72958 | 20.99595 | 60° | 15km/h | 23810m | 4.5m/s | -51.0°C | 1.1% | 32.3hPa | 0V | 00:00:00 | 00:00:00 | 00:00:00 | |
| SQ9EZE-13 | 2026-09-03 12:29:36 | 48.72956 | 20.99591 | 48° | 16km/h | 23805m | 5.9m/s | -51.1°C | 1.1% | 32.3hPa | 0V | 00:00:00 | 00:00:00 | 00:00:00 | |
| SQ9EZE-14 | 2026-09-03 12:29:23 | 48.72932 | 20.99576 | 13° | 18km/h | 23732m | 6.3m/s | -52.0°C | 1.2% | 32.7hPa | 0V | 00:00:00 | 00:00:00 | 00:00:00 | |
| SP9KGR-15 | 2026-09-03 12:29:22 | 48.72932 | 20.99576 | 13° | 18km/h | 23732m | 6.3m/s | -52.0°C | 1.2% | 32.7hPa | 0V | 00:00:00 | 00:00:00 | 00:00:00 | |
| SQ9EZE-13 | 2026-09-03 12:29:21 | 48.72923 | 20.99576 | 352° | 20km/h | 23722m | 4.0m/s | -52.1°C | 1.2% | 32.8hPa | 0V | 00:00:00 | 00:00:00 | 00:00:00 | |
| GYPAP8-17 | 2026-09-03 12:29:09 | 48.72923 | 20.99583 | 94° | 5km/h | 23668m | 4.4m/s | -51.6°C | 1.2% | 33.0hPa | 0V | 00:00:00 | 00:00:00 | 00:00:00 | |
| SP9KGR-15 | 2026-09-03 12:29:05 | 48.72913 | 20.99582 | 338° | 16km/h | 23648m | 4.6m/s | -51.5°C | 1.1% | 33.2hPa | 0V | 00:00:00 | 00:00:00 | 00:00:00 | |
| SQ9EZE-13 | 2026-09-03 12:29:04 | 48.72908 | 20.99588 | 296° | 7km/h | 23638m | 4.2m/s | -51.6°C | 1.2% | 33.2hPa | 0V | 00:00:00 | 00:00:00 | 00:00:00 | |
| SP9KGR-15 | 2026-09-03 12:28:50 | 48.72912 | 20.99565 | 359° | 13km/h | 23575m | 4.7m/s | -51.6°C | 1.2% | 33.5hPa | 0V | 00:00:00 | 00:00:00 | 00:00:00 | |
| SQ9EZE-13 | 2026-09-03 12:28:47 | 48.72906 | 20.99566 | 0° | 0km/h | 23561m | 3.9m/s | -51.5°C | 1.2% | 33.6hPa | 0V | 00:00:00 | 00:00:00 | 00:00:00 | |
| SP9KGR-15 | 2026-09-03 12:28:35 | 48.72900 | 20.99551 | 347° | 16km/h | 23498m | 5.0m/s | -51.8°C | 1.2% | 33.9hPa | 0V | 00:00:00 | 00:00:00 | 00:00:00 | |
| SQ9EZE-13 | 2026-09-03 12:28:31 | 48.72890 | 20.99554 | 3° | 9km/h | 23484m | 6.0m/s | -51.8°C | 1.2% | 34.0hPa | 0V | 00:00:00 | 00:00:00 | 00:00:00 | |
| SP9KGR-15 | 2026-09-03 12:28:18 | 48.72847 | 20.99560 | 332° | 18km/h | 23420m | 4.3m/s | -51.5°C | 1.2% | 34.3hPa | 0V | 00:00:00 | 00:00:00 | 00:00:00 | |
| SQ9EZE-13 | 2026-09-03 12:28:15 | 48.72840 | 20.99565 | 18° | 2km/h | 23404m | 4.5m/s | -51.4°C | 1.2% | 34.4hPa | 0V | 00:00:00 | 00:00:00 | 00:00:00 | |
| GYPAP8-17 | 2026-09-03 12:28:08 | 48.72823 | 20.99567 | 358° | 29km/h | 23368m | 4.2m/s | -51.7°C | 1.2% | 34.6hPa | 0V | 00:00:00 | 00:00:00 | 00:00:00 | |
| SP9KGR-15 | 2026-09-03 12:28:02 | 48.72795 | 20.99582 | 219° | 4km/h | 23342m | 6.1m/s | -51.6°C | 1.2% | 34.8hPa | 0V | 00:00:00 | 00:00:00 | 00:00:00 | |
| SQ9EZE-13 | 2026-09-03 12:28:01 | 48.72799 | 20.99580 | 150° | 11km/h | 23331m | 4.4m/s | -51.5°C | 1.2% | 34.8hPa | 0V | 00:00:00 | 00:00:00 | 00:00:00 | |
| SP9KGR-15 | 2026-09-03 12:27:47 | 48.72779 | 20.99577 | 277° | 4km/h | 23268m | 4.4m/s | -51.5°C | 1.2% | 35.2hPa | 0V | 00:00:00 | 00:00:00 | 00:00:00 | |
| SQ9EZE-13 | 2026-09-03 12:27:45 | 48.72780 | 20.99577 | 0° | 0km/h | 23257m | 5.4m/s | -51.6°C | 1.2% | 35.2hPa | 0V | 00:00:00 | 00:00:00 | 00:00:00 | |
| SP9KGR-15 | 2026-09-03 12:27:32 | 48.72764 | 20.99567 | 214° | 9km/h | 23186m | 4.8m/s | -51.8°C | 1.2% | 35.6hPa | 0V | 00:00:00 | 00:00:00 | 00:00:00 | |
| SQ9EZE-13 | 2026-09-03 12:27:27 | 48.72771 | 20.99566 | 133° | 11km/h | 23165m | 5.1m/s | -51.7°C | 1.2% | 35.7hPa | 0V | 00:00:00 | 00:00:00 | 00:00:00 | |
| SP9KGR-15 | 2026-09-03 12:27:15 | 48.72795 | 20.99524 | 141° | 5km/h | 23104m | 5.6m/s | -51.5°C | 1.2% | 36.1hPa | 0V | 00:00:00 | 00:00:00 | 00:00:00 | |
| SQ9EZE-13 | 2026-09-03 12:27:11 | 48.72800 | 20.99518 | 108° | 4km/h | 23086m | 4.4m/s | -51.5°C | 1.2% | 36.2hPa | 0V | 00:00:00 | 00:00:00 | 00:00:00 | |
| SQ9EZE-14 | 2026-09-03 12:27:04 | 48.72797 | 20.99496 | 97° | 13km/h | 23048m | 4.6m/s | -51.5°C | 1.2% | 36.4hPa | 0V | 00:00:00 | 00:00:00 | 00:00:00 | |
| SP9KGR-15 | 2026-09-03 12:27:00 | 48.72799 | 20.99484 | 129° | 4km/h | 23027m | 6.0m/s | -51.4°C | 1.2% | 36.5hPa | 0V | 00:00:00 | 00:00:00 | 00:00:00 | |
| SQ9EZE-14 | 2026-09-03 12:26:49 | 48.72787 | 20.99480 | 82° | 18km/h | 22971m | 5.4m/s | -51.2°C | 1.2% | 36.8hPa | 0V | 00:00:00 | 00:00:00 | 00:00:00 | |
| SP9KGR-15 | 2026-09-03 12:26:45 | 48.72789 | 20.99458 | 140° | 9km/h | 22951m | 5.0m/s | -51.2°C | 1.2% | 36.9hPa | 0V | 00:00:00 | 00:00:00 | 00:00:00 | |
| SQ9EZE-14 | 2026-09-03 12:26:34 | 48.72783 | 20.99434 | 101° | 11km/h | 22888m | 4.9m/s | -51.0°C | 1.1% | 37.3hPa | 0V | 00:00:00 | 00:00:00 | 00:00:00 | |
| SP9KGR-15 | 2026-09-03 12:26:29 | 48.72787 | 20.99425 | 146° | 7km/h | 22868m | 4.8m/s | -51.0°C | 1.1% | 37.4hPa | 0V | 00:00:00 | 00:00:00 | 00:00:00 | |
| SQ9EZE-14 | 2026-09-03 12:26:17 | 48.72795 | 20.99374 | 137° | 15km/h | 22805m | 5.5m/s | -51.4°C | 1.2% | 37.8hPa | 0V | 00:00:00 | 00:00:00 | 00:00:00 | |
| SP9KGR-15 | 2026-09-03 12:26:14 | 48.72806 | 20.99363 | 150° | 20km/h | 22789m | 4.8m/s | -51.5°C | 1.2% | 37.9hPa | 0V | 00:00:00 | 00:00:00 | 00:00:00 | |
| SQ9EZE-13 | 2026-09-03 12:26:02 | 48.72821 | 20.99306 | 162° | 9km/h | 22719m | 5.2m/s | -51.4°C | 1.2% | 38.3hPa | 0V | 00:00:00 | 00:00:00 | 00:00:00 | |
| GYPAP8-17 | 2026-09-03 12:25:59 | 48.72827 | 20.99303 | 165° | 15km/h | 22709m | 5.0m/s | -51.4°C | 1.2% | 38.3hPa | 0V | 00:00:00 | 00:00:00 | 00:00:00 | |
| SP9KGR-15 | 2026-09-03 12:25:58 | 48.72830 | 20.99302 | 154° | 13km/h | 22704m | 4.6m/s | -51.3°C | 1.2% | 38.4hPa | 0V | 00:00:00 | 00:00:00 | 00:00:00 | |
| SQ9EZE-14 | 2026-09-03 12:25:46 | 48.72821 | 20.99255 | 117° | 7km/h | 22642m | 5.2m/s | -51.4°C | 1.2% | 38.7hPa | 0V | 00:00:00 | 00:00:00 | 00:00:00 | |
| SP9KGR-15 | 2026-09-03 12:25:42 | 48.72824 | 20.99244 | 88° | 11km/h | 22623m | 5.6m/s | -51.3°C | 1.2% | 38.9hPa | 0V | 00:00:00 | 00:00:00 | 00:00:00 | |
| SQ9EZE-13 | 2026-09-03 12:25:41 | 48.72824 | 20.99239 | 71° | 13km/h | 22617m | 5.2m/s | -51.2°C | 1.2% | 38.9hPa | 0V | 00:00:00 | 00:00:00 | 00:00:00 | |
| SQ9EZE-14 | 2026-09-03 12:25:31 | 48.72801 | 20.99208 | 22° | 5km/h | 22569m | 4.5m/s | -51.2°C | 1.2% | 39.2hPa | 0V | 00:00:00 | 00:00:00 | 00:00:00 | |
| SP9KGR-15 | 2026-09-03 12:25:27 | 48.72794 | 20.99209 | 2° | 7km/h | 22549m | 5.3m/s | -51.1°C | 1.2% | 39.3hPa | 0V | 00:00:00 | 00:00:00 | 00:00:00 | |
| SQ9EZE-13 | 2026-09-03 12:25:24 | 48.72789 | 20.99207 | 26° | 5km/h | 22534m | 5.1m/s | -51.3°C | 1.2% | 39.4hPa | 0V | 00:00:00 | 00:00:00 | 00:00:00 | |
| SP9KGR-15 | 2026-09-03 12:25:12 | 48.72762 | 20.99218 | 329° | 9km/h | 22470m | 4.9m/s | -51.6°C | 1.2% | 39.8hPa | 0V | 00:00:00 | 00:00:00 | 00:00:00 | |
| SQ9EZE-13 | 2026-09-03 12:25:08 | 48.72755 | 20.99223 | 339° | 9km/h | 22457m | 4.5m/s | -51.6°C | 1.2% | 39.9hPa | 0V | 00:00:00 | 00:00:00 | 00:00:00 | |
| GYPAP8-17 | 2026-09-03 12:24:58 | 48.72752 | 20.99230 | 326° | 5km/h | 22409m | 5.5m/s | -51.5°C | 1.2% | 40.2hPa | 0V | 00:00:00 | 00:00:00 | 00:00:00 | |
| SP9KGR-15 | 2026-09-03 12:24:56 | 48.72749 | 20.99234 | 313° | 11km/h | 22399m | 4.4m/s | -51.3°C | 1.2% | 40.3hPa | 0V | 00:00:00 | 00:00:00 | 00:00:00 | |
| SQ9EZE-13 | 2026-09-03 12:24:51 | 48.72747 | 20.99251 | 223° | 13km/h | 22375m | 4.7m/s | -51.2°C | 1.2% | 40.4hPa | 0V | 00:00:00 | 00:00:00 | 00:00:00 | |
| SP9KGR-15 | 2026-09-03 12:24:41 | 48.72754 | 20.99271 | 273° | 13km/h | 22330m | 4.6m/s | -51.3°C | 1.2% | 40.6hPa | 0V | 00:00:00 | 00:00:00 | 00:00:00 | |
| SQ9EZE-13 | 2026-09-03 12:24:29 | 48.72779 | 20.99321 | 274° | 11km/h | 22277m | 5.1m/s | -51.6°C | 1.2% | 41.0hPa | 0V | 00:00:00 | 00:00:00 | 00:00:00 | |
| SP9KGR-15 | 2026-09-03 12:24:25 | 48.72775 | 20.99341 | 291° | 13km/h | 22259m | 4.5m/s | -51.7°C | 1.2% | 41.1hPa | 0V | 00:00:00 | 00:00:00 | 00:00:00 | |
| SP9KGR-15 | 2026-09-03 12:24:10 | 48.72789 | 20.99391 | 198° | 2km/h | 22194m | 4.7m/s | -52.3°C | 1.2% | 41.5hPa | 0V | 00:00:00 | 00:00:00 | 00:00:00 | |
| GYPAP8-17 | 2026-09-03 12:23:56 | 48.72827 | 20.99376 | 115° | 15km/h | 22129m | 4.7m/s | -52.8°C | 1.2% | 41.9hPa | 0V | 00:00:00 | 00:00:00 | 00:00:00 | |
| SP9KGR-15 | 2026-09-03 12:23:54 | 48.72831 | 20.99368 | 131° | 11km/h | 22121m | 3.7m/s | -52.8°C | 1.2% | 42.0hPa | 0V | 00:00:00 | 00:00:00 | 00:00:00 | |
| SP9KGR-15 | 2026-09-03 12:23:39 | 48.72871 | 20.99330 | 193° | 5km/h | 22050m | 4.4m/s | -52.9°C | 1.2% | 42.4hPa | 0V | 00:00:00 | 00:00:00 | 00:00:00 | |
| SQ9EZE-13 | 2026-09-03 12:23:33 | 48.72885 | 20.99331 | 169° | 16km/h | 22028m | 4.4m/s | -53.0°C | 1.3% | 42.6hPa | 0V | 00:00:00 | 00:00:00 | 00:00:00 | |
| SP9KGR-15 | 2026-09-03 12:23:22 | 48.72908 | 20.99289 | 151° | 13km/h | 21977m | 4.5m/s | -53.8°C | 1.3% | 42.9hPa | 0V | 00:00:00 | 00:00:00 | 00:00:00 | |
| SP9KGR-15 | 2026-09-03 12:23:07 | 48.72955 | 20.99222 | 107° | 9km/h | 21907m | 5.0m/s | -53.7°C | 1.3% | 43.4hPa | 0V | 00:00:00 | 00:00:00 | 00:00:00 | |
| GYPAP8-17 | 2026-09-03 12:22:53 | 48.72970 | 20.99178 | 66° | 13km/h | 21839m | 4.4m/s | -53.8°C | 1.3% | 43.9hPa | 0V | 00:00:00 | 00:00:00 | 00:00:00 | |
| SP9KGR-15 | 2026-09-03 12:22:51 | 48.72969 | 20.99173 | 83° | 13km/h | 21834m | 4.7m/s | -53.9°C | 1.3% | 43.9hPa | 0V | 00:00:00 | 00:00:00 | 00:00:00 | |
| SQ9EZE-13 | 2026-09-03 12:22:49 | 48.72971 | 20.99159 | 113° | 13km/h | 21820m | 4.2m/s | -54.0°C | 1.3% | 44.0hPa | 0V | 00:00:00 | 00:00:00 | 00:00:00 | |
| SQ9EZE-14 | 2026-09-03 12:22:46 | 48.72974 | 20.99147 | 110° | 9km/h | 21806m | 3.5m/s | -54.2°C | 1.4% | 44.1hPa | 0V | 00:00:00 | 00:00:00 | 00:00:00 | |
| SP9KGR-15 | 2026-09-03 12:22:36 | 48.72966 | 20.99139 | 327° | 9km/h | 21764m | 4.6m/s | -54.4°C | 1.4% | 44.4hPa | 0V | 00:00:00 | 00:00:00 | 00:00:00 | |
| SP9SOS | 2026-09-03 12:22:34 | 48.72963 | 20.99142 | 2° | 4km/h | 21755m | 4.0m/s | -54.4°C | 1.4% | 44.5hPa | 0V | 00:00:00 | 00:00:00 | 00:00:00 | |
| SQ9EZE-13 | 2026-09-03 12:22:32 | 48.72963 | 20.99139 | 108° | 9km/h | 21745m | 5.3m/s | -54.4°C | 1.4% | 44.5hPa | 0V | 00:00:00 | 00:00:00 | 00:00:00 | |
| SQ9EZE-14 | 2026-09-03 12:22:30 | 48.72966 | 20.99130 | 121° | 15km/h | 21736m | 5.1m/s | -54.3°C | 1.3% | 44.6hPa | 0V | 00:00:00 | 00:00:00 | 00:00:00 | |
| SP9KGR-15 | 2026-09-03 12:22:20 | 48.72969 | 20.99121 | 334° | 5km/h | 21690m | 4.7m/s | -54.4°C | 1.4% | 44.9hPa | 0V | 00:00:00 | 00:00:00 | 00:00:00 | |
| SQ9EZE-13 | 2026-09-03 12:22:17 | 48.72971 | 20.99110 | 130° | 16km/h | 21672m | 4.6m/s | -54.7°C | 1.3% | 45.0hPa | 0V | 00:00:00 | 00:00:00 | 00:00:00 | |
| SQ9EZE-14 | 2026-09-03 12:22:15 | 48.72976 | 20.99102 | 142° | 13km/h | 21662m | 4.9m/s | -54.9°C | 1.4% | 45.1hPa | 0V | 00:00:00 | 00:00:00 | 00:00:00 | |
| SP9KGR-15 | 2026-09-03 12:22:05 | 48.72979 | 20.99089 | 93° | 13km/h | 21616m | 5.6m/s | -55.2°C | 1.4% | 45.4hPa | 0V | 00:00:00 | 00:00:00 | 00:00:00 | |
| SP9SOS | 2026-09-03 12:22:02 | 48.72981 | 20.99070 | 105° | 18km/h | 21601m | 6.0m/s | -55.3°C | 1.4% | 45.5hPa | 0V | 00:00:00 | 00:00:00 | 00:00:00 | |
| SQ9EZE-13 | 2026-09-03 12:21:55 | 48.72989 | 20.99036 | 112° | 11km/h | 21571m | 6.1m/s | -55.1°C | 1.5% | 45.8hPa | 0V | 00:00:00 | 00:00:00 | 00:00:00 | |
| GYPAP8-17 | 2026-09-03 12:21:49 | 48.72986 | 20.99012 | 84° | 9km/h | 21538m | 4.8m/s | -54.9°C | 1.4% | 46.0hPa | 0V | 00:00:00 | 00:00:00 | 00:00:00 | |
| SQ9EZE-13 | 2026-09-03 12:21:40 | 48.72995 | 20.98982 | 131° | 13km/h | 21500m | 5.0m/s | -54.7°C | 1.4% | 46.3hPa | 0V | 00:00:00 | 00:00:00 | 00:00:00 | |
| SP9SOS | 2026-09-03 12:21:35 | 48.73003 | 20.98960 | 120° | 9km/h | 21476m | 4.4m/s | -54.5°C | 1.4% | 46.4hPa | 0V | 00:00:00 | 00:00:00 | 00:00:00 | |
| SP9KGR-15 | 2026-09-03 12:21:34 | 48.73005 | 20.98953 | 114° | 11km/h | 21468m | 4.9m/s | -54.6°C | 1.4% | 46.5hPa | 0V | 00:00:00 | 00:00:00 | 00:00:00 | |
| SQ9EZE-13 | 2026-09-03 12:21:24 | 48.73021 | 20.98908 | 128° | 20km/h | 21423m | 4.5m/s | -54.5°C | 1.4% | 46.8hPa | 0V | 00:00:00 | 00:00:00 | 00:00:00 | |
| SP9KGR-15 | 2026-09-03 12:21:19 | 48.73043 | 20.98881 | 150° | 24km/h | 21394m | 5.3m/s | -54.4°C | 1.4% | 47.0hPa | 0V | 00:00:00 | 00:00:00 | 00:00:00 | |
| SP9SOS | 2026-09-03 12:21:06 | 48.73096 | 20.98813 | 131° | 15km/h | 21338m | 4.2m/s | -54.1°C | 1.3% | 47.5hPa | 0V | 00:00:00 | 00:00:00 | 00:00:00 | |
| SQ9EZE-13 | 2026-09-03 12:21:05 | 48.73101 | 20.98805 | 139° | 18km/h | 21328m | 5.2m/s | -54.1°C | 1.3% | 47.5hPa | 0V | 00:00:00 | 00:00:00 | 00:00:00 | |
| SP9KGR-15 | 2026-09-03 12:21:02 | 48.73110 | 20.98794 | 143° | 26km/h | 21319m | 4.4m/s | -54.1°C | 1.3% | 47.6hPa | 0V | 00:00:00 | 00:00:00 | 00:00:00 | |
| SQ9EZE-13 | 2026-09-03 12:20:48 | 48.73140 | 20.98689 | 102° | 20km/h | 21252m | 5.3m/s | -53.9°C | 1.4% | 48.1hPa | 0V | 00:00:00 | 00:00:00 | 00:00:00 | |
| SP9KGR-15 | 2026-09-03 12:20:47 | 48.73141 | 20.98682 | 114° | 20km/h | 21247m | 5.8m/s | -53.9°C | 1.4% | 48.1hPa | 0V | 00:00:00 | 00:00:00 | 00:00:00 | |
| SP9SOS | 2026-09-03 12:20:41 | 48.73163 | 20.98612 | 108° | 27km/h | 21212m | 5.4m/s | -53.7°C | 1.4% | 48.4hPa | 0V | 00:00:00 | 00:00:00 | 00:00:00 | |
| GYPAP8-17 | 2026-09-03 12:20:34 | 48.73166 | 20.98551 | 100° | 26km/h | 21183m | 5.9m/s | -53.6°C | 1.4% | 48.6hPa | 0V | 00:00:00 | 00:00:00 | 00:00:00 | |
| SP9KGR-15 | 2026-09-03 12:20:32 | 48.73169 | 20.98532 | 104° | 27km/h | 21174m | 3.7m/s | -53.5°C | 1.3% | 48.7hPa | 0V | 00:00:00 | 00:00:00 | 00:00:00 | |
| SP9KGR-15 | 2026-09-03 12:20:16 | 48.73174 | 20.98372 | 76° | 22km/h | 21097m | 4.0m/s | -53.1°C | 1.3% | 49.3hPa | 0V | 00:00:00 | 00:00:00 | 00:00:00 | |
| SP9SOS | 2026-09-03 12:20:15 | 48.73173 | 20.98364 | 80° | 20km/h | 21093m | 5.1m/s | -53.0°C | 1.4% | 49.3hPa | 0V | 00:00:00 | 00:00:00 | 00:00:00 | |
| SQ9EZE-13 | 2026-09-03 12:20:14 | 48.73173 | 20.98349 | 99° | 22km/h | 21085m | 3.5m/s | -53.0°C | 1.3% | 49.4hPa | 0V | 00:00:00 | 00:00:00 | 00:00:00 | |
| SP9KGR-15 | 2026-09-03 12:20:00 | 48.73175 | 20.98236 | 68° | 26km/h | 21022m | 5.6m/s | -52.8°C | 1.3% | 49.9hPa | 0V | 00:00:00 | 00:00:00 | 00:00:00 | |
| SP9SOS | 2026-09-03 12:19:49 | 48.73164 | 20.98134 | 76° | 22km/h | 20969m | 4.8m/s | -52.5°C | 1.3% | 50.3hPa | 0V | 00:00:00 | 00:00:00 | 00:00:00 | |
| SP9KGR-15 | 2026-09-03 12:19:45 | 48.73153 | 20.98094 | 71° | 26km/h | 20946m | 4.8m/s | -52.6°C | 1.3% | 50.5hPa | 0V | 00:00:00 | 00:00:00 | 00:00:00 | |
| SQ9EZE-14 | 2026-09-03 12:19:37 | 48.73154 | 20.98039 | 125° | 16km/h | 20912m | 5.2m/s | -52.7°C | 1.3% | 50.7hPa | 0V | 00:00:00 | 00:00:00 | 00:00:00 | |
| SP9KGR-15 | 2026-09-03 12:19:29 | 48.73164 | 20.97965 | 90° | 29km/h | 20871m | 3.2m/s | -53.0°C | 1.3% | 51.0hPa | 0V | 00:00:00 | 00:00:00 | 00:00:00 | |
| SP9SOS | 2026-09-03 12:19:23 | 48.73165 | 20.97927 | 121° | 15km/h | 20847m | 4.8m/s | -52.9°C | 1.3% | 51.2hPa | 0V | 00:00:00 | 00:00:00 | 00:00:00 | |
| SQ9EZE-14 | 2026-09-03 12:19:21 | 48.73169 | 20.97917 | 114° | 16km/h | 20840m | 3.1m/s | -52.9°C | 1.3% | 51.3hPa | 0V | 00:00:00 | 00:00:00 | 00:00:00 | |
| SP9KGR-15 | 2026-09-03 12:19:12 | 48.73167 | 20.97844 | 100° | 11km/h | 20795m | 6.0m/s | -53.1°C | 1.3% | 51.6hPa | 0V | 00:00:00 | 00:00:00 | 00:00:00 | |
| SQ9EZE-13 | 2026-09-03 12:19:10 | 48.73170 | 20.97838 | 158° | 5km/h | 20781m | 5.2m/s | -53.1°C | 1.4% | 51.8hPa | 0V | 00:00:00 | 00:00:00 | 00:00:00 | |
| SQ9EZE-14 | 2026-09-03 12:19:05 | 48.73171 | 20.97825 | 76° | 18km/h | 20762m | 4.2m/s | -53.3°C | 1.4% | 51.9hPa | 0V | 00:00:00 | 00:00:00 | 00:00:00 | |
| SP9KGR-15 | 2026-09-03 12:18:57 | 48.73166 | 20.97750 | 118° | 13km/h | 20719m | 5.4m/s | -53.1°C | 1.3% | 52.3hPa | 0V | 00:00:00 | 00:00:00 | 00:00:00 | |
| SQ9EZE-14 | 2026-09-03 12:18:50 | 48.73173 | 20.97723 | 97° | 16km/h | 20687m | 5.4m/s | -53.1°C | 1.3% | 52.5hPa | 0V | 00:00:00 | 00:00:00 | 00:00:00 | |
| SP9KGR-15 | 2026-09-03 12:18:41 | 48.73183 | 20.97661 | 109° | 18km/h | 20649m | 4.6m/s | -53.0°C | 1.3% | 52.8hPa | 0V | 00:00:00 | 00:00:00 | 00:00:00 | |
| SQ9EZE-14 | 2026-09-03 12:18:33 | 48.73188 | 20.97603 | 100° | 24km/h | 20611m | 5.6m/s | -53.2°C | 1.3% | 53.2hPa | 0V | 00:00:00 | 00:00:00 | 00:00:00 | |
| SP9SOS | 2026-09-03 12:18:32 | 48.73189 | 20.97594 | 98° | 24km/h | 20606m | 5.2m/s | -53.4°C | 1.3% | 53.2hPa | 0V | 00:00:00 | 00:00:00 | 00:00:00 | |
| GYPAP8-17 | 2026-09-03 12:18:29 | 48.73196 | 20.97562 | 119° | 24km/h | 20588m | 4.4m/s | -53.6°C | 1.4% | 53.4hPa | 0V | 00:00:00 | 00:00:00 | 00:00:00 | |
| SP9KGR-15 | 2026-09-03 12:18:26 | 48.73203 | 20.97536 | 103° | 26km/h | 20574m | 4.8m/s | -53.6°C | 1.4% | 53.5hPa | 0V | 00:00:00 | 00:00:00 | 00:00:00 | |
| SQ9EZE-14 | 2026-09-03 12:18:18 | 48.73206 | 20.97454 | 92° | 20km/h | 20536m | 3.9m/s | -53.8°C | 1.3% | 53.8hPa | 0V | 00:00:00 | 00:00:00 | 00:00:00 | |
| SP9KGR-15 | 2026-09-03 12:18:10 | 48.73210 | 20.97403 | 78° | 24km/h | 20503m | 4.7m/s | -53.6°C | 1.4% | 54.1hPa | 0V | 00:00:00 | 00:00:00 | 00:00:00 | |
| SP9SOS | 2026-09-03 12:18:07 | 48.73201 | 20.97362 | 66° | 31km/h | 20484m | 5.2m/s | -53.5°C | 1.4% | 54.2hPa | 0V | 00:00:00 | 00:00:00 | 00:00:00 | |
| SQ9EZE-13 | 2026-09-03 12:18:04 | 48.73191 | 20.97331 | 65° | 27km/h | 20471m | 5.2m/s | -53.6°C | 1.3% | 54.3hPa | 0V | 00:00:00 | 00:00:00 | 00:00:00 | |
| SP9KGR-15 | 2026-09-03 12:17:54 | 48.73184 | 20.97285 | 69° | 18km/h | 20429m | 5.0m/s | -53.5°C | 1.4% | 54.7hPa | 0V | 00:00:00 | 00:00:00 | 00:00:00 | |
| SP9SOS | 2026-09-03 12:17:40 | 48.73136 | 20.97186 | 57° | 18km/h | 20367m | 4.6m/s | -53.1°C | 1.4% | 55.2hPa | 0V | 00:00:00 | 00:00:00 | 00:00:00 | |
| SP9KGR-15 | 2026-09-03 12:17:39 | 48.73133 | 20.97180 | 54° | 22km/h | 20362m | 5.0m/s | -53.0°C | 1.4% | 55.3hPa | 0V | 00:00:00 | 00:00:00 | 00:00:00 | |
| SP9KGR-15 | 2026-09-03 12:17:24 | 48.73081 | 20.97105 | 59° | 18km/h | 20287m | 4.6m/s | -52.5°C | 1.3% | 55.9hPa | 0V | 00:00:00 | 00:00:00 | 00:00:00 | |
| GYPAP8-17 | 2026-09-03 12:17:23 | 48.73081 | 20.97105 | 59° | 18km/h | 20287m | 4.6m/s | -52.5°C | 1.3% | 55.9hPa | 0V | 00:00:00 | 00:00:00 | 00:00:00 | |
| SP9SOS | 2026-09-03 12:17:15 | 48.73048 | 20.97079 | 18° | 11km/h | 20251m | 4.9m/s | -52.2°C | 1.3% | 56.2hPa | 0V | 00:00:00 | 00:00:00 | 00:00:00 | |
| SQ9EZE-13 | 2026-09-03 12:17:13 | 48.73045 | 20.97076 | 34° | 7km/h | 20242m | 4.4m/s | -52.1°C | 1.3% | 56.3hPa | 0V | 00:00:00 | 00:00:00 | 00:00:00 | |
| SP9KGR-15 | 2026-09-03 12:17:08 | 48.73033 | 20.97067 | 17° | 13km/h | 20219m | 4.8m/s | -52.1°C | 1.3% | 56.5hPa | 0V | 00:00:00 | 00:00:00 | 00:00:00 | |
| SP9KGR-15 | 2026-09-03 12:16:52 | 48.72995 | 20.97037 | 37° | 13km/h | 20145m | 4.8m/s | -52.0°C | 1.2% | 57.2hPa | 0V | 00:00:00 | 00:00:00 | 00:00:00 | |
| SQ9EZE-13 | 2026-09-03 12:16:51 | 48.72993 | 20.97034 | 52° | 13km/h | 20140m | 5.0m/s | -52.0°C | 1.2% | 57.2hPa | 0V | 00:00:00 | 00:00:00 | 00:00:00 | |
| SP9SOS | 2026-09-03 12:16:50 | 48.72991 | 20.97030 | 66° | 13km/h | 20136m | 4.3m/s | -51.9°C | 1.2% | 57.2hPa | 0V | 00:00:00 | 00:00:00 | 00:00:00 | |
| SP9KGR-15 | 2026-09-03 12:16:36 | 48.72988 | 20.96999 | 89° | 22km/h | 20067m | 4.4m/s | -52.1°C | 1.3% | 57.9hPa | 0V | 00:00:00 | 00:00:00 | 00:00:00 | |
| SQ9EZE-13 | 2026-09-03 12:16:35 | 48.72987 | 20.96991 | 86° | 20km/h | 20063m | 5.2m/s | -52.1°C | 1.3% | 57.9hPa | 0V | 00:00:00 | 00:00:00 | 00:00:00 | |
| GYPAP8-17 | 2026-09-03 12:16:21 | 48.72998 | 20.96925 | 103° | 16km/h | 19992m | 3.9m/s | -52.0°C | 1.3% | 58.5hPa | 0V | 00:00:00 | 00:00:00 | 00:00:00 | |
| SQ9EZE-14 | 2026-09-03 12:16:10 | 48.73010 | 20.96887 | 110° | 24km/h | 19944m | 4.1m/s | -52.2°C | 1.3% | 59.0hPa | 0V | 00:00:00 | 00:00:00 | 00:00:00 | |
| SQ9EZE-13 | 2026-09-03 12:16:07 | 48.73014 | 20.96860 | 95° | 22km/h | 19930m | 4.2m/s | -52.3°C | 1.3% | 59.1hPa | 0V | 00:00:00 | 00:00:00 | 00:00:00 | |
| SP9KGR-15 | 2026-09-03 12:16:06 | 48.73015 | 20.96846 | 105° | 16km/h | 19920m | 5.5m/s | -52.3°C | 1.3% | 59.2hPa | 0V | 00:00:00 | 00:00:00 | 00:00:00 | |
| SP9SOS | 2026-09-03 12:15:59 | 48.73024 | 20.96810 | 113° | 20km/h | 19884m | 6.5m/s | -52.3°C | 1.3% | 59.5hPa | 0V | 00:00:00 | 00:00:00 | 00:00:00 | |
| SP9KGR-15 | 2026-09-03 12:15:51 | 48.73031 | 20.96732 | 97° | 22km/h | 19843m | 4.4m/s | -52.5°C | 1.3% | 59.9hPa | 0V | 00:00:00 | 00:00:00 | 00:00:00 | |
| SQ9EZE-13 | 2026-09-03 12:15:48 | 48.73031 | 20.96716 | 88° | 18km/h | 19833m | 3.6m/s | -52.6°C | 1.3% | 60.0hPa | 0V | 00:00:00 | 00:00:00 | 00:00:00 | |
| SP9KGR-15 | 2026-09-03 12:15:34 | 48.73029 | 20.96574 | 71° | 27km/h | 19766m | 3.8m/s | -52.5°C | 1.4% | 60.6hPa | 0V | 00:00:00 | 00:00:00 | 00:00:00 | |
| SP9SOS | 2026-09-03 12:15:33 | 48.73027 | 20.96565 | 76° | 26km/h | 19762m | 5.0m/s | -52.5°C | 1.4% | 60.6hPa | 0V | 00:00:00 | 00:00:00 | 00:00:00 | |
| SQ9EZE-13 | 2026-09-03 12:15:31 | 48.73025 | 20.96547 | 90° | 24km/h | 19751m | 4.5m/s | -52.5°C | 1.3% | 60.8hPa | 0V | 00:00:00 | 00:00:00 | 00:00:00 | |
| SP9KGR-15 | 2026-09-03 12:15:19 | 48.73021 | 20.96428 | 94° | 13km/h | 19689m | 3.9m/s | -52.0°C | 1.3% | 61.3hPa | 0V | 00:00:00 | 00:00:00 | 00:00:00 | |
| GYPAP8-17 | 2026-09-03 12:15:17 | 48.73021 | 20.96418 | 85° | 15km/h | 19679m | 4.7m/s | -52.0°C | 1.3% | 61.4hPa | 0V | 00:00:00 | 00:00:00 | 00:00:00 | |
| SP9SOS | 2026-09-03 12:15:07 | 48.73022 | 20.96352 | 92° | 18km/h | 19636m | 5.3m/s | -51.7°C | 1.3% | 61.9hPa | 0V | 00:00:00 | 00:00:00 | 00:00:00 | |
| SP9KGR-15 | 2026-09-03 12:15:04 | 48.73021 | 20.96334 | 83° | 7km/h | 19617m | 4.1m/s | -51.5°C | 1.2% | 62.0hPa | 0V | 00:00:00 | 00:00:00 | 00:00:00 | |
| SP9KGR-15 | 2026-09-03 12:14:48 | 48.73042 | 20.96258 | 117° | 5km/h | 19545m | 4.8m/s | -51.7°C | 1.3% | 62.7hPa | 0V | 00:00:00 | 00:00:00 | 00:00:00 | |
| SP9SOS | 2026-09-03 12:14:42 | 48.73053 | 20.96235 | 127° | 24km/h | 19518m | 6.0m/s | -51.7°C | 1.3% | 63.0hPa | 0V | 00:00:00 | 00:00:00 | 00:00:00 | |
| SP9KGR-15 | 2026-09-03 12:14:33 | 48.73086 | 20.96168 | 138° | 18km/h | 19475m | 4.4m/s | -51.6°C | 1.3% | 63.4hPa | 0V | 00:00:00 | 00:00:00 | 00:00:00 | |
| SQ9EZE-13 | 2026-09-03 12:14:18 | 48.73124 | 20.96027 | 107° | 26km/h | 19403m | 4.2m/s | -51.3°C | 1.2% | 64.1hPa | 0V | 00:00:00 | 00:00:00 | 00:00:00 | |
| SP9SOS | 2026-09-03 12:14:17 | 48.73126 | 20.96018 | 104° | 26km/h | 19399m | 4.0m/s | -51.4°C | 1.2% | 64.2hPa | 0V | 00:00:00 | 00:00:00 | 00:00:00 | |
| GYPAP8-17 | 2026-09-03 12:14:14 | 48.73129 | 20.95998 | 100° | 27km/h | 19390m | 4.3m/s | -51.3°C | 1.2% | 64.2hPa | 0V | 00:00:00 | 00:00:00 | 00:00:00 | |
| SQ9EZE-14 | 2026-09-03 12:14:01 | 48.73149 | 20.95840 | 98° | 37km/h | 19327m | 5.0m/s | -51.7°C | 1.3% | 64.9hPa | 0V | 00:00:00 | 00:00:00 | 00:00:00 | |
| SQ9EZE-13 | 2026-09-03 12:14:00 | 48.73150 | 20.95826 | 98° | 38km/h | 19323m | 3.3m/s | -51.8°C | 1.3% | 64.9hPa | 0V | 00:00:00 | 00:00:00 | 00:00:00 | |
| SP9SOS | 2026-09-03 12:13:51 | 48.73141 | 20.95710 | 83° | 35km/h | 19283m | 3.7m/s | -52.1°C | 1.3% | 65.3hPa | 0V | 00:00:00 | 00:00:00 | 00:00:00 | |
| SP9KGR-15 | 2026-09-03 12:13:47 | 48.73138 | 20.95653 | 92° | 38km/h | 19264m | 5.4m/s | -52.3°C | 1.3% | 65.5hPa | 0V | 00:00:00 | 00:00:00 | 00:00:00 | |
| SQ9EZE-14 | 2026-09-03 12:13:44 | 48.73139 | 20.95625 | 90° | 33km/h | 19256m | 2.8m/s | -52.2°C | 1.3% | 65.6hPa | 0V | 00:00:00 | 00:00:00 | 00:00:00 | |
| SQ9EZE-13 | 2026-09-03 12:13:43 | 48.73138 | 20.95613 | 80° | 31km/h | 19252m | 5.3m/s | -52.3°C | 1.3% | 65.6hPa | 0V | 00:00:00 | 00:00:00 | 00:00:00 | |
| SP9KGR-15 | 2026-09-03 12:13:30 | 48.73127 | 20.95487 | 87° | 27km/h | 19184m | 4.8m/s | -52.0°C | 1.3% | 66.3hPa | 0V | 00:00:00 | 00:00:00 | 00:00:00 | |
| SQ9EZE-13 | 2026-09-03 12:13:27 | 48.73124 | 20.95463 | 78° | 16km/h | 19169m | 2.6m/s | -52.0°C | 1.3% | 66.5hPa | 0V | 00:00:00 | 00:00:00 | 00:00:00 | |
| SP9SOS | 2026-09-03 12:13:24 | 48.73121 | 20.95447 | 71° | 15km/h | 19154m | 6.5m/s | -52.0°C | 1.3% | 66.6hPa | 0V | 00:00:00 | 00:00:00 | 00:00:00 | |
| SP9KGR-15 | 2026-09-03 12:13:15 | 48.73136 | 20.95379 | 117° | 27km/h | 19106m | 3.2m/s | -51.8°C | 1.3% | 67.1hPa | 0V | 00:00:00 | 00:00:00 | 00:00:00 | |
| SQ9EZE-13 | 2026-09-03 12:13:12 | 48.73140 | 20.95350 | 64° | 13km/h | 19084m | 3.5m/s | -51.9°C | 1.2% | 67.4hPa | 0V | 00:00:00 | 00:00:00 | 00:00:00 | |
| GYPAP8-17 | 2026-09-03 12:13:02 | 48.73161 | 20.95282 | 129° | 35km/h | 19040m | 3.9m/s | -52.2°C | 1.3% | 67.8hPa | 0V | 00:00:00 | 00:00:00 | 00:00:00 | |
| SP9KGR-15 | 2026-09-03 12:13:00 | 48.73170 | 20.95262 | 123° | 31km/h | 19032m | 5.2m/s | -52.5°C | 1.3% | 67.9hPa | 0V | 00:00:00 | 00:00:00 | 00:00:00 | |
| SP9SOS | 2026-09-03 12:12:58 | 48.73177 | 20.95242 | 109° | 29km/h | 19019m | 5.7m/s | -52.8°C | 1.3% | 68.0hPa | 0V | 00:00:00 | 00:00:00 | 00:00:00 | |
| SQ9EZE-13 | 2026-09-03 12:12:56 | 48.73184 | 20.95214 | 121° | 24km/h | 19005m | 4.7m/s | -52.9°C | 1.4% | 68.2hPa | 0V | 00:00:00 | 00:00:00 | 00:00:00 | |
| SP9KGR-15 | 2026-09-03 12:12:44 | 48.73228 | 20.95083 | 106° | 37km/h | 18956m | 4.6m/s | -53.1°C | 1.4% | 68.7hPa | 0V | 00:00:00 | 00:00:00 | 00:00:00 | |
| SQ9EZE-13 | 2026-09-03 12:12:40 | 48.73246 | 20.95024 | 119° | 31km/h | 18932m | 5.6m/s | -53.3°C | 1.4% | 69.0hPa | 0V | 00:00:00 | 00:00:00 | 00:00:00 | |
| SP9SOS | 2026-09-03 12:12:33 | 48.73269 | 20.94943 | 101° | 40km/h | 18907m | 6.7m/s | -53.4°C | 1.4% | 69.2hPa | 0V | 00:00:00 | 00:00:00 | 00:00:00 | |
| SQ9EZE-13 | 2026-09-03 12:12:23 | 48.73290 | 20.94824 | 120° | 37km/h | 18861m | 2.1m/s | -53.2°C | 1.4% | 69.7hPa | 0V | 00:00:00 | 00:00:00 | 00:00:00 | |
| SP9KGR-15 | 2026-09-03 12:12:14 | 48.73300 | 20.94725 | 99° | 20km/h | 18821m | 5.3m/s | -53.4°C | 1.4% | 70.2hPa | 0V | 00:00:00 | 00:00:00 | 00:00:00 | |
| SQ9EZE-13 | 2026-09-03 12:12:08 | 48.73310 | 20.94682 | 116° | 31km/h | 18793m | 4.7m/s | -53.4°C | 1.4% | 70.5hPa | 0V | 00:00:00 | 00:00:00 | 00:00:00 | |
| GYPAP8-17 | 2026-09-03 12:12:00 | 48.73343 | 20.94596 | 127° | 20km/h | 18744m | 3.9m/s | -53.3°C | 1.4% | 71.0hPa | 0V | 00:00:00 | 00:00:00 | 00:00:00 | |
| SP9KGR-15 | 2026-09-03 12:11:58 | 48.73349 | 20.94586 | 132° | 18km/h | 18736m | 3.8m/s | -53.2°C | 1.4% | 71.1hPa | 0V | 00:00:00 | 00:00:00 | 00:00:00 | |
| SQ9EZE-13 | 2026-09-03 12:11:52 | 48.73376 | 20.94543 | 140° | 35km/h | 18704m | 2.6m/s | -53.2°C | 1.4% | 71.5hPa | 0V | 00:00:00 | 00:00:00 | 00:00:00 | |
| SP9KGR-15 | 2026-09-03 12:11:43 | 48.73427 | 20.94460 | 138° | 31km/h | 18656m | 6.2m/s | -53.3°C | 1.4% | 71.9hPa | 0V | 00:00:00 | 00:00:00 | 00:00:00 | |
| SP9SOS | 2026-09-03 12:11:41 | 48.73432 | 20.94452 | 137° | 33km/h | 18649m | 5.6m/s | -53.2°C | 1.4% | 72.0hPa | 0V | 00:00:00 | 00:00:00 | 00:00:00 | |
| SQ9EZE-14 | 2026-09-03 12:11:29 | 48.73512 | 20.94333 | 129° | 31km/h | 18587m | 4.7m/s | -53.0°C | 1.4% | 72.7hPa | 0V | 00:00:00 | 00:00:00 | 00:00:00 | |
| SP9KGR-15 | 2026-09-03 12:11:27 | 48.73517 | 20.94324 | 131° | 31km/h | 18583m | 4.4m/s | -53.0°C | 1.4% | 72.8hPa | 0V | 00:00:00 | 00:00:00 | 00:00:00 | |
| SP9SOS | 2026-09-03 12:11:16 | 48.73575 | 20.94233 | 145° | 24km/h | 18529m | 5.7m/s | -53.1°C | 1.4% | 73.4hPa | 0V | 00:00:00 | 00:00:00 | 00:00:00 | |
| SP9KGR-15 | 2026-09-03 12:11:11 | 48.73597 | 20.94200 | 123° | 22km/h | 18505m | 4.9m/s | -53.2°C | 1.4% | 73.7hPa | 0V | 00:00:00 | 00:00:00 | 00:00:00 | |
| GYPAP8-17 | 2026-09-03 12:10:57 | 48.73628 | 20.94075 | 111° | 29km/h | 18430m | 5.4m/s | -53.3°C | 1.5% | 74.5hPa | 0V | 00:00:00 | 00:00:00 | 00:00:00 | |
| SP9KGR-15 | 2026-09-03 12:10:55 | 48.73631 | 20.94064 | 113° | 33km/h | 18426m | 3.4m/s | -53.3°C | 1.4% | 74.6hPa | 0V | 00:00:00 | 00:00:00 | 00:00:00 | |
| SQ9EZE-13 | 2026-09-03 12:10:52 | 48.73643 | 20.94012 | 113° | 38km/h | 18409m | 5.3m/s | -53.3°C | 1.4% | 74.8hPa | 0V | 00:00:00 | 00:00:00 | 00:00:00 | |
| SP9SOS | 2026-09-03 12:10:51 | 48.73643 | 20.94012 | 113° | 38km/h | 18409m | 5.3m/s | -53.3°C | 1.4% | 74.8hPa | 0V | 00:00:00 | 00:00:00 | 00:00:00 | |
| SP9KGR-15 | 2026-09-03 12:10:40 | 48.73680 | 20.93902 | 111° | 35km/h | 18351m | 5.9m/s | -53.0°C | 1.4% | 75.4hPa | 0V | 00:00:00 | 00:00:00 | 00:00:00 | |
| SQ9EZE-13 | 2026-09-03 12:10:36 | 48.73694 | 20.93847 | 113° | 35km/h | 18332m | 7.1m/s | -53.1°C | 1.4% | 75.7hPa | 0V | 00:00:00 | 00:00:00 | 00:00:00 | |
| SP9SOS | 2026-09-03 12:10:25 | 48.73717 | 20.93723 | 102° | 49km/h | 18279m | 5.7m/s | -53.4°C | 1.4% | 76.3hPa | 0V | 00:00:00 | 00:00:00 | 00:00:00 | |
| SP9KGR-15 | 2026-09-03 12:10:24 | 48.73719 | 20.93705 | 99° | 47km/h | 18273m | 5.6m/s | -53.4°C | 1.4% | 76.3hPa | 0V | 00:00:00 | 00:00:00 | 00:00:00 | |
| SQ9EZE-13 | 2026-09-03 12:10:20 | 48.73726 | 20.93646 | 104° | 33km/h | 18254m | 4.7m/s | -53.2°C | 1.4% | 76.6hPa | 0V | 00:00:00 | 00:00:00 | 00:00:00 | |
| SP9KGR-15 | 2026-09-03 12:10:10 | 48.73730 | 20.93514 | 97° | 37km/h | 18199m | 5.9m/s | -53.0°C | 1.4% | 77.3hPa | 0V | 00:00:00 | 00:00:00 | 00:00:00 | |
| SQ9EZE-13 | 2026-09-03 12:10:05 | 48.73736 | 20.93459 | 93° | 20km/h | 18174m | 6.2m/s | -53.0°C | 1.4% | 77.6hPa | 0V | 00:00:00 | 00:00:00 | 00:00:00 | |
| SP9SOS | 2026-09-03 12:10:00 | 48.73731 | 20.93425 | 83° | 24km/h | 18154m | 5.5m/s | -52.9°C | 1.4% | 77.8hPa | 0V | 00:00:00 | 00:00:00 | 00:00:00 | |
| SP9KGR-15 | 2026-09-03 12:09:53 | 48.73738 | 20.93345 | 110° | 27km/h | 18121m | 4.1m/s | -53.0°C | 1.4% | 78.2hPa | 0V | 00:00:00 | 00:00:00 | 00:00:00 | |
| SQ9EZE-13 | 2026-09-03 12:09:49 | 48.73745 | 20.93308 | 116° | 13km/h | 18097m | 4.3m/s | -52.9°C | 1.4% | 78.5hPa | 0V | 00:00:00 | 00:00:00 | 00:00:00 | |
| GYPAP8-17 | 2026-09-03 12:09:46 | 48.73748 | 20.93291 | 95° | 20km/h | 18082m | 5.1m/s | -52.9°C | 1.4% | 78.7hPa | 0V | 00:00:00 | 00:00:00 | 00:00:00 | |
| SP9KGR-15 | 2026-09-03 12:09:38 | 48.73762 | 20.93215 | 120° | 20km/h | 18045m | 4.3m/s | -52.8°C | 1.4% | 79.1hPa | 0V | 00:00:00 | 00:00:00 | 00:00:00 | |
| SP9SOS | 2026-09-03 12:09:35 | 48.73770 | 20.93196 | 123° | 22km/h | 18032m | 4.8m/s | -52.7°C | 1.4% | 79.3hPa | 0V | 00:00:00 | 00:00:00 | 00:00:00 | |
| SQ9EZE-13 | 2026-09-03 12:09:32 | 48.73775 | 20.93179 | 108° | 27km/h | 18023m | 5.2m/s | -52.7°C | 1.4% | 79.4hPa | 0V | 00:00:00 | 00:00:00 | 00:00:00 | |
| SP9KGR-15 | 2026-09-03 12:09:21 | 48.73807 | 20.93035 | 120° | 35km/h | 17970m | 4.7m/s | -52.6°C | 1.4% | 80.0hPa | 0V | 00:00:00 | 00:00:00 | 00:00:00 | |
| SQ9EZE-13 | 2026-09-03 12:09:16 | 48.73821 | 20.92983 | 108° | 26km/h | 17946m | 4.7m/s | -52.7°C | 1.3% | 80.4hPa | 0V | 00:00:00 | 00:00:00 | 00:00:00 | |
| SP9SOS | 2026-09-03 12:09:10 | 48.73846 | 20.92893 | 120° | 49km/h | 17912m | 5.0m/s | -52.6°C | 1.3% | 80.8hPa | 0V | 00:00:00 | 00:00:00 | 00:00:00 | |
| SP9KGR-15 | 2026-09-03 12:09:06 | 48.73862 | 20.92843 | 113° | 46km/h | 17898m | 4.4m/s | -52.4°C | 1.4% | 80.9hPa | 0V | 00:00:00 | 00:00:00 | 00:00:00 | |
| SQ9EZE-13 | 2026-09-03 12:09:00 | 48.73889 | 20.92762 | 116° | 38km/h | 17868m | 5.3m/s | -52.7°C | 1.4% | 81.4hPa | 0V | 00:00:00 | 00:00:00 | 00:00:00 | |
| SQ9EZE-14 | 2026-09-03 12:08:54 | 48.73914 | 20.92672 | 112° | 42km/h | 17839m | 5.8m/s | -52.8°C | 1.4% | 81.7hPa | 0V | 00:00:00 | 00:00:00 | 00:00:00 | |
| SP9KGR-15 | 2026-09-03 12:08:50 | 48.73929 | 20.92614 | 114° | 38km/h | 17820m | 4.7m/s | -52.8°C | 1.4% | 82.0hPa | 0V | 00:00:00 | 00:00:00 | 00:00:00 | |
| SQ9EZE-13 | 2026-09-03 12:08:46 | 48.73949 | 20.92547 | 118° | 40km/h | 17796m | 4.2m/s | -52.7°C | 1.4% | 82.2hPa | 0V | 00:00:00 | 00:00:00 | 00:00:00 | |
| SP9SOS | 2026-09-03 12:08:44 | 48.73953 | 20.92533 | 118° | 40km/h | 17792m | 4.0m/s | -52.6°C | 1.4% | 82.3hPa | 0V | 00:00:00 | 00:00:00 | 00:00:00 | |
| GYPAP8-17 | 2026-09-03 12:08:36 | 48.73977 | 20.92414 | 100° | 31km/h | 17749m | 5.9m/s | -52.7°C | 1.4% | 82.9hPa | 0V | 00:00:00 | 00:00:00 | 00:00:00 | |
| SP9KGR-15 | 2026-09-03 12:08:34 | 48.73977 | 20.92402 | 98° | 33km/h | 17743m | 5.8m/s | -52.7°C | 1.4% | 82.9hPa | 0V | 00:00:00 | 00:00:00 | 00:00:00 | |
| SQ9EZE-13 | 2026-09-03 12:08:28 | 48.73982 | 20.92334 | 92° | 31km/h | 17714m | 5.0m/s | -52.7°C | 1.4% | 83.3hPa | 0V | 00:00:00 | 00:00:00 | 00:00:00 | |
| SP9KGR-15 | 2026-09-03 12:08:19 | 48.73978 | 20.92237 | 86° | 24km/h | 17670m | 4.4m/s | -52.7°C | 1.4% | 83.9hPa | 0V | 00:00:00 | 00:00:00 | 00:00:00 | |
| SP9SOS | 2026-09-03 12:08:18 | 48.73978 | 20.92228 | 89° | 24km/h | 17666m | 4.4m/s | -52.6°C | 1.4% | 83.9hPa | 0V | 00:00:00 | 00:00:00 | 00:00:00 | |
| SQ9EZE-13 | 2026-09-03 12:08:12 | 48.73974 | 20.92168 | 89° | 27km/h | 17638m | 5.0m/s | -52.5°C | 1.4% | 84.3hPa | 0V | 00:00:00 | 00:00:00 | 00:00:00 | |
| SP9KGR-15 | 2026-09-03 12:08:04 | 48.73984 | 20.92076 | 102° | 26km/h | 17592m | 5.8m/s | -52.5°C | 1.4% | 84.9hPa | 0V | 00:00:00 | 00:00:00 | 00:00:00 | |
| SQ9EZE-13 | 2026-09-03 12:07:57 | 48.73993 | 20.92016 | 106° | 24km/h | 17563m | 3.3m/s | -52.6°C | 1.4% | 85.3hPa | 0V | 00:00:00 | 00:00:00 | 00:00:00 | |
| SP9SOS | 2026-09-03 12:07:53 | 48.74004 | 20.91981 | 121° | 29km/h | 17544m | 5.1m/s | -52.5°C | 1.4% | 85.5hPa | 0V | 00:00:00 | 00:00:00 | 00:00:00 | |
| HA6NAB-11 | 2026-09-03 12:07:51 | 48.74014 | 20.91951 | 118° | 31km/h | 17530m | 4.8m/s | -52.6°C | 1.4% | 85.7hPa | 0V | 00:00:00 | 00:00:00 | 00:00:00 | |
| SP9KGR-15 | 2026-09-03 12:07:48 | 48.74025 | 20.91917 | 116° | 33km/h | 17514m | 4.7m/s | -52.5°C | 1.4% | 85.9hPa | 0V | 00:00:00 | 00:00:00 | 00:00:00 | |
| GYPAP8-17 | 2026-09-03 12:07:43 | 48.74042 | 20.91860 | 120° | 35km/h | 17492m | 5.3m/s | -52.6°C | 1.4% | 86.2hPa | 0V | 00:00:00 | 00:00:00 | 00:00:00 | |
| SQ9EZE-13 | 2026-09-03 12:07:42 | 48.74046 | 20.91848 | 119° | 33km/h | 17486m | 5.0m/s | -52.5°C | 1.4% | 86.3hPa | 0V | 00:00:00 | 00:00:00 | 00:00:00 | |
| HA6NAB-11 | 2026-09-03 12:07:41 | 48.74046 | 20.91848 | 119° | 33km/h | 17486m | 5.0m/s | -52.5°C | 1.4% | 86.3hPa | 0V | 00:00:00 | 00:00:00 | 00:00:00 | |
| HA6NAB-11 | 2026-09-03 12:07:35 | 48.74065 | 20.91775 | 106° | 37km/h | 17457m | 4.5m/s | -52.8°C | 1.4% | 86.7hPa | 0V | 00:00:00 | 00:00:00 | 00:00:00 | |
| SP9KGR-15 | 2026-09-03 12:07:32 | 48.74075 | 20.91736 | 115° | 38km/h | 17444m | 3.7m/s | -52.7°C | 1.4% | 86.9hPa | 0V | 00:00:00 | 00:00:00 | 00:00:00 | |
| HA6NAB-11 | 2026-09-03 12:07:30 | 48.74082 | 20.91710 | 115° | 37km/h | 17433m | 6.6m/s | -52.7°C | 1.4% | 87.0hPa | 0V | 00:00:00 | 00:00:00 | 00:00:00 | |
| SP9SOS | 2026-09-03 12:07:29 | 48.74089 | 20.91686 | 116° | 31km/h | 17422m | 6.3m/s | -52.7°C | 1.4% | 87.1hPa | 0V | 00:00:00 | 00:00:00 | 00:00:00 | |
| HA6NAB-11 | 2026-09-03 12:07:24 | 48.74102 | 20.91642 | 107° | 31km/h | 17404m | 7.1m/s | -52.8°C | 1.4% | 87.4hPa | 0V | 00:00:00 | 00:00:00 | 00:00:00 | |
| SQ9EZE-13 | 2026-09-03 12:07:22 | 48.74109 | 20.91603 | 111° | 40km/h | 17389m | 2.7m/s | -52.7°C | 1.4% | 87.6hPa | 0V | 00:00:00 | 00:00:00 | 00:00:00 | |
| HA6NAB-11 | 2026-09-03 12:07:20 | 48.74117 | 20.91573 | 113° | 42km/h | 17381m | 5.8m/s | -52.8°C | 1.4% | 87.7hPa | 0V | 00:00:00 | 00:00:00 | 00:00:00 | |
| SP9KGR-15 | 2026-09-03 12:07:17 | 48.74125 | 20.91542 | 112° | 44km/h | 17369m | 4.1m/s | -52.7°C | 1.4% | 87.9hPa | 0V | 00:00:00 | 00:00:00 | 00:00:00 | |
| HA6NAB-11 | 2026-09-03 12:07:14 | 48.74143 | 20.91485 | 117° | 40km/h | 17349m | 7.2m/s | -53.0°C | 1.4% | 88.1hPa | 0V | 00:00:00 | 00:00:00 | 00:00:00 | |
| SQ9EZE-13 | 2026-09-03 12:07:05 | 48.74160 | 20.91368 | 101° | 49km/h | 17305m | 4.8m/s | -53.2°C | 1.4% | 88.8hPa | 0V | 00:00:00 | 00:00:00 | 00:00:00 | |
| SP9SOS | 2026-09-03 12:07:03 | 48.74164 | 20.91330 | 103° | 49km/h | 17296m | 2.1m/s | -53.1°C | 0% | 88.8hPa | 0V | 00:00:00 | 00:00:00 | 00:00:00 | |
| SP9KGR-15 | 2026-09-03 12:07:01 | 48.74171 | 20.91293 | 109° | 51km/h | 17286m | 6.7m/s | -53.2°C | 1.5% | 89.0hPa | 0V | 00:00:00 | 00:00:00 | 00:00:00 | |
| GYPAP8-17 | 2026-09-03 12:06:50 | 48.74192 | 20.91144 | 92° | 38km/h | 17232m | 5.8m/s | -53.2°C | 1.5% | 89.7hPa | 0V | 00:00:00 | 00:00:00 | 00:00:00 | |
| SQ9EZE-13 | 2026-09-03 12:06:49 | 48.74192 | 20.91129 | 100° | 40km/h | 17226m | 5.0m/s | -53.2°C | 1.5% | 89.9hPa | 0V | 00:00:00 | 00:00:00 | 00:00:00 | |
| SP9KGR-15 | 2026-09-03 12:06:46 | 48.74201 | 20.91084 | 112° | 40km/h | 17213m | 5.1m/s | -53.1°C | 1.5% | 90.0hPa | 0V | 00:00:00 | 00:00:00 | 00:00:00 | |
| SP9SOS | 2026-09-03 12:06:38 | 48.74221 | 20.90964 | 96° | 33km/h | 17172m | 5.0m/s | -53.0°C | 0% | 90.6hPa | 0V | 00:00:00 | 00:00:00 | 00:00:00 | |
| SQ9EZE-13 | 2026-09-03 12:06:34 | 48.74225 | 20.90909 | 97° | 37km/h | 17151m | 3.3m/s | -52.9°C | 1.4% | 90.9hPa | 0V | 00:00:00 | 00:00:00 | 00:00:00 | |
| SP9KGR-15 | 2026-09-03 12:06:30 | 48.74229 | 20.90870 | 101° | 33km/h | 17137m | 7.0m/s | -52.9°C | 1.4% | 91.1hPa | 0V | 00:00:00 | 00:00:00 | 00:00:00 | |
| SQ9EZE-13 | 2026-09-03 12:06:18 | 48.74272 | 20.90716 | 109° | 33km/h | 17072m | 3.1m/s | -53.5°C | 1.5% | 92.1hPa | 0V | 00:00:00 | 00:00:00 | 00:00:00 | |
| SP9KGR-15 | 2026-09-03 12:06:15 | 48.74277 | 20.90693 | 111° | 31km/h | 17064m | 2.3m/s | -53.8°C | 1.6% | 92.1hPa | 0V | 00:00:00 | 00:00:00 | 00:00:00 | |
| SP9KGR-15 | 2026-09-03 12:06:00 | 48.74341 | 20.90500 | 122° | 37km/h | 16999m | 4.4m/s | -54.0°C | 1.7% | 93.1hPa | 0V | 00:00:00 | 00:00:00 | 00:00:00 | |
| GYPAP8-17 | 2026-09-03 12:05:57 | 48.74355 | 20.90461 | 117° | 40km/h | 16986m | 4.2m/s | -54.1°C | 1.6% | 93.3hPa | 0V | 00:00:00 | 00:00:00 | 00:00:00 | |
| SP9KGR-15 | 2026-09-03 12:05:45 | 48.74395 | 20.90293 | 112° | 27km/h | 16919m | 5.2m/s | -53.7°C | 1.6% | 94.3hPa | 0V | 00:00:00 | 00:00:00 | 00:00:00 | |
| SQ9EZE-13 | 2026-09-03 12:05:43 | 48.74397 | 20.90284 | 116° | 27km/h | 16914m | 4.0m/s | -53.7°C | 1.6% | 94.3hPa | 0V | 00:00:00 | 00:00:00 | 00:00:00 | |
| SP9KGR-15 | 2026-09-03 12:05:29 | 48.74447 | 20.90136 | 122° | 29km/h | 16850m | 3.3m/s | -53.7°C | 1.6% | 95.3hPa | 0V | 00:00:00 | 00:00:00 | 00:00:00 | |
| SQ9EZE-13 | 2026-09-03 12:05:28 | 48.74455 | 20.90118 | 131° | 29km/h | 16838m | 6.2m/s | -53.7°C | 1.6% | 95.4hPa | 0V | 00:00:00 | 00:00:00 | 00:00:00 | |
| SP9KGR-15 | 2026-09-03 12:05:14 | 48.74534 | 20.89967 | 120° | 35km/h | 16772m | 4.3m/s | -53.8°C | 1.6% | 96.4hPa | 0V | 00:00:00 | 00:00:00 | 00:00:00 | |
| SQ9EZE-13 | 2026-09-03 12:05:12 | 48.74542 | 20.89942 | 120° | 38km/h | 16764m | 3.7m/s | -53.8°C | 1.6% | 96.5hPa | 0V | 00:00:00 | 00:00:00 | 00:00:00 | |
| GYPAP8-17 | 2026-09-03 12:05:05 | 48.74578 | 20.89869 | 119° | 31km/h | 16732m | 4.6m/s | -53.7°C | 1.6% | 97.0hPa | 0V | 00:00:00 | 00:00:00 | 00:00:00 | |
| SP9SOS | 2026-09-03 12:04:58 | 48.74615 | 20.89759 | 117° | 49km/h | 16699m | 4.6m/s | -53.4°C | 0% | 97.5hPa | 0V | 00:00:00 | 00:00:00 | 00:00:00 | |
| SQ9EZE-13 | 2026-09-03 12:04:56 | 48.74626 | 20.89727 | 117° | 46km/h | 16692m | 3.2m/s | -53.3°C | 1.6% | 97.6hPa | 0V | 00:00:00 | 00:00:00 | 00:00:00 | |
| SP9KGR-15 | 2026-09-03 12:04:43 | 48.74697 | 20.89515 | 121° | 57km/h | 16628m | 5.9m/s | -54.1°C | 1.7% | 98.6hPa | 0V | 00:00:00 | 00:00:00 | 00:00:00 | |
| SP9SOS | 2026-09-03 12:04:32 | 48.74755 | 20.89326 | 122° | 53km/h | 16578m | 5.2m/s | -54.0°C | 0% | 99.3hPa | 0V | 00:00:00 | 00:00:00 | 00:00:00 | |
| SP9KGR-15 | 2026-09-03 12:04:27 | 48.74781 | 20.89233 | 108° | 51km/h | 16556m | 7.1m/s | -54.0°C | 1.6% | 99.7hPa | 0V | 00:00:00 | 00:00:00 | 00:00:00 | |
| SQ9EZE-14 | 2026-09-03 12:04:14 | 48.74832 | 20.89001 | 112° | 46km/h | 16494m | 6.5m/s | -53.9°C | 1.6% | 100.7hPa | 0V | 00:00:00 | 00:00:00 | 00:00:00 | |
| SP9KGR-15 | 2026-09-03 12:04:10 | 48.74842 | 20.88951 | 105° | 46km/h | 16480m | 2.9m/s | -53.8°C | 1.6% | 101.0hPa | 0V | 00:00:00 | 00:00:00 | 00:00:00 | |
| SP9SOS | 2026-09-03 12:04:05 | 48.74851 | 20.88866 | 102° | 46km/h | 16456m | 5.6m/s | -53.9°C | 0% | 101.3hPa | 0V | 00:00:00 | 00:00:00 | 00:00:00 | |
| HA6NAB-11 | 2026-09-03 12:03:55 | 48.74880 | 20.88673 | 92° | 49km/h | 16407m | 3.8m/s | -54.1°C | 1.6% | 102.1hPa | 0V | 00:00:00 | 00:00:00 | 00:00:00 | |
| HA6NAB-11 | 2026-09-03 12:03:48 | 48.74887 | 20.88538 | 97° | 44km/h | 16375m | 1.2m/s | -54.2°C | 1.6% | 102.6hPa | 0V | 00:00:00 | 00:00:00 | 00:00:00 | |
| SP9KGR-15 | 2026-09-03 12:03:39 | 48.74889 | 20.88409 | 90° | 44km/h | 16338m | 5.4m/s | -54.3°C | 1.6% | 103.2hPa | 0V | 00:00:00 | 00:00:00 | 00:00:00 | |
| HA6NAB-11 | 2026-09-03 12:03:38 | 48.74889 | 20.88393 | 91° | 42km/h | 16333m | 4.5m/s | -54.2°C | 1.7% | 103.3hPa | 0V | 00:00:00 | 00:00:00 | 00:00:00 | |
| SP9SOS | 2026-09-03 12:03:35 | 48.74890 | 20.88330 | 96° | 37km/h | 16317m | 7.0m/s | -54.2°C | 0% | 103.5hPa | 0V | 00:00:00 | 00:00:00 | 00:00:00 | |
| HA6NAB-11 | 2026-09-03 12:03:33 | 48.74892 | 20.88304 | 99° | 31km/h | 16305m | 3.4m/s | -54.1°C | 1.7% | 103.7hPa | 0V | 00:00:00 | 00:00:00 | 00:00:00 | |
| SQ9EZE-13 | 2026-09-03 12:03:26 | 48.74887 | 20.88207 | 79° | 42km/h | 16274m | 4.5m/s | -54.0°C | 1.6% | 104.2hPa | 0V | 00:00:00 | 00:00:00 | 00:00:00 | |
| SP9KGR-15 | 2026-09-03 12:03:25 | 48.74884 | 20.88191 | 79° | 42km/h | 16269m | 4.3m/s | -53.9°C | 1.6% | 104.3hPa | 0V | 00:00:00 | 00:00:00 | 00:00:00 | |
| GYPAP8-17 | 2026-09-03 12:03:19 | 48.74879 | 20.88129 | 96° | 27km/h | 16245m | 3.8m/s | -53.7°C | 1.6% | 104.7hPa | 0V | 00:00:00 | 00:00:00 | 00:00:00 | |
| SP9KGR-15 | 2026-09-03 12:03:10 | 48.74874 | 20.88006 | 82° | 35km/h | 16203m | 4.2m/s | -53.4°C | 1.7% | 105.4hPa | 0V | 00:00:00 | 00:00:00 | 00:00:00 | |
| SQ9EZE-13 | 2026-09-03 12:03:08 | 48.74872 | 20.87982 | 91° | 27km/h | 16193m | 4.6m/s | -53.3°C | 1.6% | 105.5hPa | 0V | 00:00:00 | 00:00:00 | 00:00:00 | |
| SP9KGR-15 | 2026-09-03 12:02:53 | 48.74879 | 20.87831 | 100° | 33km/h | 16132m | 4.5m/s | -52.8°C | 1.6% | 106.6hPa | 0V | 00:00:00 | 00:00:00 | 00:00:00 | |
| SQ9EZE-13 | 2026-09-03 12:02:47 | 48.74886 | 20.87775 | 95° | 26km/h | 16106m | 3.9m/s | -52.7°C | 1.6% | 107.0hPa | 0V | 00:00:00 | 00:00:00 | 00:00:00 | |
| SP9KGR-15 | 2026-09-03 12:02:38 | 48.74899 | 20.87656 | 115° | 33km/h | 16060m | 3.8m/s | -52.3°C | 1.5% | 107.7hPa | 0V | 00:00:00 | 00:00:00 | 00:00:00 | |
| SQ9EZE-13 | 2026-09-03 12:02:32 | 48.74913 | 20.87582 | 100° | 33km/h | 16035m | 3.8m/s | -52.2°C | 1.5% | 108.2hPa | 0V | 00:00:00 | 00:00:00 | 00:00:00 | |
| GYPAP8-17 | 2026-09-03 12:02:26 | 48.74917 | 20.87525 | 108° | 29km/h | 16014m | 5.3m/s | -52.2°C | 1.5% | 108.5hPa | 0V | 00:00:00 | 00:00:00 | 00:00:00 | |
| SP9KGR-15 | 2026-09-03 12:02:22 | 48.74936 | 20.87482 | 129° | 37km/h | 15997m | 5.9m/s | -52.3°C | 1.5% | 108.8hPa | 0V | 00:00:00 | 00:00:00 | 00:00:00 | |
| SQ9EZE-13 | 2026-09-03 12:02:16 | 48.74953 | 20.87416 | 94° | 29km/h | 15969m | 5.1m/s | -52.5°C | 1.5% | 109.3hPa | 0V | 00:00:00 | 00:00:00 | 00:00:00 | |
| SQ9EZE-14 | 2026-09-03 12:02:09 | 48.74984 | 20.87315 | 126° | 38km/h | 15931m | 6.3m/s | -52.7°C | 1.6% | 109.9hPa | 0V | 00:00:00 | 00:00:00 | 00:00:00 | |
| SP9KGR-15 | 2026-09-03 12:02:06 | 48.74994 | 20.87292 | 123° | 35km/h | 15918m | 6.8m/s | -52.6°C | 1.6% | 110.1hPa | 0V | 00:00:00 | 00:00:00 | 00:00:00 | |
| SQ9EZE-13 | 2026-09-03 12:02:00 | 48.75014 | 20.87214 | 115° | 46km/h | 15888m | 3.7m/s | -52.7°C | 1.6% | 110.6hPa | 0V | 00:00:00 | 00:00:00 | 00:00:00 | |
| HA6NAB-11 | 2026-09-03 12:01:55 | 48.75036 | 20.87136 | 109° | 47km/h | 15861m | 5.7m/s | -52.7°C | 1.5% | 111.1hPa | 0V | 00:00:00 | 00:00:00 | 00:00:00 | |
| SQ9EZE-14 | 2026-09-03 12:01:53 | 48.75049 | 20.87085 | 119° | 47km/h | 15846m | 4.9m/s | -52.5°C | 1.5% | 111.3hPa | 0V | 00:00:00 | 00:00:00 | 00:00:00 | |
| SP9KGR-15 | 2026-09-03 12:01:50 | 48.75062 | 20.87053 | 124° | 51km/h | 15836m | 5.3m/s | -52.4°C | 1.6% | 111.5hPa | 0V | 00:00:00 | 00:00:00 | 00:00:00 | |
| HA6NAB-11 | 2026-09-03 12:01:48 | 48.75076 | 20.87020 | 122° | 51km/h | 15826m | 5.2m/s | -52.5°C | 1.6% | 111.7hPa | 0V | 00:00:00 | 00:00:00 | 00:00:00 | |
| SQ9EZE-13 | 2026-09-03 12:01:43 | 48.75110 | 20.86932 | 121° | 55km/h | 15801m | 4.3m/s | -52.7°C | 1.6% | 112.1hPa | 0V | 00:00:00 | 00:00:00 | 00:00:00 | |
| SP9KGR-15 | 2026-09-03 12:01:35 | 48.75168 | 20.86799 | 119° | 47km/h | 15769m | 4.3m/s | -53.0°C | 1.6% | 112.7hPa | 0V | 00:00:00 | 00:00:00 | 00:00:00 | |
| GYPAP8-17 | 2026-09-03 12:01:32 | 48.75185 | 20.86747 | 116° | 55km/h | 15755m | 2.7m/s | -53.0°C | 1.6% | 113.0hPa | 0V | 00:00:00 | 00:00:00 | 00:00:00 | |
| SQ9EZE-13 | 2026-09-03 12:01:25 | 48.75221 | 20.86609 | 114° | 58km/h | 15726m | 4.9m/s | -53.1°C | 1.6% | 113.4hPa | 0V | 00:00:00 | 00:00:00 | 00:00:00 | |
| SP9KGR-15 | 2026-09-03 12:01:20 | 48.75254 | 20.86497 | 106° | 47km/h | 15699m | 5.6m/s | -53.2°C | 1.6% | 113.9hPa | 0V | 00:00:00 | 00:00:00 | 00:00:00 | |
| SQ9EZE-13 | 2026-09-03 12:01:09 | 48.75287 | 20.86328 | 111° | 47km/h | 15649m | 7.5m/s | -53.1°C | 1.6% | 114.8hPa | 0V | 00:00:00 | 00:00:00 | 00:00:00 | |
| SP9KGR-15 | 2026-09-03 12:01:04 | 48.75310 | 20.86240 | 113° | 51km/h | 15626m | 5.3m/s | -53.0°C | 1.6% | 115.2hPa | 0V | 00:00:00 | 00:00:00 | 00:00:00 | |
| SQ9EZE-13 | 2026-09-03 12:00:53 | 48.75367 | 20.86061 | 116° | 47km/h | 15571m | 5.8m/s | -53.0°C | 1.6% | 116.1hPa | 0V | 00:00:00 | 00:00:00 | 00:00:00 | |
| SP9KGR-15 | 2026-09-03 12:00:49 | 48.75392 | 20.85968 | 115° | 58km/h | 15549m | 5.5m/s | -53.1°C | 1.6% | 116.6hPa | 0V | 00:00:00 | 00:00:00 | 00:00:00 | |
| SP9KGR-15 | 2026-09-03 12:00:34 | 48.75480 | 20.85656 | 106° | 62km/h | 15481m | 4.3m/s | -53.9°C | 1.7% | 117.9hPa | 0V | 00:00:00 | 00:00:00 | 00:00:00 | |
| GYPAP8-17 | 2026-09-03 12:00:31 | 48.75496 | 20.85586 | 115° | 66km/h | 15465m | 4.8m/s | -53.7°C | 1.7% | 118.2hPa | 0V | 00:00:00 | 00:00:00 | 00:00:00 | |
| SP9KGR-15 | 2026-09-03 12:00:18 | 48.75560 | 20.85333 | 101° | 60km/h | 15413m | 4.2m/s | -53.5°C | 1.7% | 119.1hPa | 0V | 00:00:00 | 00:00:00 | 00:00:00 | |
| SP9KGR-15 | 2026-09-03 12:00:02 | 48.75634 | 20.85012 | 109° | 57km/h | 15338m | 4.8m/s | -52.9°C | 1.7% | 120.5hPa | 0V | 00:00:00 | 00:00:00 | 00:00:00 | |
| SQ9EZE-14 | 2026-09-03 11:59:50 | 48.75682 | 20.84791 | 110° | 47km/h | 15284m | 5.8m/s | -52.6°C | 1.7% | 121.5hPa | 0V | 00:00:00 | 00:00:00 | 00:00:00 | |
| SQ9EZE-13 | 2026-09-03 11:59:48 | 48.75696 | 20.84734 | 112° | 55km/h | 15270m | 4.6m/s | -52.5°C | 1.7% | 121.8hPa | 0V | 00:00:00 | 00:00:00 | 00:00:00 | |
| SP9KGR-15 | 2026-09-03 11:59:47 | 48.75696 | 20.84734 | 112° | 55km/h | 15270m | 4.6m/s | -52.5°C | 0% | 121.8hPa | 0V | 00:00:00 | 00:00:00 | 00:00:00 | |
| SQ9EZE-14 | 2026-09-03 11:59:35 | 48.75746 | 20.84525 | 110° | 49km/h | 15217m | 5.1m/s | -52.2°C | 1.6% | 122.8hPa | 0V | 00:00:00 | 00:00:00 | 00:00:00 | |
| SP9KGR-15 | 2026-09-03 11:59:31 | 48.75766 | 20.84456 | 122° | 51km/h | 15195m | 1.7m/s | 0°C | 0% | 123.2hPa | 0V | 00:00:00 | 00:00:00 | 00:00:00 | |
| GYPAP8-17 | 2026-09-03 11:59:26 | 48.75794 | 20.84372 | 113° | 47km/h | 15170m | 4.2m/s | -52.1°C | 1.7% | 123.7hPa | 0V | 00:00:00 | 00:00:00 | 00:00:00 | |
| SQ9EZE-14 | 2026-09-03 11:59:20 | 48.75828 | 20.84248 | 120° | 57km/h | 15139m | 5.5m/s | -52.1°C | 1.7% | 124.2hPa | 0V | 00:00:00 | 00:00:00 | 00:00:00 | |
| SP9KGR-15 | 2026-09-03 11:59:15 | 48.75860 | 20.84175 | 129° | 55km/h | 15120m | 4.6m/s | 0°C | 0% | 0hPa | 0V | 00:00:00 | 00:00:00 | 00:00:00 | |
| SP9KGR-15 | 2026-09-03 11:58:59 | 48.75972 | 20.83864 | 122° | 62km/h | 15036m | 5.9m/s | 0°C | 0% | 0hPa | 0V | 00:00:00 | 00:00:00 | 00:00:00 | |
| SQ9EZE-13 | 2026-09-03 11:58:57 | 48.75989 | 20.83822 | 120° | 64km/h | 15023m | 5.8m/s | -52.0°C | 1.7% | 126.6hPa | 0V | 00:00:00 | 00:00:00 | 00:00:00 | |
| HA6NAB-11 | 2026-09-03 11:58:56 | 48.75996 | 20.83801 | 117° | 64km/h | 15017m | 6.7m/s | -52.0°C | 1.7% | 126.7hPa | 0V | 00:00:00 | 00:00:00 | 00:00:00 | |
| HA6NAB-11 | 2026-09-03 11:58:51 | 48.76027 | 20.83695 | 116° | 57km/h | 14986m | 4.1m/s | -51.8°C | 1.7% | 127.3hPa | 0V | 00:00:00 | 00:00:00 | 00:00:00 | |
| HA6NAB-11 | 2026-09-03 11:58:46 | 48.76064 | 20.83582 | 119° | 60km/h | 14958m | 4.1m/s | -52.1°C | 1.7% | 127.8hPa | 0V | 00:00:00 | 00:00:00 | 00:00:00 | |
| SQ9EZE-13 | 2026-09-03 11:58:28 | 48.76171 | 20.83193 | 110° | 77km/h | 14872m | 5.7m/s | -53.1°C | 1.8% | 129.6hPa | 0V | 00:00:00 | 00:00:00 | 00:00:00 | |
| GYPAP8-17 | 2026-09-03 11:58:27 | 48.76178 | 20.83165 | 111° | 80km/h | 14866m | 5.9m/s | -53.2°C | 1.8% | 129.7hPa | 0V | 00:00:00 | 00:00:00 | 00:00:00 | |
| SQ9EZE-13 | 2026-09-03 11:58:09 | 48.76262 | 20.82771 | 108° | 62km/h | 14790m | 4.5m/s | -53.5°C | 1.9% | 131.2hPa | 0V | 00:00:00 | 00:00:00 | 00:00:00 | |
| SQ9EZE-13 | 2026-09-03 11:57:53 | 48.76345 | 20.82397 | 107° | 68km/h | 14712m | 4.1m/s | -53.6°C | 1.9% | 132.8hPa | 0V | 00:00:00 | 00:00:00 | 00:00:00 | |
| HA6NAB-11 | 2026-09-03 11:57:39 | 48.76411 | 20.82142 | 110° | 62km/h | 14650m | 5.7m/s | -53.4°C | 1.9% | 134.1hPa | 0V | 00:00:00 | 00:00:00 | 00:00:00 | |
| SQ9EZE-13 | 2026-09-03 11:57:35 | 48.76430 | 20.82059 | 113° | 51km/h | 14632m | 7.0m/s | -53.4°C | 1.9% | 134.5hPa | 0V | 00:00:00 | 00:00:00 | 00:00:00 | |
| HA6NAB-11 | 2026-09-03 11:57:34 | 48.76441 | 20.82023 | 120° | 51km/h | 14619m | 5.3m/s | -53.3°C | 1.9% | 134.8hPa | 0V | 00:00:00 | 00:00:00 | 00:00:00 | |
| SP9SOS | 2026-09-03 11:57:32 | 48.76453 | 20.81991 | 123° | 49km/h | 14608m | 5.8m/s | -53.3°C | 0% | 135.0hPa | 0V | 00:00:00 | 00:00:00 | 00:00:00 | |
| HA6NAB-11 | 2026-09-03 11:57:28 | 48.76473 | 20.81941 | 121° | 51km/h | 14595m | 6.8m/s | -53.2°C | 1.9% | 135.3hPa | 0V | 00:00:00 | 00:00:00 | 00:00:00 | |
| HA6NAB-11 | 2026-09-03 11:57:23 | 48.76506 | 20.81853 | 119° | 53km/h | 14572m | 6.3m/s | -53.0°C | 1.9% | 135.8hPa | 0V | 00:00:00 | 00:00:00 | 00:00:00 | |
| GYPAP8-17 | 2026-09-03 11:57:22 | 48.76512 | 20.81836 | 118° | 49km/h | 14567m | 4.2m/s | -53.0°C | 1.9% | 135.9hPa | 0V | 00:00:00 | 00:00:00 | 00:00:00 | |
| SQ9EZE-13 | 2026-09-03 11:57:20 | 48.76523 | 20.81802 | 117° | 47km/h | 14557m | 2.6m/s | -52.9°C | 1.9% | 136.1hPa | 0V | 00:00:00 | 00:00:00 | 00:00:00 | |
| HA6NAB-11 | 2026-09-03 11:57:17 | 48.76538 | 20.81756 | 120° | 44km/h | 14544m | 3.8m/s | -52.8°C | 1.9% | 136.4hPa | 0V | 00:00:00 | 00:00:00 | 00:00:00 | |
| SQ9EZE-14 | 2026-09-03 11:57:16 | 48.76551 | 20.81727 | 127° | 49km/h | 14533m | 3.9m/s | -52.7°C | 1.9% | 136.6hPa | 0V | 00:00:00 | 00:00:00 | 00:00:00 | |
| HA6NAB-11 | 2026-09-03 11:57:12 | 48.76583 | 20.81661 | 126° | 58km/h | 14513m | 5.0m/s | -52.6°C | 1.9% | 137.0hPa | 0V | 00:00:00 | 00:00:00 | 00:00:00 | |
| HA6NAB-11 | 2026-09-03 11:57:05 | 48.76626 | 20.81559 | 126° | 44km/h | 14486m | 4.5m/s | -52.5°C | 1.8% | 137.6hPa | 0V | 00:00:00 | 00:00:00 | 00:00:00 | |
| SQ9EZE-13 | 2026-09-03 11:57:04 | 48.76632 | 20.81546 | 129° | 44km/h | 14481m | 5.9m/s | -52.5°C | 1.8% | 137.7hPa | 0V | 00:00:00 | 00:00:00 | 00:00:00 | |
| HA6NAB-11 | 2026-09-03 11:57:01 | 48.76665 | 20.81500 | 145° | 47km/h | 14462m | 5.8m/s | -52.5°C | 1.8% | 138.1hPa | 0V | 00:00:00 | 00:00:00 | 00:00:00 | |
| HA6NAB-11 | 2026-09-03 11:56:53 | 48.76728 | 20.81394 | 125° | 60km/h | 14428m | 5.4m/s | -52.3°C | 1.9% | 138.8hPa | 0V | 00:00:00 | 00:00:00 | 00:00:00 | |
| SQ9EZE-13 | 2026-09-03 11:56:48 | 48.76779 | 20.81290 | 130° | 55km/h | 14398m | 7.7m/s | -52.1°C | 1.9% | 139.4hPa | 0V | 00:00:00 | 00:00:00 | 00:00:00 | |
| HA6NAB-11 | 2026-09-03 11:56:47 | 48.76779 | 20.81290 | 130° | 55km/h | 14398m | 7.7m/s | -52.1°C | 1.9% | 139.4hPa | 0V | 00:00:00 | 00:00:00 | 00:00:00 | |
| SP9SOS | 2026-09-03 11:56:46 | 48.76799 | 20.81256 | 135° | 64km/h | 14387m | 4.3m/s | -52.0°C | 0% | 139.7hPa | 0V | 00:00:00 | 00:00:00 | 00:00:00 | |
| HA6NAB-11 | 2026-09-03 11:56:42 | 48.76834 | 20.81202 | 136° | 66km/h | 14369m | 7.1m/s | -52.0°C | 1.8% | 140.1hPa | 0V | 00:00:00 | 00:00:00 | 00:00:00 | |
| HA6NAB-11 | 2026-09-03 11:56:36 | 48.76898 | 20.81099 | 127° | 60km/h | 14336m | 5.4m/s | -52.1°C | 1.8% | 140.8hPa | 0V | 00:00:00 | 00:00:00 | 00:00:00 | |
| HA6NAB-11 | 2026-09-03 11:56:31 | 48.76947 | 20.81005 | 136° | 69km/h | 14310m | 4.4m/s | -52.2°C | 1.9% | 141.4hPa | 0V | 00:00:00 | 00:00:00 | 00:00:00 | |
| SQ9EZE-13 | 2026-09-03 11:56:29 | 48.76985 | 20.80948 | 135° | 71km/h | 14295m | 5.4m/s | -52.2°C | 1.8% | 141.7hPa | 0V | 00:00:00 | 00:00:00 | 00:00:00 | |
| HA6NAB-11 | 2026-09-03 11:56:25 | 48.77020 | 20.80888 | 129° | 69km/h | 14280m | 3.9m/s | -52.3°C | 1.8% | 142.0hPa | 0V | 00:00:00 | 00:00:00 | 00:00:00 | |
| HA6NAB-11 | 2026-09-03 11:56:19 | 48.77080 | 20.80759 | 131° | 68km/h | 14254m | 3.3m/s | -52.1°C | 1.9% | 142.6hPa | 0V | 00:00:00 | 00:00:00 | 00:00:00 | |
| SP9SOS | 2026-09-03 11:56:18 | 48.77104 | 20.80718 | 133° | 71km/h | 14246m | 3.3m/s | 0°C | 0% | 142.7hPa | 0V | 00:00:00 | 00:00:00 | 00:00:00 | |
| GYPAP8-17 | 2026-09-03 11:56:15 | 48.77128 | 20.80676 | 131° | 73km/h | 14239m | 4.3m/s | -52.1°C | 1.9% | 142.9hPa | 0V | 00:00:00 | 00:00:00 | 00:00:00 | |
| SP9SOS | 2026-09-03 11:55:53 | 48.77386 | 20.80167 | 125° | 69km/h | 14142m | 4.3m/s | 0°C | 0% | 145.0hPa | 0V | 00:00:00 | 00:00:00 | 00:00:00 | |
| HA6NAB-11 | 2026-09-03 11:55:27 | 48.77621 | 20.79650 | 128° | 75km/h | 14029m | 6.2m/s | -51.9°C | 2.0% | 147.5hPa | 0V | 00:00:00 | 00:00:00 | 00:00:00 | |
| SP9SOS | 2026-09-03 11:55:25 | 48.77656 | 20.79559 | 124° | 78km/h | 14014m | 5.0m/s | 0°C | 0% | 147.9hPa | 0V | 00:00:00 | 00:00:00 | 00:00:00 | |
| HA6NAB-11 | 2026-09-03 11:55:23 | 48.77676 | 20.79510 | 123° | 73km/h | 14006m | 6.1m/s | -51.8°C | 2.0% | 148.1hPa | 0V | 00:00:00 | 00:00:00 | 00:00:00 | |
| SQ9EZE-13 | 2026-09-03 11:55:18 | 48.77724 | 20.79396 | 123° | 68km/h | 13978m | 2.7m/s | -51.7°C | 1.9% | 148.8hPa | 0V | 00:00:00 | 00:00:00 | 00:00:00 | |
| HA6NAB-11 | 2026-09-03 11:55:17 | 48.77724 | 20.79396 | 123° | 68km/h | 13978m | 2.7m/s | -51.7°C | 1.9% | 148.8hPa | 0V | 00:00:00 | 00:00:00 | 00:00:00 | |
| GYPAP8-17 | 2026-09-03 11:55:12 | 48.77767 | 20.79287 | 124° | 71km/h | 13958m | 1.8m/s | -51.4°C | 2.0% | 149.2hPa | 0V | 00:00:00 | 00:00:00 | 00:00:00 | |
| HA6NAB-11 | 2026-09-03 11:55:11 | 48.77777 | 20.79264 | 125° | 73km/h | 13956m | 3.8m/s | -51.4°C | 2.0% | 149.3hPa | 0V | 00:00:00 | 00:00:00 | 00:00:00 | |
| HA6NAB-11 | 2026-09-03 11:55:05 | 48.77840 | 20.79124 | 126° | 71km/h | 13927m | 5.7m/s | -51.4°C | 1.9% | 149.9hPa | 0V | 00:00:00 | 00:00:00 | 00:00:00 | |
| HA6NAB-11 | 2026-09-03 11:55:00 | 48.77892 | 20.79012 | 127° | 73km/h | 13902m | 3.7m/s | -51.4°C | 2.0% | 150.5hPa | 0V | 00:00:00 | 00:00:00 | 00:00:00 | |
| SQ9EZE-13 | 2026-09-03 11:54:58 | 48.77924 | 20.78943 | 125° | 75km/h | 13890m | 4.7m/s | -51.4°C | 2.0% | 150.8hPa | 0V | 00:00:00 | 00:00:00 | 00:00:00 | |
| SQ9EZE-14 | 2026-09-03 11:54:57 | 48.77934 | 20.78919 | 124° | 73km/h | 13886m | 4.7m/s | -51.3°C | 2.0% | 150.9hPa | 0V | 00:00:00 | 00:00:00 | 00:00:00 | |
| HA6NAB-11 | 2026-09-03 11:54:55 | 48.77945 | 20.78895 | 123° | 71km/h | 13881m | 4.1m/s | -51.3°C | 2.0% | 151.0hPa | 0V | 00:00:00 | 00:00:00 | 00:00:00 | |
| HA6NAB-11 | 2026-09-03 11:54:48 | 48.78007 | 20.78733 | 122° | 75km/h | 13850m | 4.1m/s | -51.2°C | 2.0% | 151.7hPa | 0V | 00:00:00 | 00:00:00 | 00:00:00 | |
| HA6NAB-11 | 2026-09-03 11:54:43 | 48.78053 | 20.78611 | 119° | 68km/h | 13829m | 4.6m/s | -51.3°C | 2.0% | 152.2hPa | 0V | 00:00:00 | 00:00:00 | 00:00:00 | |
| SQ9EZE-14 | 2026-09-03 11:54:41 | 48.78069 | 20.78566 | 119° | 66km/h | 13822m | 2.1m/s | -51.3°C | 2.0% | 152.4hPa | 0V | 00:00:00 | 00:00:00 | 00:00:00 | |
| SQ9EZE-13 | 2026-09-03 11:54:40 | 48.78077 | 20.78544 | 120° | 66km/h | 13818m | 5.1m/s | -51.4°C | 2.0% | 152.4hPa | 0V | 00:00:00 | 00:00:00 | 00:00:00 | |
| HA6NAB-11 | 2026-09-03 11:54:38 | 48.78095 | 20.78499 | 124° | 69km/h | 13807m | 4.6m/s | -51.4°C | 2.2% | 152.7hPa | 0V | 00:00:00 | 00:00:00 | 00:00:00 | |
| HA6NAB-11 | 2026-09-03 11:54:32 | 48.78154 | 20.78356 | 119° | 78km/h | 13779m | 2.2m/s | -51.4°C | 2.1% | 153.4hPa | 0V | 00:00:00 | 00:00:00 | 00:00:00 | |
| HA6NAB-11 | 2026-09-03 11:54:27 | 48.78195 | 20.78229 | 117° | 71km/h | 13757m | 3.9m/s | -51.5°C | 2.2% | 153.9hPa | 0V | 00:00:00 | 00:00:00 | 00:00:00 | |
| HA6NAB-11 | 2026-09-03 11:54:21 | 48.78247 | 20.78080 | 123° | 78km/h | 13730m | 4.4m/s | -51.3°C | 2.1% | 154.5hPa | 0V | 00:00:00 | 00:00:00 | 00:00:00 | |
| SQ9EZE-13 | 2026-09-03 11:54:08 | 48.78375 | 20.77747 | 121° | 75km/h | 13661m | 6.8m/s | -51.5°C | 2.2% | 156.2hPa | 0V | 00:00:00 | 00:00:00 | 00:00:00 | |
| SP9SOS | 2026-09-03 11:54:07 | 48.78375 | 20.77747 | 121° | 75km/h | 13661m | 6.8m/s | 0°C | 0% | 0hPa | 0V | 00:00:00 | 00:00:00 | 00:00:00 | |
| GYPAP8-17 | 2026-09-03 11:54:06 | 48.78384 | 20.77722 | 120° | 77km/h | 13656m | 2.7m/s | -51.4°C | 2.2% | 156.3hPa | 0V | 00:00:00 | 00:00:00 | 00:00:00 | |
| SQ9EZE-13 | 2026-09-03 11:53:48 | 48.78568 | 20.77292 | 116° | 71km/h | 13570m | 4.6m/s | -52.3°C | 2.2% | 158.4hPa | 0V | 00:00:00 | 00:00:00 | 00:00:00 | |
| HA6NAB-11 | 2026-09-03 11:53:47 | 48.78568 | 20.77292 | 116° | 71km/h | 13570m | 4.6m/s | -52.3°C | 2.2% | 158.4hPa | 0V | 00:00:00 | 00:00:00 | 00:00:00 | |
| SP9SOS | 2026-09-03 11:53:42 | 48.78615 | 20.77155 | 120° | 62km/h | 13541m | 4.7m/s | 0°C | 0% | 0hPa | 0V | 00:00:00 | 00:00:00 | 00:00:00 | |
| HA6NAB-11 | 2026-09-03 11:53:36 | 48.78654 | 20.77047 | 119° | 66km/h | 13518m | 4.7m/s | -52.4°C | 2.4% | 159.6hPa | 0V | 00:00:00 | 00:00:00 | 00:00:00 | |
| HA6NAB-11 | 2026-09-03 11:53:30 | 48.78696 | 20.76914 | 114° | 66km/h | 13492m | 3.7m/s | -52.3°C | 2.4% | 160.3hPa | 0V | 00:00:00 | 00:00:00 | 00:00:00 | |
| HA6NAB-11 | 2026-09-03 11:53:24 | 48.78740 | 20.76792 | 124° | 58km/h | 13462m | 4.4m/s | -52.2°C | 2.3% | 161.1hPa | 0V | 00:00:00 | 00:00:00 | 00:00:00 | |
| HA6NAB-11 | 2026-09-03 11:53:18 | 48.78788 | 20.76673 | 123° | 64km/h | 13423m | 5.4m/s | -51.9°C | 2.3% | 162.0hPa | 0V | 00:00:00 | 00:00:00 | 00:00:00 | |
| SP9SOS | 2026-09-03 11:53:16 | 48.78815 | 20.76612 | 127° | 62km/h | 13406m | 5.3m/s | 0°C | 0% | 0hPa | 0V | 00:00:00 | 00:00:00 | 00:00:00 | |
| GYPAP8-17 | 2026-09-03 11:53:14 | 48.78825 | 20.76592 | 129° | 62km/h | 13401m | 6.1m/s | -51.7°C | 2.3% | 162.6hPa | 0V | 00:00:00 | 00:00:00 | 00:00:00 | |
| SQ9EZE-13 | 2026-09-03 11:52:41 | 48.79164 | 20.75997 | 135° | 69km/h | 13229m | 3.7m/s | -51.4°C | 2.1% | 167.0hPa | 0V | 00:00:00 | 00:00:00 | 00:00:00 | |
| SQ9EZE-14 | 2026-09-03 11:52:30 | 48.79310 | 20.75752 | 132° | 84km/h | 13183m | 4.0m/s | -51.5°C | 2.1% | 168.2hPa | 0V | 00:00:00 | 00:00:00 | 00:00:00 | |
| SQ9EZE-13 | 2026-09-03 11:52:17 | 48.79488 | 20.75387 | 126° | 78km/h | 13126m | 4.3m/s | -52.0°C | 2.1% | 169.6hPa | 0V | 00:00:00 | 00:00:00 | 00:00:00 | |
| SQ9EZE-14 | 2026-09-03 11:52:15 | 48.79500 | 20.75363 | 127° | 78km/h | 13122m | 4.5m/s | -52.1°C | 2.2% | 169.8hPa | 0V | 00:00:00 | 00:00:00 | 00:00:00 | |
| GYPAP8-17 | 2026-09-03 11:52:01 | 48.79647 | 20.74996 | 120° | 78km/h | 13064m | 4.0m/s | -52.7°C | 2.4% | 171.3hPa | 0V | 00:00:00 | 00:00:00 | 00:00:00 | |
| SQ9EZE-13 | 2026-09-03 11:51:37 | 48.79882 | 20.74386 | 127° | 68km/h | 12961m | 4.5m/s | -52.6°C | 2.7% | 174.0hPa | 0V | 00:00:00 | 00:00:00 | 00:00:00 | |
| SQ9EZE-13 | 2026-09-03 11:51:19 | 48.80070 | 20.74032 | 130° | 64km/h | 12886m | 3.8m/s | -52.6°C | 3.2% | 176.0hPa | 0V | 00:00:00 | 00:00:00 | 00:00:00 | |
| GYPAP8-17 | 2026-09-03 11:51:05 | 48.80224 | 20.73769 | 142° | 69km/h | 12817m | 4.0m/s | -52.5°C | 3.6% | 177.9hPa | 0V | 00:00:00 | 00:00:00 | 00:00:00 | |
| SQ9EZE-13 | 2026-09-03 11:51:03 | 48.80250 | 20.73734 | 137° | 68km/h | 12808m | 4.8m/s | -52.5°C | 3.7% | 178.1hPa | 0V | 00:00:00 | 00:00:00 | 00:00:00 | |
| SQ9EZE-13 | 2026-09-03 11:50:43 | 48.80519 | 20.73309 | 130° | 86km/h | 12704m | 5.7m/s | -52.5°C | 5.0% | 181.1hPa | 0V | 00:00:00 | 00:00:00 | 00:00:00 | |
| SQ9EZE-13 | 2026-09-03 11:50:25 | 48.80773 | 20.72849 | 128° | 93km/h | 12613m | 5.9m/s | -53.2°C | 6.3% | 183.7hPa | 0V | 00:00:00 | 00:00:00 | 00:00:00 | |
| SQ9EZE-13 | 2026-09-03 11:50:09 | 48.80970 | 20.72372 | 120° | 84km/h | 12531m | 5.8m/s | -54.1°C | 7.6% | 186.0hPa | 0V | 00:00:00 | 00:00:00 | 00:00:00 | |
| SQ9EZE-13 | 2026-09-03 11:49:53 | 48.81153 | 20.71939 | 127° | 84km/h | 12451m | 4.0m/s | -54.2°C | 9.5% | 188.4hPa | 0V | 00:00:00 | 00:00:00 | 00:00:00 | |
| SQ9EZE-14 | 2026-09-03 11:49:49 | 48.81199 | 20.71835 | 122° | 78km/h | 12433m | 6.3m/s | -54.6°C | 9.9% | 188.9hPa | 0V | 00:00:00 | 00:00:00 | 00:00:00 | |
| SQ9EZE-13 | 2026-09-03 11:49:38 | 48.81323 | 20.71541 | 130° | 77km/h | 12372m | 7.0m/s | -54.4°C | 10.6% | 190.7hPa | 0V | 00:00:00 | 00:00:00 | 00:00:00 | |
| SQ9EZE-14 | 2026-09-03 11:49:34 | 48.81367 | 20.71453 | 129° | 75km/h | 12353m | 4.6m/s | -54.3°C | 10.8% | 191.3hPa | 0V | 00:00:00 | 00:00:00 | 00:00:00 | |
| SQ9EZE-13 | 2026-09-03 11:49:20 | 48.81545 | 20.71150 | 137° | 78km/h | 12279m | 6.4m/s | -54.0°C | 12.0% | 193.6hPa | 0V | 00:00:00 | 00:00:00 | 00:00:00 | |
| HA6NAB-11 | 2026-09-03 11:49:15 | 48.81607 | 20.71073 | 141° | 82km/h | 12256m | 5.1m/s | -54.1°C | 0% | 0hPa | 0V | 00:00:00 | 00:00:00 | 00:00:00 | |
| HA6NAB-11 | 2026-09-03 11:49:09 | 48.81698 | 20.70936 | 136° | 84km/h | 12225m | 4.6m/s | -54.2°C | 0% | 0hPa | 0V | 00:00:00 | 00:00:00 | 00:00:00 | |
| HA6NAB-11 | 2026-09-03 11:49:04 | 48.81771 | 20.70824 | 134° | 82km/h | 12199m | 4.9m/s | -54.1°C | 0% | 0hPa | 0V | 00:00:00 | 00:00:00 | 00:00:00 | |
| SQ9EZE-13 | 2026-09-03 11:49:03 | 48.81786 | 20.70801 | 135° | 84km/h | 12194m | 3.8m/s | -54.1°C | 14.7% | 196.2hPa | 0V | 00:00:00 | 00:00:00 | 00:00:00 | |
| HA6NAB-11 | 2026-09-03 11:48:58 | 48.81874 | 20.70690 | 143° | 100km/h | 12169m | 6.2m/s | -54.6°C | 0% | 0hPa | 0V | 00:00:00 | 00:00:00 | 00:00:00 | |
| HA6NAB-11 | 2026-09-03 11:48:52 | 48.81989 | 20.70549 | 143° | 91km/h | 12135m | 6.5m/s | -55.9°C | 0% | 0hPa | 0V | 00:00:00 | 00:00:00 | 00:00:00 | |
| HA6NAB-11 | 2026-09-03 11:48:47 | 48.82082 | 20.70422 | 133° | 104km/h | 12105m | 3.8m/s | -55.6°C | 0% | 0hPa | 0V | 00:00:00 | 00:00:00 | 00:00:00 | |
| HA6NAB-11 | 2026-09-03 11:48:41 | 48.82194 | 20.70247 | 137° | 110km/h | 12076m | 4.2m/s | -55.6°C | 0% | 0hPa | 0V | 00:00:00 | 00:00:00 | 00:00:00 | |
| HA6NAB-11 | 2026-09-03 11:48:35 | 48.82312 | 20.70070 | 137° | 110km/h | 12048m | 5.8m/s | 0°C | 0% | 0hPa | 0V | 00:00:00 | 00:00:00 | 00:00:00 | |
| SQ9EZE-13 | 2026-09-03 11:48:32 | 48.82371 | 20.69985 | 137° | 104km/h | 12030m | 4.8m/s | -55.5°C | 17.5% | 201.3hPa | 0V | 00:00:00 | 00:00:00 | 00:00:00 | |
| HA6NAB-11 | 2026-09-03 11:48:30 | 48.82427 | 20.69904 | 137° | 102km/h | 12012m | 5.1m/s | 0°C | 0% | 0hPa | 0V | 00:00:00 | 00:00:00 | 00:00:00 | |
| SQ9EZE-13 | 2026-09-03 11:48:17 | 48.82656 | 20.69560 | 138° | 102km/h | 11946m | 6.6m/s | -54.8°C | 15.8% | 203.9hPa | 0V | 00:00:00 | 00:00:00 | 00:00:00 | |
| GYPAP8-17 | 2026-09-03 11:48:12 | 48.82769 | 20.69393 | 138° | 106km/h | 11919m | 4.8m/s | -54.5°C | 15.6% | 204.7hPa | 0V | 00:00:00 | 00:00:00 | 00:00:00 | |
| SQ9EZE-13 | 2026-09-03 11:48:01 | 48.82960 | 20.69110 | 134° | 102km/h | 11863m | 3.5m/s | -54.0°C | 15.6% | 206.5hPa | 0V | 00:00:00 | 00:00:00 | 00:00:00 | |
| SQ9EZE-13 | 2026-09-03 11:47:45 | 48.83279 | 20.68656 | 138° | 108km/h | 11781m | 4.6m/s | -53.2°C | 14.8% | 209.1hPa | 0V | 00:00:00 | 00:00:00 | 00:00:00 | |
| SQ9EZE-14 | 2026-09-03 11:47:34 | 48.83496 | 20.68340 | 138° | 110km/h | 11726m | 3.2m/s | -52.8°C | 14.8% | 211.0hPa | 0V | 00:00:00 | 00:00:00 | 00:00:00 | |
| SQ9EZE-13 | 2026-09-03 11:47:29 | 48.83595 | 20.68201 | 137° | 108km/h | 11701m | 3.5m/s | -52.7°C | 14.5% | 211.7hPa | 0V | 00:00:00 | 00:00:00 | 00:00:00 | |
| HA6NAB-11 | 2026-09-03 11:47:26 | 48.83656 | 20.68112 | 138° | 115km/h | 11686m | 4.2m/s | 0°C | 0% | 0hPa | 0V | 00:00:00 | 00:00:00 | 00:00:00 | |
| SQ9EZE-14 | 2026-09-03 11:47:19 | 48.83821 | 20.67879 | 137° | 102km/h | 11653m | 4.5m/s | -52.3°C | 14.2% | 213.4hPa | 0V | 00:00:00 | 00:00:00 | 00:00:00 | |
| SQ9EZE-13 | 2026-09-03 11:47:14 | 48.83918 | 20.67736 | 138° | 115km/h | 11629m | 4.5m/s | -52.4°C | 15.3% | 214.1hPa | 0V | 00:00:00 | 00:00:00 | 00:00:00 | |
| GYPAP8-17 | 2026-09-03 11:47:09 | 48.84028 | 20.67591 | 140° | 110km/h | 11606m | 4.8m/s | -52.5°C | 15.6% | 214.8hPa | 0V | 00:00:00 | 00:00:00 | 00:00:00 | |
| SQ9EZE-14 | 2026-09-03 11:47:02 | 48.84151 | 20.67430 | 142° | 110km/h | 11577m | 4.5m/s | -52.5°C | 15.2% | 215.8hPa | 0V | 00:00:00 | 00:00:00 | 00:00:00 | |
| SP9SOS | 2026-09-03 11:46:42 | 48.84627 | 20.66836 | 140° | 131km/h | 11472m | 5.8m/s | 0°C | 0% | 0hPa | 0V | 00:00:00 | 00:00:00 | 00:00:00 | |
| SQ9EZE-13 | 2026-09-03 11:46:15 | 48.85257 | 20.65996 | 141° | 124km/h | 11340m | 5.3m/s | -54.5°C | 21.7% | 223.9hPa | 0V | 00:00:00 | 00:00:00 | 00:00:00 | |
| GYPAP8-17 | 2026-09-03 11:46:04 | 48.85522 | 20.65678 | 140° | 113km/h | 11290m | 4.3m/s | -55.3°C | 28.6% | 225.7hPa | 0V | 00:00:00 | 00:00:00 | 00:00:00 | |
| SQ9EZE-13 | 2026-09-03 11:46:00 | 48.85621 | 20.65541 | 135° | 104km/h | 11261m | 5.1m/s | -55.6°C | 30.7% | 226.7hPa | 0V | 00:00:00 | 00:00:00 | 00:00:00 | |
| SQ9EZE-13 | 2026-09-03 11:45:43 | 48.85969 | 20.65051 | 140° | 115km/h | 11180m | 4.7m/s | -55.4°C | 37.7% | 229.7hPa | 0V | 00:00:00 | 00:00:00 | 00:00:00 | |
| SQ9EZE-13 | 2026-09-03 11:45:28 | 48.86347 | 20.64626 | 146° | 126km/h | 11103m | 4.5m/s | -54.9°C | 45.2% | 232.5hPa | 0V | 00:00:00 | 00:00:00 | 00:00:00 | |
| SQ9EZE-13 | 2026-09-03 11:45:11 | 48.86748 | 20.64191 | 142° | 133km/h | 11017m | 5.4m/s | -55.1°C | 46.5% | 235.6hPa | 0V | 00:00:00 | 00:00:00 | 00:00:00 | |
| GYPAP8-17 | 2026-09-03 11:45:10 | 48.86774 | 20.64159 | 142° | 131km/h | 11012m | 4.9m/s | -55.1°C | 46.0% | 235.7hPa | 0V | 00:00:00 | 00:00:00 | 00:00:00 | |
| SQ9EZE-14 | 2026-09-03 11:44:59 | 48.87095 | 20.63818 | 148° | 124km/h | 10950m | 5.3m/s | -54.7°C | 48.1% | 238.1hPa | 0V | 00:00:00 | 00:00:00 | 00:00:00 | |
| SQ9EZE-13 | 2026-09-03 11:44:55 | 48.87173 | 20.63736 | 146° | 130km/h | 10937m | 4.4m/s | -54.7°C | 47.1% | 238.5hPa | 0V | 00:00:00 | 00:00:00 | 00:00:00 | |
| SQ9EZE-14 | 2026-09-03 11:44:42 | 48.87511 | 20.63370 | 148° | 119km/h | 10873m | 6.9m/s | -54.3°C | 45.3% | 241.0hPa | 0V | 00:00:00 | 00:00:00 | 00:00:00 | |
| HA6NAB-11 | 2026-09-03 11:44:39 | 48.87588 | 20.63296 | 149° | 120km/h | 10857m | 6.7m/s | 0°C | 0% | 0hPa | 0V | 00:00:00 | 00:00:00 | 00:00:00 | |
| HA6NAB-11 | 2026-09-03 11:44:33 | 48.87738 | 20.63149 | 149° | 117km/h | 10824m | 6.4m/s | 0°C | 0% | 0hPa | 0V | 00:00:00 | 00:00:00 | 00:00:00 | |
| HA6NAB-11 | 2026-09-03 11:44:26 | 48.87921 | 20.62973 | 143° | 120km/h | 10786m | 5.4m/s | 0°C | 0% | 0hPa | 0V | 00:00:00 | 00:00:00 | 00:00:00 | |
| SQ9EZE-13 | 2026-09-03 11:44:23 | 48.87993 | 20.62882 | 141° | 126km/h | 10771m | 5.0m/s | -53.6°C | 42.8% | 244.7hPa | 0V | 00:00:00 | 00:00:00 | 00:00:00 | |
| SQ9EZE-13 | 2026-09-03 11:44:08 | 48.88368 | 20.62465 | 146° | 122km/h | 10688m | 4.6m/s | -52.7°C | 42.8% | 248.0hPa | 0V | 00:00:00 | 00:00:00 | 00:00:00 | |
| GYPAP8-17 | 2026-09-03 11:44:03 | 48.88523 | 20.62293 | 143° | 122km/h | 10656m | 2.7m/s | -52.4°C | 42.8% | 249.2hPa | 0V | 00:00:00 | 00:00:00 | 00:00:00 | |
| SQ9EZE-13 | 2026-09-03 11:43:52 | 48.88791 | 20.62030 | 147° | 133km/h | 10606m | 4.5m/s | -52.0°C | 41.9% | 251.2hPa | 0V | 00:00:00 | 00:00:00 | 00:00:00 | |
| SQ9EZE-13 | 2026-09-03 11:43:35 | 48.89245 | 20.61534 | 145° | 130km/h | 10523m | 5.4m/s | -51.2°C | 39.0% | 254.4hPa | 0V | 00:00:00 | 00:00:00 | 00:00:00 | |
| SQ9EZE-13 | 2026-09-03 11:43:14 | 48.89827 | 20.60908 | 146° | 126km/h | 10420m | 4.1m/s | -50.2°C | 35.3% | 258.5hPa | 0V | 00:00:00 | 00:00:00 | 00:00:00 | |
| GYPAP8-17 | 2026-09-03 11:42:58 | 48.90223 | 20.60485 | 146° | 124km/h | 10338m | 5.7m/s | -49.6°C | 35.8% | 261.7hPa | 0V | 00:00:00 | 00:00:00 | 00:00:00 | |
| SQ9EZE-13 | 2026-09-03 11:42:56 | 48.90276 | 20.60430 | 148° | 130km/h | 10328m | 4.7m/s | -49.6°C | 37.2% | 262.1hPa | 0V | 00:00:00 | 00:00:00 | 00:00:00 | |
| HA6NAB-11 | 2026-09-03 11:42:48 | 48.90520 | 20.60171 | 143° | 130km/h | 10285m | 4.6m/s | 0°C | 0% | 0hPa | 0V | 00:00:00 | 00:00:00 | 00:00:00 | |
| SQ9EZE-13 | 2026-09-03 11:42:41 | 48.90679 | 20.59995 | 151° | 124km/h | 10254m | 4.0m/s | -49.0°C | 35.6% | 265.1hPa | 0V | 00:00:00 | 00:00:00 | 00:00:00 | |
| SQ9EZE-14 | 2026-09-03 11:42:38 | 48.90760 | 20.59926 | 150° | 122km/h | 10238m | 6.7m/s | -48.9°C | 34.7% | 265.8hPa | 0V | 00:00:00 | 00:00:00 | 00:00:00 | |
| HA6NAB-11 | 2026-09-03 11:42:33 | 48.90898 | 20.59792 | 148° | 131km/h | 10206m | 5.6m/s | 0°C | 0% | 0hPa | 0V | 00:00:00 | 00:00:00 | 00:00:00 | |
| SQ9EZE-13 | 2026-09-03 11:42:24 | 48.91135 | 20.59551 | 149° | 130km/h | 10160m | 5.0m/s | -48.4°C | 33.0% | 268.8hPa | 0V | 00:00:00 | 00:00:00 | 00:00:00 | |
| SQ9EZE-14 | 2026-09-03 11:42:22 | 48.91191 | 20.59499 | 149° | 128km/h | 10149m | 5.2m/s | -48.3°C | 34.0% | 269.3hPa | 0V | 00:00:00 | 00:00:00 | 00:00:00 | |
| SQ9EZE-13 | 2026-09-03 11:42:08 | 48.91586 | 20.59130 | 147° | 119km/h | 10080m | 4.4m/s | -47.9°C | 34.7% | 272.1hPa | 0V | 00:00:00 | 00:00:00 | 00:00:00 | |
| GYPAP8-17 | 2026-09-03 11:41:54 | 48.91920 | 20.58847 | 148° | 113km/h | 10018m | 6.0m/s | -47.3°C | 34.4% | 274.7hPa | 0V | 00:00:00 | 00:00:00 | 00:00:00 | |
| SQ9EZE-13 | 2026-09-03 11:41:48 | 48.92067 | 20.58718 | 152° | 115km/h | 9987m | 3.8m/s | -47.1°C | 34.6% | 276.0hPa | 0V | 00:00:00 | 00:00:00 | 00:00:00 | |
| SQ9EZE-13 | 2026-09-03 11:41:32 | 48.92469 | 20.58373 | 152° | 115km/h | 9901m | 4.8m/s | -46.5°C | 38.2% | 279.6hPa | 0V | 00:00:00 | 00:00:00 | 00:00:00 | |
| SQ9EZE-13 | 2026-09-03 11:41:17 | 48.92850 | 20.58075 | 150° | 106km/h | 9824m | 4.8m/s | -45.9°C | 39.6% | 282.8hPa | 0V | 00:00:00 | 00:00:00 | 00:00:00 | |
| SQ9EZE-13 | 2026-09-03 11:40:59 | 48.93241 | 20.57743 | 145° | 102km/h | 9741m | 3.8m/s | -45.4°C | 45.3% | 286.4hPa | 0V | 00:00:00 | 00:00:00 | 00:00:00 | |
| GYPAP8-17 | 2026-09-03 11:40:52 | 48.93401 | 20.57598 | 154° | 110km/h | 9706m | 7.2m/s | -45.1°C | 43.0% | 288.0hPa | 0V | 00:00:00 | 00:00:00 | 00:00:00 | |
| SQ9EZE-13 | 2026-09-03 11:40:43 | 48.93601 | 20.57423 | 154° | 102km/h | 9660m | 4.8m/s | -44.7°C | 40.9% | 289.9hPa | 0V | 00:00:00 | 00:00:00 | 00:00:00 | |
| SQ9EZE-13 | 2026-09-03 11:40:28 | 48.93950 | 20.57132 | 154° | 99km/h | 9581m | 5.6m/s | -44.0°C | 35.1% | 293.2hPa | 0V | 00:00:00 | 00:00:00 | 00:00:00 | |
| SQ9EZE-14 | 2026-09-03 11:40:18 | 48.94170 | 20.56946 | 152° | 97km/h | 9532m | 4.9m/s | -43.7°C | 32.5% | 295.5hPa | 0V | 00:00:00 | 00:00:00 | 00:00:00 | |
| SQ9EZE-13 | 2026-09-03 11:40:12 | 48.94297 | 20.56843 | 155° | 95km/h | 9496m | 6.2m/s | -43.4°C | 31.6% | 297.1hPa | 0V | 00:00:00 | 00:00:00 | 00:00:00 | |
| SQ9EZE-14 | 2026-09-03 11:40:02 | 48.94486 | 20.56684 | 151° | 95km/h | 9446m | 3.4m/s | -43.0°C | 31.4% | 299.1hPa | 0V | 00:00:00 | 00:00:00 | 00:00:00 | |
| SQ9EZE-13 | 2026-09-03 11:39:56 | 48.94629 | 20.56572 | 155° | 91km/h | 9411m | 3.4m/s | -42.8°C | 34.3% | 300.7hPa | 0V | 00:00:00 | 00:00:00 | 00:00:00 | |
| GYPAP8-17 | 2026-09-03 11:39:48 | 48.94763 | 20.56469 | 154° | 88km/h | 9380m | 4.6m/s | -42.7°C | 38.9% | 302.2hPa | 0V | 00:00:00 | 00:00:00 | 00:00:00 | |
| HA6NAB-11 | 2026-09-03 11:39:39 | 48.94932 | 20.56306 | 147° | 88km/h | 9332m | 5.4m/s | 0°C | 0% | 0hPa | 0V | 00:00:00 | 00:00:00 | 00:00:00 | |
| HA6NAB-11 | 2026-09-03 11:39:32 | 48.95058 | 20.56179 | 143° | 88km/h | 9298m | 4.3m/s | 0°C | 0% | 0hPa | 0V | 00:00:00 | 00:00:00 | 00:00:00 | |
| SQ9EZE-13 | 2026-09-03 11:39:23 | 48.95216 | 20.55998 | 138° | 88km/h | 9255m | 3.5m/s | -42.0°C | 46.3% | 307.9hPa | 0V | 00:00:00 | 00:00:00 | 00:00:00 | |
| SQ9EZE-13 | 2026-09-03 11:39:08 | 48.95463 | 20.55669 | 141° | 78km/h | 9168m | 7.4m/s | -41.2°C | 42.9% | 311.8hPa | 0V | 00:00:00 | 00:00:00 | 00:00:00 | |
| OE3JTB-15 | 2026-09-03 11:38:54 | 48.95676 | 20.55399 | 143° | 60km/h | 9085m | 5.1m/s | 0°C | 0% | 0hPa | 0V | 00:00:00 | 00:00:00 | 00:00:00 | |
| SQ9EZE-13 | 2026-09-03 11:38:52 | 48.95692 | 20.55381 | 144° | 78km/h | 9081m | 3.7m/s | -40.3°C | 39.2% | 315.8hPa | 0V | 00:00:00 | 00:00:00 | 00:00:00 | |
| GYPAP8-17 | 2026-09-03 11:38:46 | 48.95788 | 20.55275 | 147° | 77km/h | 9053m | 5.9m/s | -40.1°C | 36.7% | 317.2hPa | 0V | 00:00:00 | 00:00:00 | 00:00:00 | |
| SQ9EZE-13 | 2026-09-03 11:38:36 | 48.95942 | 20.55094 | 144° | 84km/h | 9000m | 7.3m/s | -39.6°C | 36.3% | 319.7hPa | 0V | 00:00:00 | 00:00:00 | 00:00:00 | |
| SQ9EZE-13 | 2026-09-03 11:38:19 | 48.96211 | 20.54754 | 141° | 77km/h | 8905m | 4.4m/s | -39.0°C | 41.4% | 324.2hPa | 0V | 00:00:00 | 00:00:00 | 00:00:00 | |
| SQ9EZE-13 | 2026-09-03 11:38:03 | 48.96455 | 20.54399 | 133° | 80km/h | 8819m | 4.2m/s | -38.5°C | 54.1% | 328.3hPa | 0V | 00:00:00 | 00:00:00 | 00:00:00 | |
| SQ9EZE-14 | 2026-09-03 11:37:59 | 48.96525 | 20.54300 | 131° | 82km/h | 8790m | 6.1m/s | -38.3°C | 52.5% | 329.6hPa | 0V | 00:00:00 | 00:00:00 | 00:00:00 | |
| SQ9EZE-13 | 2026-09-03 11:37:47 | 48.96680 | 20.54032 | 135° | 86km/h | 8739m | 4.2m/s | -37.9°C | 51.6% | 332.1hPa | 0V | 00:00:00 | 00:00:00 | 00:00:00 | |
| SQ9EZE-14 | 2026-09-03 11:37:42 | 48.96753 | 20.53916 | 135° | 80km/h | 8715m | 5.5m/s | -37.7°C | 50.6% | 333.2hPa | 0V | 00:00:00 | 00:00:00 | 00:00:00 | |
| SQ9EZE-13 | 2026-09-03 11:37:32 | 48.96909 | 20.53684 | 132° | 80km/h | 8660m | 5.5m/s | -37.2°C | 54.6% | 335.9hPa | 0V | 00:00:00 | 00:00:00 | 00:00:00 | |
| SQ9EZE-13 | 2026-09-03 11:37:16 | 48.97128 | 20.53345 | 132° | 89km/h | 8593m | 6.8m/s | -36.7°C | 62.2% | 339.2hPa | 0V | 00:00:00 | 00:00:00 | 00:00:00 | |
| SQ9EZE-13 | 2026-09-03 11:37:00 | 48.97342 | 20.52960 | 129° | 78km/h | 8504m | 4.3m/s | -35.9°C | 53.8% | 343.7hPa | 0V | 00:00:00 | 00:00:00 | 00:00:00 | |
| GYPAP8-17 | 2026-09-03 11:36:49 | 48.97485 | 20.52717 | 135° | 77km/h | 8449m | 3.4m/s | -35.4°C | 39.0% | 346.3hPa | 0V | 00:00:00 | 00:00:00 | 00:00:00 | |
| SQ9EZE-13 | 2026-09-03 11:36:44 | 48.97554 | 20.52586 | 127° | 69km/h | 8417m | 5.0m/s | -35.1°C | 38.4% | 347.8hPa | 0V | 00:00:00 | 00:00:00 | 00:00:00 | |
| SQ9EZE-13 | 2026-09-03 11:36:28 | 48.97757 | 20.52245 | 134° | 75km/h | 8340m | 5.6m/s | -34.5°C | 38.2% | 351.6hPa | 0V | 00:00:00 | 00:00:00 | 00:00:00 | |
| SQ9EZE-13 | 2026-09-03 11:36:11 | 48.97962 | 20.51907 | 140° | 77km/h | 8258m | 4.3m/s | -33.7°C | 41.7% | 355.8hPa | 0V | 00:00:00 | 00:00:00 | 00:00:00 | |
| SQ9EZE-13 | 2026-09-03 11:35:55 | 48.98173 | 20.51572 | 135° | 77km/h | 8175m | 5.2m/s | -33.0°C | 36.1% | 360.1hPa | 0V | 00:00:00 | 00:00:00 | 00:00:00 | |
| HA6NAB-11 | 2026-09-03 11:35:42 | 48.98335 | 20.51315 | 141° | 68km/h | 8110m | 4.7m/s | 0°C | 0% | 0hPa | 0V | 00:00:00 | 00:00:00 | 00:00:00 | |
| SQ9EZE-13 | 2026-09-03 11:35:40 | 48.98376 | 20.51256 | 134° | 78km/h | 8097m | 3.2m/s | -32.2°C | 35.0% | 364.1hPa | 0V | 00:00:00 | 00:00:00 | 00:00:00 | |
| SQ9EZE-14 | 2026-09-03 11:35:37 | 48.98414 | 20.51188 | 130° | 77km/h | 8084m | 5.1m/s | -32.1°C | 35.1% | 364.9hPa | 0V | 00:00:00 | 00:00:00 | 00:00:00 | |
| SQ9EZE-13 | 2026-09-03 11:35:24 | 48.98573 | 20.50932 | 140° | 69km/h | 8020m | 3.4m/s | -31.5°C | 32.7% | 368.1hPa | 0V | 00:00:00 | 00:00:00 | 00:00:00 | |
| SQ9EZE-14 | 2026-09-03 11:35:20 | 48.98608 | 20.50877 | 131° | 66km/h | 8004m | 6.7m/s | -31.4°C | 32.2% | 368.9hPa | 0V | 00:00:00 | 00:00:00 | 00:00:00 | |
| SQ9EZE-13 | 2026-09-03 11:35:07 | 48.98747 | 20.50634 | 139° | 60km/h | 7932m | 5.1m/s | -30.7°C | 33.5% | 372.6hPa | 0V | 00:00:00 | 00:00:00 | 00:00:00 | |
| SQ9EZE-13 | 2026-09-03 11:34:51 | 48.98936 | 20.50339 | 138° | 58km/h | 7856m | 5.0m/s | -30.0°C | 31.4% | 376.7hPa | 0V | 00:00:00 | 00:00:00 | 00:00:00 | |
| GYPAP8-17 | 2026-09-03 11:34:42 | 48.99045 | 20.50166 | 138° | 73km/h | 7814m | 4.8m/s | -29.6°C | 30.0% | 378.9hPa | 0V | 00:00:00 | 00:00:00 | 00:00:00 | |
| SQ9EZE-13 | 2026-09-03 11:34:36 | 48.99125 | 20.50053 | 131° | 66km/h | 7785m | 5.7m/s | -29.3°C | 29.6% | 380.5hPa | 0V | 00:00:00 | 00:00:00 | 00:00:00 | |
| SQ9EZE-13 | 2026-09-03 11:34:19 | 48.99315 | 20.49738 | 135° | 69km/h | 7692m | 6.3m/s | -28.6°C | 25.7% | 385.3hPa | 0V | 00:00:00 | 00:00:00 | 00:00:00 | |
| SQ9EZE-13 | 2026-09-03 11:34:03 | 48.99473 | 20.49437 | 139° | 57km/h | 7613m | 4.0m/s | -27.9°C | 24.4% | 389.7hPa | 0V | 00:00:00 | 00:00:00 | 00:00:00 | |
| SQ9EZE-13 | 2026-09-03 11:33:39 | 48.99714 | 20.48990 | 126° | 60km/h | 7495m | 6.6m/s | -27.2°C | 29.6% | 396.1hPa | 0V | 00:00:00 | 00:00:00 | 00:00:00 | |
| SQ9EZE-13 | 2026-09-03 11:33:24 | 48.99856 | 20.48658 | 125° | 58km/h | 7411m | 6.2m/s | -26.8°C | 36.5% | 400.8hPa | 0V | 00:00:00 | 00:00:00 | 00:00:00 | |
| SQ9EZE-14 | 2026-09-03 11:33:15 | 48.99918 | 20.48499 | 124° | 62km/h | 7373m | 4.2m/s | -26.5°C | 39.4% | 402.9hPa | 0V | 00:00:00 | 00:00:00 | 00:00:00 | |
| SQ9EZE-13 | 2026-09-03 11:33:07 | 48.99982 | 20.48332 | 118° | 66km/h | 7331m | 5.5m/s | -26.4°C | 43.9% | 405.3hPa | 0V | 00:00:00 | 00:00:00 | 00:00:00 | |
| SQ9EZE-14 | 2026-09-03 11:33:00 | 49.00044 | 20.48185 | 121° | 64km/h | 7292m | 5.0m/s | -26.3°C | 49.5% | 407.4hPa | 0V | 00:00:00 | 00:00:00 | 00:00:00 | |
| SQ9EZE-13 | 2026-09-03 11:32:52 | 49.00108 | 20.48014 | 124° | 55km/h | 7242m | 7.1m/s | -26.1°C | 55.7% | 410.3hPa | 0V | 00:00:00 | 00:00:00 | 00:00:00 | |
| SQ9EZE-13 | 2026-09-03 11:32:35 | 49.00230 | 20.47740 | 127° | 51km/h | 7160m | 3.2m/s | -25.9°C | 83.4% | 414.8hPa | 0V | 00:00:00 | 00:00:00 | 00:00:00 | |
| OE3JTB-15 | 2026-09-03 11:32:28 | 49.00293 | 20.47608 | 123° | 51km/h | 7119m | 4.1m/s | 0°C | 0% | 0hPa | 0V | 00:00:00 | 00:55:16 | 00:00:00 | |
| SQ9EZE-13 | 2026-09-03 11:32:19 | 49.00348 | 20.47476 | 122° | 57km/h | 7075m | 4.8m/s | -25.2°C | 83.6% | 419.6hPa | 0V | 00:00:00 | 00:00:00 | 00:00:00 | |
| SQ9EZE-13 | 2026-09-03 11:32:03 | 49.00451 | 20.47196 | 109° | 47km/h | 6995m | 3.5m/s | -24.5°C | 87.0% | 424.3hPa | 0V | 00:00:00 | 00:00:00 | 00:00:00 | |
| OE3JTB-15 | 2026-09-03 11:31:57 | 49.00488 | 20.47073 | 123° | 44km/h | 6955m | 5.4m/s | 0°C | 0% | 0hPa | 0V | 00:00:00 | 00:00:00 | 00:00:00 | |
| OM5KV | 2026-09-03 11:31:55 | 49.00495 | 20.47057 | 126° | 47km/h | 6950m | 4.6m/s | -24.2°C | 88.4% | 426.9hPa | 0V | 00:00:00 | 00:00:00 | 00:00:00 | |
| OM5KV | 2026-09-03 11:31:54 | 49.00502 | 20.47042 | 126° | 47km/h | 6945m | 5.5m/s | -24.2°C | 87.8% | 427.2hPa | 0V | 00:00:00 | 00:00:00 | 00:00:00 | |
| OM5KV | 2026-09-03 11:31:49 | 49.00538 | 20.46947 | 114° | 47km/h | 6908m | 6.4m/s | -23.8°C | 86.9% | 429.4hPa | 0V | 00:00:00 | 00:00:00 | 00:00:00 | |
| SQ9EZE-13 | 2026-09-03 11:31:47 | 49.00543 | 20.46931 | 114° | 44km/h | 6902m | 6.1m/s | -23.8°C | 86.7% | 429.7hPa | 0V | 00:00:00 | 00:00:00 | 00:00:00 | |
| OM5KV | 2026-09-03 11:31:44 | 49.00555 | 20.46886 | 112° | 38km/h | 6885m | 5.8m/s | -23.6°C | 87.3% | 430.7hPa | 0V | 00:00:00 | 00:00:00 | 00:00:00 | |
| OM5KV | 2026-09-03 11:31:43 | 49.00558 | 20.46873 | 112° | 38km/h | 6879m | 5.6m/s | -23.6°C | 87.0% | 431.0hPa | 0V | 00:00:00 | 00:00:00 | 00:00:00 | |
| OM5KV | 2026-09-03 11:31:38 | 49.00582 | 20.46787 | 117° | 44km/h | 6844m | 5.6m/s | -23.3°C | 86.6% | 433.1hPa | 0V | 00:00:00 | 00:00:00 | 00:00:00 | |
| SQ9EZE-13 | 2026-09-03 11:31:32 | 49.00619 | 20.46690 | 119° | 47km/h | 6809m | 5.7m/s | -23.0°C | 88.0% | 435.2hPa | 0V | 00:00:00 | 00:00:00 | 00:00:00 | |
| OM5KV | 2026-09-03 11:31:31 | 49.00619 | 20.46690 | 119° | 47km/h | 6809m | 5.7m/s | -23.0°C | 88.0% | 435.2hPa | 0V | 00:00:00 | 00:00:00 | 00:00:00 | |
| OE3JTB-15 | 2026-09-03 11:31:26 | 49.00653 | 20.46603 | 119° | 47km/h | 6773m | 3.9m/s | 0°C | 0% | 0hPa | 0V | 00:00:00 | 00:00:00 | 00:00:00 | |
| OM5KV | 2026-09-03 11:31:25 | 49.00653 | 20.46603 | 119° | 46km/h | 6773m | 4.0m/s | -22.7°C | 86.8% | 437.3hPa | 0V | 00:00:00 | 00:00:00 | 00:00:00 | |
| GYPAP8-17 | 2026-09-03 11:31:23 | 49.00664 | 20.46571 | 120° | 49km/h | 6761m | 5.0m/s | -22.7°C | 87.0% | 437.9hPa | 0V | 00:00:00 | 00:00:00 | 00:00:00 | |
| OM5KV | 2026-09-03 11:31:20 | 49.00684 | 20.46522 | 124° | 51km/h | 6744m | 4.8m/s | -22.5°C | 86.1% | 439.0hPa | 0V | 00:00:00 | 00:00:00 | 00:00:00 | |
| OM5KV | 2026-09-03 11:31:15 | 49.00721 | 20.46420 | 119° | 51km/h | 6714m | 4.2m/s | -22.2°C | 88.3% | 440.9hPa | 0V | 00:00:00 | 00:00:00 | 00:00:00 | |
| OM5KV | 2026-09-03 11:31:14 | 49.00726 | 20.46403 | 118° | 49km/h | 6710m | 2.3m/s | -22.2°C | 88.5% | 441.1hPa | 0V | 00:00:00 | 00:00:00 | 00:00:00 | |
| OM5KV | 2026-09-03 11:31:08 | 49.00752 | 20.46314 | 113° | 49km/h | 6684m | 5.3m/s | -22.0°C | 86.3% | 442.7hPa | 0V | 00:00:00 | 00:00:00 | 00:00:00 | |
| OM5KV | 2026-09-03 11:31:07 | 49.00756 | 20.46297 | 112° | 47km/h | 6678m | 5.6m/s | -22.0°C | 85.9% | 443.1hPa | 0V | 00:00:00 | 00:00:00 | 00:00:00 | |
| OM5KV | 2026-09-03 11:31:00 | 49.00789 | 20.46176 | 114° | 55km/h | 6642m | 3.5m/s | -21.6°C | 85.2% | 445.2hPa | 0V | 00:00:00 | 00:00:00 | 00:00:00 | |
| SQ9EZE-13 | 2026-09-03 11:30:59 | 49.00795 | 20.46156 | 112° | 57km/h | 6639m | 2.1m/s | -21.6°C | 85.2% | 445.4hPa | 0V | 00:00:00 | 00:00:00 | 00:00:00 | |
| SQ9EZE-14 | 2026-09-03 11:30:56 | 49.00811 | 20.46098 | 116° | 47km/h | 6626m | 5.2m/s | -21.5°C | 84.3% | 446.3hPa | 0V | 00:00:00 | 00:00:00 | 00:00:00 | |
| OM5KV | 2026-09-03 11:30:55 | 49.00816 | 20.46082 | 115° | 46km/h | 6621m | 5.3m/s | -21.5°C | 84.5% | 446.6hPa | 0V | 00:00:00 | 00:00:00 | 00:00:00 | |
| OM5KV | 2026-09-03 11:30:45 | 49.00854 | 20.45901 | 115° | 49km/h | 6558m | 3.7m/s | -20.9°C | 79.6% | 450.4hPa | 0V | 00:00:00 | 00:00:00 | 00:00:00 | |
| SQ9EZE-13 | 2026-09-03 11:30:44 | 49.00859 | 20.45883 | 116° | 51km/h | 6553m | 6.5m/s | -20.9°C | 79.1% | 450.7hPa | 0V | 00:00:00 | 00:00:00 | 00:00:00 | |
| OM5KV | 2026-09-03 11:30:42 | 49.00865 | 20.45865 | 118° | 53km/h | 6547m | 4.1m/s | -20.9°C | 79.2% | 451.0hPa | 0V | 00:00:00 | 00:00:00 | 00:00:00 | |
| OM5KV | 2026-09-03 11:30:40 | 49.00880 | 20.45814 | 113° | 44km/h | 6534m | 4.2m/s | -20.7°C | 79.8% | 451.9hPa | 0V | 00:00:00 | 00:00:00 | 00:00:00 | |
| GYPAP8-17 | 2026-09-03 11:30:38 | 49.00884 | 20.45798 | 111° | 44km/h | 6529m | 4.5m/s | -20.7°C | 79.9% | 452.1hPa | 0V | 00:00:00 | 00:00:00 | 00:00:00 | |
| OM5KV | 2026-09-03 11:30:37 | 49.00888 | 20.45782 | 111° | 44km/h | 6525m | 3.4m/s | -20.7°C | 79.9% | 452.3hPa | 0V | 00:00:00 | 00:00:00 | 00:00:00 | |
| OM5KV | 2026-09-03 11:30:36 | 49.00892 | 20.45766 | 112° | 46km/h | 6521m | 4.6m/s | -20.7°C | 79.6% | 452.6hPa | 0V | 00:00:00 | 00:00:00 | 00:00:00 | |
| SQ9EZE-13 | 2026-09-03 11:30:27 | 49.00931 | 20.45616 | 103° | 47km/h | 6476m | 5.0m/s | -20.3°C | 77.3% | 455.3hPa | 0V | 00:00:00 | 00:00:00 | 00:00:00 | |
| OM5KV | 2026-09-03 11:30:22 | 49.00949 | 20.45529 | 115° | 47km/h | 6449m | 4.7m/s | -20.0°C | 75.9% | 457.1hPa | 0V | 00:00:00 | 00:00:00 | 00:00:00 | |
| OM5KV | 2026-09-03 11:30:18 | 49.00972 | 20.45469 | 122° | 44km/h | 6430m | 7.3m/s | -19.9°C | 76.3% | 458.4hPa | 0V | 00:00:00 | 00:00:00 | 00:00:00 | |
| OM5KV | 2026-09-03 11:30:17 | 49.00978 | 20.45453 | 118° | 47km/h | 6424m | 4.1m/s | -19.8°C | 76.7% | 458.7hPa | 0V | 00:00:00 | 00:00:00 | 00:00:00 | |
| OM5KV | 2026-09-03 11:30:13 | 49.01001 | 20.45365 | 110° | 47km/h | 6399m | 3.8m/s | -19.6°C | 76.6% | 460.3hPa | 0V | 00:00:00 | 00:00:00 | 00:00:00 | |
| SQ9EZE-13 | 2026-09-03 11:30:10 | 49.01010 | 20.45332 | 117° | 44km/h | 6390m | 4.9m/s | -19.5°C | 76.6% | 460.8hPa | 0V | 00:00:00 | 00:00:00 | 00:00:00 | |
| OM5KV | 2026-09-03 11:30:08 | 49.01021 | 20.45301 | 119° | 46km/h | 6382m | 5.5m/s | -19.5°C | 76.4% | 461.2hPa | 0V | 00:00:00 | 00:00:00 | 00:00:00 | |
| OM5KV | 2026-09-03 11:29:56 | 49.01066 | 20.45093 | 111° | 46km/h | 6319m | 3.6m/s | -19.0°C | 71.9% | 465.1hPa | 0V | 00:00:00 | 00:00:00 | 00:00:00 | |
| GYPAP8-17 | 2026-09-03 11:29:53 | 49.01074 | 20.45060 | 111° | 47km/h | 6310m | 5.7m/s | -18.9°C | 72.1% | 465.7hPa | 0V | 00:00:00 | 00:00:00 | 00:00:00 | |
| OM5KV | 2026-09-03 11:29:50 | 49.01088 | 20.45010 | 114° | 46km/h | 6297m | 4.5m/s | -18.8°C | 72.6% | 466.5hPa | 0V | 00:00:00 | 00:00:00 | 00:00:00 | |
| OM5KV | 2026-09-03 11:29:47 | 49.01101 | 20.44945 | 104° | 44km/h | 6279m | 4.5m/s | -18.7°C | 73.3% | 467.6hPa | 0V | 00:00:00 | 00:00:00 | 00:00:00 | |
| OM5KV | 2026-09-03 11:29:45 | 49.01103 | 20.44929 | 106° | 44km/h | 6274m | 4.7m/s | -18.7°C | 73.3% | 468.1hPa | 0V | 00:00:00 | 00:00:00 | 00:00:00 | |
| OM5KV | 2026-09-03 11:29:39 | 49.01125 | 20.44831 | 114° | 49km/h | 6247m | 5.3m/s | -18.6°C | 76.8% | 469.6hPa | 0V | 00:00:00 | 00:00:00 | 00:00:00 | |
| OM5KV | 2026-09-03 11:29:34 | 49.01144 | 20.44756 | 112° | 38km/h | 6225m | 5.5m/s | -18.5°C | 77.1% | 471.1hPa | 0V | 00:00:00 | 00:00:00 | 00:00:00 | |
| SQ9EZE-13 | 2026-09-03 11:29:24 | 49.01180 | 20.44600 | 111° | 42km/h | 6173m | 3.7m/s | -18.2°C | 78.3% | 474.5hPa | 0V | 00:00:00 | 00:00:00 | 00:00:00 | |
| OM5KV | 2026-09-03 11:29:23 | 49.01183 | 20.44584 | 114° | 42km/h | 6168m | 6.1m/s | -18.1°C | 78.5% | 474.7hPa | 0V | 00:00:00 | 00:00:00 | 00:00:00 | |
| OM5KV | 2026-09-03 11:29:17 | 49.01220 | 20.44478 | 119° | 53km/h | 6136m | 7.3m/s | -17.9°C | 78.5% | 476.7hPa | 0V | 00:00:00 | 00:00:00 | 00:00:00 | |
| OM5KV | 2026-09-03 11:29:11 | 49.01249 | 20.44374 | 111° | 46km/h | 6100m | 7.3m/s | -17.6°C | 76.7% | 479.1hPa | 0V | 00:00:00 | 00:00:00 | 00:00:00 | |
| GYPAP8-17 | 2026-09-03 11:29:09 | 49.01258 | 20.44342 | 114° | 44km/h | 6089m | 5.0m/s | -17.5°C | 76.7% | 479.9hPa | 0V | 00:00:00 | 00:00:00 | 00:00:00 | |
| SQ9EZE-13 | 2026-09-03 11:29:08 | 49.01262 | 20.44327 | 115° | 46km/h | 6083m | 7.3m/s | -17.5°C | 76.7% | 480.2hPa | 0V | 00:00:00 | 00:00:00 | 00:00:00 | |
| OM5KV | 2026-09-03 11:29:04 | 49.01284 | 20.44262 | 121° | 47km/h | 6058m | 7.0m/s | 0°C | 0% | 481.8hPa | 0V | 00:00:00 | 00:00:00 | 00:00:00 | |
| OM5KV | 2026-09-03 11:29:03 | 49.01296 | 20.44230 | 119° | 47km/h | 6046m | 5.0m/s | -17.2°C | 75.1% | 482.6hPa | 0V | 00:00:00 | 00:00:00 | 00:00:00 | |
| OE3JTB-15 | 2026-09-03 11:28:58 | 49.01324 | 20.44147 | 122° | 53km/h | 6015m | 7.1m/s | 0°C | 0% | 0hPa | 0V | 00:00:00 | 00:51:46 | 00:00:00 | |
| OM5KV | 2026-09-03 11:28:56 | 49.01331 | 20.44130 | 122° | 53km/h | 6008m | 6.9m/s | -16.9°C | 74.4% | 485.0hPa | 0V | 00:00:00 | 00:00:00 | 00:00:00 | |
| OM5KV | 2026-09-03 11:28:54 | 49.01351 | 20.44077 | 116° | 51km/h | 5990m | 5.4m/s | 0°C | 0% | 0hPa | 0V | 00:00:00 | 00:00:00 | 00:00:00 | |
| SQ9EZE-13 | 2026-09-03 11:28:52 | 49.01356 | 20.44059 | 112° | 49km/h | 5984m | 4.9m/s | -16.7°C | 74.8% | 486.6hPa | 0V | 00:00:00 | 00:00:00 | 00:00:00 | |
| OM5KV | 2026-09-03 11:28:50 | 49.01364 | 20.44024 | 109° | 47km/h | 5974m | 5.3m/s | -16.6°C | 74.5% | 487.1hPa | 0V | 00:00:00 | 00:00:00 | 00:00:00 | |
| OM5KV | 2026-09-03 11:28:47 | 49.01377 | 20.43974 | 117° | 49km/h | 5960m | 4.9m/s | 0°C | 0% | 0hPa | 0V | 00:00:00 | 00:00:00 | 00:00:00 | |
| SQ9EZE-13 | 2026-09-03 11:28:38 | 49.01446 | 20.43797 | 118° | 49km/h | 5905m | 5.3m/s | -16.0°C | 72.0% | 491.6hPa | 0V | 00:00:00 | 00:00:00 | 00:00:00 | |
| OM5KV | 2026-09-03 11:28:36 | 49.01452 | 20.43780 | 119° | 49km/h | 5900m | 5.0m/s | 0°C | 0% | 0hPa | 0V | 00:00:00 | 00:00:00 | 00:00:00 | |
| SQ9EZE-14 | 2026-09-03 11:28:35 | 49.01458 | 20.43764 | 120° | 47km/h | 5895m | 4.8m/s | -16.0°C | 72.0% | 492.4hPa | 0V | 00:00:00 | 00:00:00 | 00:00:00 | |
| OE3JTB-15 | 2026-09-03 11:28:29 | 49.01513 | 20.43629 | 119° | 60km/h | 5857m | 7.6m/s | 0°C | 0% | 0hPa | 0V | 00:00:00 | 00:00:00 | 00:00:00 | |
| GYPAP8-17 | 2026-09-03 11:28:26 | 49.01532 | 20.43568 | 113° | 57km/h | 5837m | 6.1m/s | -15.8°C | 65.0% | 496.1hPa | 0V | 00:00:00 | 00:00:00 | 00:00:00 | |
| OM5KV | 2026-09-03 11:28:24 | 49.01537 | 20.43548 | 112° | 57km/h | 5831m | 6.6m/s | 0°C | 0% | 0hPa | 0V | 00:00:00 | 00:00:00 | 00:00:00 | |
| SQ9EZE-13 | 2026-09-03 11:28:21 | 49.01556 | 20.43484 | 119° | 64km/h | 5816m | 5.9m/s | -15.6°C | 64.4% | 497.6hPa | 0V | 00:00:00 | 00:00:00 | 00:00:00 | |
| SQ9EZE-14 | 2026-09-03 11:28:20 | 49.01564 | 20.43463 | 124° | 62km/h | 5811m | 4.1m/s | -15.6°C | 0% | 497.8hPa | 0V | 00:00:00 | 00:00:00 | 00:00:00 | |
| SQ9EZE-13 | 2026-09-03 11:28:06 | 49.01655 | 20.43196 | 116° | 57km/h | 5733m | 4.2m/s | -15.0°C | 63.3% | 503.0hPa | 0V | 00:00:00 | 00:00:00 | 00:00:00 | |
| OM5KV | 2026-09-03 11:28:00 | 49.01686 | 20.43083 | 114° | 58km/h | 5704m | 4.4m/s | -14.8°C | 68.7% | 505.0hPa | 0V | 00:00:00 | 00:00:00 | 00:00:00 | |
| OM5KV | 2026-09-03 11:27:57 | 49.01706 | 20.43018 | 117° | 60km/h | 5691m | 3.6m/s | -14.7°C | 0% | 0hPa | 0V | 00:00:00 | 00:00:00 | 00:00:00 | |
| OM5KV | 2026-09-03 11:27:52 | 49.01737 | 20.42892 | 109° | 57km/h | 5660m | 7.2m/s | -14.5°C | 0% | 0hPa | 0V | 00:00:00 | 00:00:00 | 00:00:00 | |
| OM5KV | 2026-09-03 11:27:46 | 49.01763 | 20.42795 | 114° | 49km/h | 5627m | 5.7m/s | -14.3°C | 0% | 0hPa | 0V | 00:00:00 | 00:00:00 | 00:00:00 | |
| OM5KV | 2026-09-03 11:27:41 | 49.01784 | 20.42679 | 104° | 58km/h | 5598m | 2.8m/s | -14.1°C | 0% | 0hPa | 0V | 00:00:00 | 00:00:00 | 00:00:00 | |
| GYPAP8-17 | 2026-09-03 11:27:40 | 49.01784 | 20.42679 | 104° | 58km/h | 5598m | 2.8m/s | -14.1°C | 64.6% | 511.9hPa | 0V | 00:00:00 | 00:00:00 | 00:00:00 | |
| SQ9EZE-13 | 2026-09-03 11:27:35 | 49.01805 | 20.42574 | 110° | 51km/h | 5580m | 5.5m/s | -14.1°C | 77.5% | 513.3hPa | 0V | 00:00:00 | 00:00:00 | 00:00:00 | |
| OM5KV | 2026-09-03 11:27:33 | 49.01812 | 20.42537 | 105° | 47km/h | 5567m | 6.6m/s | -14.1°C | 0% | 0hPa | 0V | 00:00:00 | 00:00:00 | 00:00:00 | |
| OM5KV | 2026-09-03 11:27:27 | 49.01831 | 20.42421 | 111° | 57km/h | 5538m | 5.0m/s | -13.9°C | 0% | 0hPa | 0V | 00:00:00 | 00:00:00 | 00:00:00 | |
| OM5KV | 2026-09-03 11:27:21 | 49.01866 | 20.42305 | 117° | 53km/h | 5509m | 4.2m/s | -13.7°C | 0% | 0hPa | 0V | 00:00:00 | 00:00:00 | 00:00:00 | |
| SQ9EZE-13 | 2026-09-03 11:27:19 | 49.01876 | 20.42268 | 109° | 53km/h | 5501m | 4.1m/s | -13.6°C | 66.5% | 518.4hPa | 0V | 00:00:00 | 00:00:00 | 00:00:00 | |
| OM5KV | 2026-09-03 11:27:11 | 49.01908 | 20.42093 | 109° | 49km/h | 5469m | 6.3m/s | -13.5°C | 0% | 0hPa | 0V | 00:00:00 | 00:00:00 | 00:00:00 | |
| OM5KV | 2026-09-03 11:27:08 | 49.01920 | 20.42040 | 112° | 51km/h | 5452m | 5.2m/s | 0°C | 0% | 0hPa | 0V | 00:00:00 | 00:00:00 | 00:00:00 | |
| SQ9EZE-13 | 2026-09-03 11:27:02 | 49.01949 | 20.41919 | 109° | 49km/h | 5417m | 6.7m/s | -13.1°C | 62.8% | 524.0hPa | 0V | 00:00:00 | 00:00:00 | 00:00:00 | |
| GYPAP8-17 | 2026-09-03 11:26:56 | 49.01986 | 20.41793 | 116° | 58km/h | 5386m | 4.4m/s | -12.8°C | 61.6% | 526.4hPa | 0V | 00:00:00 | 00:00:00 | 00:00:00 | |
| OM5KV | 2026-09-03 11:26:52 | 49.02001 | 20.41736 | 113° | 51km/h | 5374m | 4.1m/s | -12.7°C | 0% | 0hPa | 0V | 00:00:00 | 00:00:00 | 00:00:00 | |
| OM5KV | 2026-09-03 11:26:48 | 49.02027 | 20.41645 | 117° | 51km/h | 5350m | 4.0m/s | -12.6°C | 0% | 0hPa | 0V | 00:00:00 | 00:00:00 | 00:00:00 | |
| OM5KV | 2026-09-03 11:26:40 | 49.02062 | 20.41516 | 108° | 57km/h | 5326m | 4.0m/s | -12.5°C | 0% | 0hPa | 0V | 00:00:00 | 00:00:00 | 00:00:00 | |
| OM5KV | 2026-09-03 11:26:35 | 49.02081 | 20.41409 | 108° | 55km/h | 5312m | 4.1m/s | 0°C | 0% | 0hPa | 0V | 00:00:00 | 00:00:00 | 00:00:00 | |
| SQ9EZE-13 | 2026-09-03 11:26:31 | 49.02102 | 20.41339 | 124° | 49km/h | 5289m | 6.2m/s | -12.2°C | 49.5% | 533.1hPa | 0V | 00:00:00 | 00:00:00 | 00:00:00 | |
| OM5KV | 2026-09-03 11:26:29 | 49.02115 | 20.41308 | 124° | 46km/h | 5277m | 5.4m/s | 0°C | 0% | 0hPa | 0V | 00:00:00 | 00:00:00 | 00:00:00 | |
| SQ9EZE-13 | 2026-09-03 11:26:16 | 49.02205 | 20.41089 | 123° | 49km/h | 5218m | 4.0m/s | -11.6°C | 37.9% | 538.1hPa | 0V | 00:00:00 | 00:00:00 | 00:00:00 | |
| GYPAP8-17 | 2026-09-03 11:26:15 | 49.02211 | 20.41073 | 126° | 47km/h | 5214m | 4.3m/s | -11.6°C | 36.6% | 538.5hPa | 0V | 00:00:00 | 00:00:00 | 00:00:00 | |
| SQ9EZE-14 | 2026-09-03 11:26:14 | 49.02211 | 20.41073 | 126° | 47km/h | 5214m | 4.3m/s | -11.6°C | 0% | 538.5hPa | 0V | 00:00:00 | 00:00:00 | 00:00:00 | |
| SQ9EZE-14 | 2026-09-03 11:25:59 | 49.02308 | 20.40886 | 127° | 42km/h | 5140m | 4.9m/s | -11.0°C | 0% | 543.6hPa | 0V | 00:00:00 | 00:00:00 | 00:00:00 | |
| SQ9EZE-13 | 2026-09-03 11:25:44 | 49.02397 | 20.40668 | 121° | 44km/h | 5069m | 5.8m/s | -10.9°C | 30.9% | 548.9hPa | 0V | 00:00:00 | 00:00:00 | 00:00:00 | |
| GYPAP8-17 | 2026-09-03 11:25:30 | 49.02491 | 20.40473 | 131° | 46km/h | 5002m | 4.8m/s | -10.6°C | 0% | 553.6hPa | 0V | 00:00:00 | 00:00:00 | 00:00:00 | |
| SQ9EZE-13 | 2026-09-03 11:25:28 | 49.02505 | 20.40445 | 127° | 44km/h | 4994m | 3.4m/s | -10.6°C | 33.7% | 554.1hPa | 0V | 00:00:00 | 00:00:00 | 00:00:00 | |
| SQ9EZE-13 | 2026-09-03 11:25:12 | 49.02592 | 20.40276 | 130° | 26km/h | 4919m | 3.3m/s | -10.3°C | 38.1% | 559.4hPa | 0V | 00:00:00 | 00:00:00 | 00:00:00 | |
| SQ9EZE-13 | 2026-09-03 11:24:57 | 49.02668 | 20.40146 | 116° | 31km/h | 4841m | 5.5m/s | -10.0°C | 49.9% | 564.9hPa | 0V | 00:00:00 | 00:00:00 | 00:00:00 | |
| GYPAP8-17 | 2026-09-03 11:24:46 | 49.02700 | 20.40027 | 109° | 29km/h | 4798m | 3.3m/s | 0°C | 0% | 568.3hPa | 0V | 00:00:00 | 00:00:00 | 00:00:00 | |
| SQ9EZE-13 | 2026-09-03 11:24:40 | 49.02723 | 20.39975 | 126° | 26km/h | 4778m | 2.9m/s | -9.7°C | 59.1% | 569.8hPa | 0V | 00:00:00 | 00:00:00 | 00:00:00 | |
| SQ9EZE-13 | 2026-09-03 11:24:25 | 49.02761 | 20.39792 | 85° | 27km/h | 4714m | 3.6m/s | -9.1°C | 58.0% | 574.5hPa | 0V | 00:00:00 | 00:00:00 | 00:00:00 | |
| SQ9EZE-13 | 2026-09-03 11:24:10 | 49.02788 | 20.39615 | 104° | 46km/h | 4649m | 3.4m/s | -8.5°C | 0% | 579.4hPa | 0V | 00:00:00 | 00:00:00 | 00:00:00 | |
| GYPAP8-17 | 2026-09-03 11:24:03 | 49.02805 | 20.39491 | 95° | 40km/h | 4616m | 5.0m/s | 0°C | 0% | 581.9hPa | 0V | 00:00:00 | 00:00:00 | 00:00:00 | |
| SQ9EZE-13 | 2026-09-03 11:23:55 | 49.02809 | 20.39374 | 99° | 40km/h | 4589m | 4.3m/s | 0°C | 0% | 583.8hPa | 0V | 00:00:00 | 00:00:00 | 00:00:00 | |
| SQ9EZE-14 | 2026-09-03 11:23:50 | 49.02818 | 20.39303 | 95° | 37km/h | 4563m | 4.5m/s | 0°C | 0% | 585.9hPa | 0V | 00:00:00 | 00:00:00 | 00:00:00 | |
| SQ9EZE-13 | 2026-09-03 11:23:39 | 49.02843 | 20.39168 | 124° | 40km/h | 4516m | 4.7m/s | 0°C | 0% | 0hPa | 0V | 00:00:00 | 00:00:00 | 00:00:00 | |
| SQ9EZE-14 | 2026-09-03 11:23:34 | 49.02863 | 20.39111 | 100° | 33km/h | 4491m | 4.4m/s | 0°C | 0% | 0hPa | 0V | 00:00:00 | 00:00:00 | 00:00:00 | |
| SQ9EZE-13 | 2026-09-03 11:23:23 | 49.02894 | 20.38950 | 113° | 31km/h | 4443m | 5.0m/s | 0°C | 0% | 0hPa | 0V | 00:00:00 | 00:00:00 | 00:00:00 | |
| SQ9EZE-14 | 2026-09-03 11:23:19 | 49.02907 | 20.38912 | 129° | 29km/h | 4427m | 4.1m/s | 0°C | 0% | 0hPa | 0V | 00:00:00 | 00:00:00 | 00:00:00 | |
| GYPAP8-17 | 2026-09-03 11:23:17 | 49.02917 | 20.38895 | 139° | 35km/h | 4420m | 2.6m/s | 0°C | 0% | 596.5hPa | 0V | 00:00:00 | 00:00:00 | 00:00:00 | |
| SQ9EZE-13 | 2026-09-03 11:23:07 | 49.02956 | 20.38803 | 144° | 18km/h | 4372m | 4.1m/s | 0°C | 0% | 0hPa | 0V | 00:00:00 | 00:00:00 | 00:00:00 | |
| SQ9EZE-13 | 2026-09-03 11:22:47 | 49.03016 | 20.38647 | 92° | 26km/h | 4282m | 3.8m/s | 0°C | 0% | 0hPa | 0V | 00:00:00 | 00:00:00 | 00:00:00 | |
| GYPAP8-17 | 2026-09-03 11:22:32 | 49.03052 | 20.38529 | 134° | 20km/h | 4218m | 4.8m/s | 0°C | 0% | 612.2hPa | 0V | 00:00:00 | 00:00:00 | 00:00:00 | |
| GYPAP8-17 | 2026-09-03 11:21:47 | 49.03132 | 20.37996 | 115° | 29km/h | 3985m | 5.6m/s | 0°C | 0% | 630.7hPa | 0V | 00:00:00 | 00:00:00 | 00:00:00 | |
| GYPAP8-17 | 2026-09-03 11:21:04 | 49.03169 | 20.37489 | 120° | 29km/h | 3748m | 4.2m/s | 0°C | 0% | 649.9hPa | 0V | 00:00:00 | 00:00:00 | 00:00:00 | |
| GYPAP8-17 | 2026-09-03 11:20:14 | 49.03169 | 20.36949 | 73° | 31km/h | 3510m | 4.7m/s | 0°C | 0% | 0hPa | 0V | 00:00:00 | 00:00:00 | 00:00:00 |